Provisional Data: Susquehanna River near Danville, PA


Please select a monitoring station.
Please select start date.
Please select start date.

Toggle Unit: C/F Toggle Unit: C/F
Sample Time Temperature (C) Temperature (F) Specific Conductivity (mS/cm) pH   Turbidity (NTU+) DO (mg/L)
8/1/2022 12:00:00 AM 27.37 81.266 0.453 8.08 0.52 0
8/1/2022 12:15:00 AM 27.36 81.248 0.453 8.08 0.51 0
8/1/2022 12:30:00 AM 27.35 81.23 0.453 8.08 0.5 0
8/1/2022 12:45:00 AM 27.35 81.23 0.453 8.11 0.53 0
8/1/2022 1:00:00 AM 27.34 81.212 0.453 8.06 0.53 0
8/1/2022 1:15:00 AM 27.33 81.194 0.453 8.06 0.52 0
8/1/2022 1:30:00 AM 27.33 81.194 0.453 8.07 0.47 0
8/1/2022 1:45:00 AM 27.32 81.176 0.453 8.05 0.5 0
8/1/2022 2:00:00 AM 27.31 81.158 0.453 8.05 0.5 0
8/1/2022 2:15:00 AM 27.3 81.14 0.453 8.07 0.49 0
8/1/2022 2:30:00 AM 27.3 81.14 0.453 8.07 0.5 0
8/1/2022 2:45:00 AM 27.29 81.122 0.453 8.07 0.52 0
8/1/2022 3:00:00 AM 27.28 81.104 0.453 8.03 0.49 0
8/1/2022 3:15:00 AM 27.27 81.086 0.453 8.03 0.48 0
8/1/2022 3:30:00 AM 27.27 81.086 0.453 8.02 0.5 0
8/1/2022 3:45:00 AM 27.26 81.068 0.453 8.02 0.5 0
8/1/2022 4:00:00 AM 27.07 80.726 0.453 8.04 0.75 0
8/1/2022 4:15:00 AM 26.53 79.754 0.456 8.11 0.71 0
8/1/2022 4:30:00 AM 26.39 79.502 0.458 8.21 0.64 0
8/1/2022 4:45:00 AM 26.35 79.43 0.458 8.24 0.76 0
8/1/2022 5:00:00 AM 26.33 79.394 0.458 8.2 0.67 0
8/1/2022 5:15:00 AM 26.32 79.376 0.458 8.21 0.78 0
8/1/2022 5:30:00 AM 26.32 79.376 0.459 8.19 0.83 0
8/1/2022 5:45:00 AM 26.31 79.358 0.459 8.2 0.76 0
8/1/2022 6:00:00 AM 26.3 79.34 0.459 8.19 0.67 0
8/1/2022 6:15:00 AM 26.29 79.32201 0.459 8.19 0.83 0
8/1/2022 6:30:00 AM 26.28 79.304 0.46 8.18 0.74 0
8/1/2022 6:45:00 AM 26.27 79.286 0.46 8.18 0.72 0
8/1/2022 7:00:00 AM 26.26 79.268 0.46 8.21 0.76 0
8/1/2022 7:15:00 AM 26.26 79.268 0.461 8.17 0.68 0
8/1/2022 7:30:00 AM 26.26 79.268 0.461 8.17 0.82 0
8/1/2022 7:45:00 AM 26.25 79.25 0.461 8.22 1.21 0
8/1/2022 8:00:00 AM 26.25 79.25 0.461 8.17 0.91 0
8/1/2022 8:15:00 AM 26.26 79.268 0.46 8.21 0.82 0
8/1/2022 8:30:00 AM 26.27 79.286 0.46 8.22 0.7 0
8/1/2022 8:45:00 AM 26.27 79.286 0.46 8.22 0.8 0
8/1/2022 9:00:00 AM 26.25 79.25 0.459 8.23 0.71 0
8/1/2022 9:15:00 AM 26.26 79.268 0.459 8.23 0.79 0
8/1/2022 9:30:00 AM 26.3 79.34 0.459 8.23 0.71 0
8/1/2022 9:45:00 AM 26.32 79.376 0.459 8.21 0.68 0
8/1/2022 10:00:00 AM 26.32 79.376 0.459 8.22 0.7 0
8/1/2022 10:15:00 AM 26.33 79.394 0.459 8.25 0.72 0
8/1/2022 10:30:00 AM 26.36 79.448 0.459 8.24 0.66 0
8/1/2022 10:45:00 AM 26.37 79.466 0.459 8.25 0.74 0
8/1/2022 11:00:00 AM 26.38 79.484 0.459 8.26 0.71 0
8/1/2022 11:15:00 AM 26.38 79.484 0.459 8.27 0.65 0
8/1/2022 11:30:00 AM 26.41 79.538 0.459 8.23 0.69 0
8/1/2022 11:45:00 AM 26.43 79.574 0.459 8.27 0.69 0
8/1/2022 12:00:00 PM 26.5 79.7 0.459 8.24 0.63 0
8/1/2022 12:15:00 PM 26.57 79.826 0.46 8.25 0.72 0
8/1/2022 12:30:00 PM 26.61 79.898 0.46 8.28 0.63 0
8/1/2022 12:45:00 PM 26.66 79.988 0.46 8.29 0.72 0
8/1/2022 1:00:00 PM 26.77 80.186 0.46 8.3 0.66 0
8/1/2022 1:15:00 PM 26.88 80.384 0.46 8.28 0.71 0
8/1/2022 1:30:00 PM 27.03 80.654 0.461 8.32 1.08 0
8/1/2022 1:45:00 PM 27.08 80.744 0.461 8.29 0.65 0
8/1/2022 2:00:00 PM 27.09 80.762 0.461 8.32 0.62 0
8/1/2022 2:15:00 PM 27.08 80.744 0.461 8.25 0.59 0
8/1/2022 2:30:00 PM 27.08 80.744 0.461 8.29 0.67 0
8/1/2022 2:45:00 PM 27.08 80.744 0.461 8.29 0.5 0
8/1/2022 3:00:00 PM 27.07 80.726 0.461 8.26 0.55 0
8/1/2022 3:15:00 PM 27.07 80.726 0.461 8.26 0.55 0
8/1/2022 3:30:00 PM 27.06 80.708 0.461 8.27 0.52 0
8/1/2022 3:45:00 PM 27.06 80.708 0.461 8.29 0.51 0
8/1/2022 4:00:00 PM 27.05 80.69 0.461 8.27 0.54 0
8/1/2022 4:15:00 PM 27.04 80.672 0.461 8.23 0.57 0
8/1/2022 4:30:00 PM 27.04 80.672 0.461 8.28 0.58 0
8/1/2022 4:45:00 PM 27.03 80.654 0.461 8.28 0.51 0
8/1/2022 5:00:00 PM 27.03 80.654 0.461 8.23 0.53 0
8/1/2022 5:15:00 PM 27.02 80.636 0.461 8.27 0.52 0
8/1/2022 5:30:00 PM 27.02 80.636 0.461 8.23 0.57 0
8/1/2022 5:45:00 PM 27.01 80.618 0.461 8.25 0.53 0
8/1/2022 6:00:00 PM 27.01 80.618 0.461 8.25 0.55 0
8/1/2022 6:15:00 PM 27 80.6 0.461 8.21 0.58 0
8/1/2022 6:30:00 PM 26.99 80.582 0.461 8.25 0.48 0
8/1/2022 6:45:00 PM 26.99 80.582 0.461 8.24 0.47 0
8/1/2022 7:00:00 PM 26.98 80.564 0.461 8.23 0.52 0
8/1/2022 7:15:00 PM 26.98 80.564 0.461 8.2 0.55 0
8/1/2022 7:30:00 PM 26.97 80.546 0.461 8.19 0.53 0
8/1/2022 7:45:00 PM 26.97 80.546 0.461 8.19 0.55 0
8/1/2022 8:00:00 PM 26.96 80.528 0.462 8.18 0.51 0
8/1/2022 8:15:00 PM 26.96 80.528 0.462 8.2 0.52 0
8/1/2022 8:30:00 PM 26.95 80.51 0.462 8.2 0.54 0
8/1/2022 8:45:00 PM 26.95 80.51 0.462 8.16 0.49 0
8/1/2022 9:00:00 PM 26.94 80.492 0.462 8.18 0.49 0
8/1/2022 9:15:00 PM 26.93 80.474 0.462 8.17 0.51 0
8/1/2022 9:30:00 PM 26.93 80.474 0.462 8.17 0.51 0
8/1/2022 9:45:00 PM 26.92 80.456 0.462 8.16 0.49 0
8/1/2022 10:00:00 PM 26.92 80.456 0.462 8.12 0.53 0
8/1/2022 10:15:00 PM 26.91 80.438 0.462 8.12 0.54 0
8/1/2022 10:30:00 PM 26.91 80.438 0.462 8.11 0.52 0
8/1/2022 10:45:00 PM 26.9 80.42 0.462 8.11 0.53 0
8/1/2022 11:00:00 PM 26.9 80.42 0.462 8.13 0.49 0
8/1/2022 11:15:00 PM 26.89 80.402 0.462 8.12 0.52 0
8/1/2022 11:30:00 PM 26.89 80.402 0.462 8.07 0.48 0
8/1/2022 11:45:00 PM 26.88 80.384 0.462 8.08 0.51 0
8/2/2022 12:00:00 AM 26.87 80.366 0.462 8.11 0.48 0
8/2/2022 12:15:00 AM 26.87 80.366 0.462 8.06 0.54 0
8/2/2022 12:30:00 AM 26.87 80.366 0.462 8.07 0.52 0
8/2/2022 12:45:00 AM 26.86 80.348 0.462 8.09 0.51 -2.72
8/2/2022 1:00:00 AM 26.85 80.33 0.462 8.05 0.52 0
8/2/2022 1:15:00 AM 26.85 80.33 0.462 8.06 0.51 0
8/2/2022 1:30:00 AM 26.84 80.312 0.462 8.04 0.51 0
8/2/2022 1:45:00 AM 26.84 80.312 0.462 8.06 0.57 0
8/2/2022 2:00:00 AM 26.83 80.294 0.462 8.06 0.52 0
8/2/2022 2:15:00 AM 26.82 80.276 0.462 8.02 0.54 0
8/2/2022 2:30:00 AM 26.82 80.276 0.462 8.03 0.55 0
8/2/2022 2:45:00 AM 26.81 80.258 0.462 8.04 0.52 0
8/2/2022 3:00:00 AM 26.81 80.258 0.462 8.02 0.56 0
8/2/2022 3:15:00 AM 26.8 80.24 0.462 8.03 0.52 0
8/2/2022 3:30:00 AM 26.79 80.222 0.462 8.04 0.54 0
8/2/2022 3:45:00 AM 26.79 80.222 0.462 8.01 0.55 0
8/2/2022 4:00:00 AM 26.49 79.682 0.462 8.04 0.6 0
8/2/2022 4:15:00 AM 26.3 79.34 0.464 8.1 0.72 0
8/2/2022 4:30:00 AM 26.23 79.214 0.464 8.15 0.78 0
8/2/2022 4:45:00 AM 26.19 79.142 0.463 8.17 0.64 0
8/2/2022 5:00:00 AM 26.17 79.106 0.463 8.21 0.66 0
8/2/2022 5:15:00 AM 26.14 79.052 0.463 8.18 0.72 0
8/2/2022 5:30:00 AM 26.12 79.016 0.462 8.21 0.76 0
8/2/2022 5:45:00 AM 26.1 78.98 0.462 8.21 0.73 0
8/2/2022 6:00:00 AM 26.08 78.944 0.462 8.21 0.76 0
8/2/2022 6:15:00 AM 26.08 78.944 0.462 8.21 1.03 0
8/2/2022 6:30:00 AM 26.09 78.962 0.462 8.18 0.88 0
8/2/2022 6:45:00 AM 26.1 78.98 0.462 8.19 0.73 0
8/2/2022 7:00:00 AM 26.12 79.016 0.462 8.18 0.63 0
8/2/2022 7:15:00 AM 26.16 79.088 0.461 8.19 0.71 0
8/2/2022 7:30:00 AM 26.2 79.16 0.461 8.22 0.77 0
8/2/2022 7:45:00 AM 26.25 79.25 0.46 8.23 0.79 0
8/2/2022 8:00:00 AM 26.31 79.358 0.46 8.24 0.79 0
8/2/2022 8:15:00 AM 26.38 79.484 0.46 8.25 0.75 0
8/2/2022 8:30:00 AM 26.46 79.628 0.46 8.21 0.81 0
8/2/2022 8:45:00 AM 26.55 79.79 0.459 8.24 0.84 0
8/2/2022 9:00:00 AM 26.63 79.934 0.459 8.27 0.79 0
8/2/2022 9:15:00 AM 26.74 80.132 0.459 8.28 0.74 0
8/2/2022 9:30:00 AM 26.82 80.276 0.459 8.24 0.62 0
8/2/2022 9:45:00 AM 26.92 80.456 0.459 8.26 0.61 0
8/2/2022 10:00:00 AM 26.99 80.582 0.459 8.27 0.69 0
8/2/2022 10:15:00 AM 27.03 80.654 0.459 8.3 0.83 0
8/2/2022 10:30:00 AM 27.12 80.816 0.459 8.31 0.65 0
8/2/2022 10:45:00 AM 27.2 80.96 0.459 8.28 0.59 0
8/2/2022 11:00:00 AM 27.28 81.104 0.459 8.3 0.61 0
8/2/2022 11:15:00 AM 27.37 81.266 0.46 8.31 0.63 0
8/2/2022 11:30:00 AM 27.45 81.41 0.46 8.32 0.62 0
8/2/2022 11:45:00 AM 27.52 81.536 0.46 8.33 0.57 0
8/2/2022 12:00:00 PM 27.53 81.554 0.46 8.37 0.67 0
8/2/2022 12:15:00 PM 27.59 81.662 0.46 8.37 0.63 0
8/2/2022 12:30:00 PM 27.71 81.878 0.46 8.39 0.58 0
8/2/2022 12:45:00 PM 27.79 82.022 0.46 8.36 0.62 0
8/2/2022 1:00:00 PM 27.83 82.094 0.46 8.37 0.69 0
8/2/2022 1:15:00 PM 27.88 82.184 0.46 8.39 0.87 0
8/2/2022 1:30:00 PM 27.94 82.292 0.46 8.39 0.56 0
8/2/2022 1:45:00 PM 28 82.4 0.46 8.39 0.59 0
8/2/2022 2:00:00 PM 28.01 82.418 0.46 8.38 0.52 0
8/2/2022 2:15:00 PM 28.02 82.436 0.46 8.41 0.64 0
8/2/2022 2:30:00 PM 28.02 82.436 0.46 8.37 0.56 0
8/2/2022 2:45:00 PM 28.01 82.418 0.46 8.37 0.52 0
8/2/2022 3:00:00 PM 28 82.4 0.46 8.36 0.51 0
8/2/2022 3:15:00 PM 28 82.4 0.46 8.38 0.49 0
8/2/2022 3:30:00 PM 27.98 82.364 0.46 8.36 0.52 0
8/2/2022 3:45:00 PM 27.97 82.346 0.46 8.34 0.53 0
8/2/2022 4:00:00 PM 27.97 82.346 0.46 8.34 0.48 0
8/2/2022 4:15:00 PM 27.96 82.328 0.46 8.36 0.5 0
8/2/2022 4:30:00 PM 27.95 82.31 0.46 8.32 0.5 0
8/2/2022 4:45:00 PM 27.94 82.292 0.46 8.37 0.53 0
8/2/2022 5:00:00 PM 27.92 82.256 0.46 8.34 0.52 0
8/2/2022 5:15:00 PM 27.91 82.238 0.46 8.33 0.54 0
8/2/2022 5:30:00 PM 27.91 82.238 0.46 8.34 0.54 0
8/2/2022 5:45:00 PM 27.89 82.202 0.46 8.34 0.54 0
8/2/2022 6:00:00 PM 27.88 82.184 0.46 8.29 0.52 0
8/2/2022 6:15:00 PM 27.87 82.166 0.46 8.3 0.52 0
8/2/2022 6:30:00 PM 27.87 82.166 0.46 8.3 0.58 0
8/2/2022 6:45:00 PM 27.86 82.148 0.46 8.27 0.5 0
8/2/2022 7:00:00 PM 27.85 82.13 0.46 8.27 0.58 0
8/2/2022 7:15:00 PM 27.84 82.112 0.46 8.25 0.53 0
8/2/2022 7:30:00 PM 27.83 82.094 0.46 8.24 0.56 0
8/2/2022 7:45:00 PM 27.82 82.076 0.46 8.23 0.51 0
8/2/2022 8:00:00 PM 27.81 82.058 0.46 8.26 0.48 0
8/2/2022 8:15:00 PM 27.8 82.04 0.46 8.21 0.44 0
8/2/2022 8:30:00 PM 27.8 82.04 0.46 8.2 0.48 0
8/2/2022 8:45:00 PM 27.79 82.022 0.46 8.2 0.49 0
8/2/2022 9:00:00 PM 27.78 82.004 0.46 8.19 0.5 0
8/2/2022 9:15:00 PM 27.77 81.986 0.46 8.22 0.56 0
8/2/2022 9:30:00 PM 27.77 81.986 0.46 8.18 0.56 0
8/2/2022 9:45:00 PM 27.75 81.95 0.46 8.2 0.44 0
8/2/2022 10:00:00 PM 27.75 81.95 0.46 8.2 0.49 0
8/2/2022 10:15:00 PM 27.74 81.932 0.46 8.17 0.48 0
8/2/2022 10:30:00 PM 27.73 81.914 0.46 8.19 0.48 0
8/2/2022 10:45:00 PM 27.72 81.896 0.46 8.2 0.53 0
8/2/2022 11:00:00 PM 27.72 81.896 0.461 8.15 0.5 0
8/2/2022 11:15:00 PM 27.71 81.878 0.461 8.17 0.55 0
8/2/2022 11:30:00 PM 27.7 81.86 0.461 8.15 0.52 0
8/2/2022 11:45:00 PM 27.69 81.842 0.461 8.17 0.52 0
8/3/2022 12:00:00 AM 27.69 81.842 0.461 8.16 0.52 0
8/3/2022 12:15:00 AM 27.68 81.824 0.461 8.15 0.49 0
8/3/2022 12:30:00 AM 27.67 81.806 0.461 8.15 0.52 0
8/3/2022 12:45:00 AM 27.66 81.788 0.461 8.16 0.55 0
8/3/2022 1:00:00 AM 27.66 81.788 0.461 8.17 0.51 0
8/3/2022 1:15:00 AM 27.65 81.77 0.461 8.15 0.53 0
8/3/2022 1:30:00 AM 27.64 81.752 0.461 8.15 0.49 0
8/3/2022 1:45:00 AM 27.63 81.734 0.461 8.12 0.57 0
8/3/2022 2:00:00 AM 27.62 81.716 0.461 8.1 0.47 0
8/3/2022 2:15:00 AM 27.62 81.716 0.461 8.11 0.52 0
8/3/2022 2:30:00 AM 27.61 81.698 0.461 8.11 0.56 0
8/3/2022 2:45:00 AM 27.6 81.68 0.461 8.12 0.5 0
8/3/2022 3:00:00 AM 27.6 81.68 0.461 8.09 0.57 0
8/3/2022 3:15:00 AM 27.59 81.662 0.461 8.12 0.57 0
8/3/2022 3:30:00 AM 27.58 81.644 0.461 8.11 0.51 0
8/3/2022 3:45:00 AM 27.58 81.644 0.461 8.06 0.54 0
8/3/2022 4:00:00 AM 27.35 81.23 0.46 8.12 0.55 0
8/3/2022 4:15:00 AM 26.81 80.258 0.455 8.18 0.68 0
8/3/2022 4:30:00 AM 26.7 80.06 0.453 8.23 0.64 0
8/3/2022 4:45:00 AM 26.66 79.988 0.453 8.26 0.7 0
8/3/2022 5:00:00 AM 26.64 79.952 0.452 8.28 0.67 0
8/3/2022 5:15:00 AM 26.63 79.934 0.452 8.28 0.68 0
8/3/2022 5:30:00 AM 26.62 79.916 0.452 8.27 0.72 0
8/3/2022 5:45:00 AM 26.61 79.898 0.452 8.26 0.7 0
8/3/2022 6:00:00 AM 26.59 79.862 0.452 8.23 0.77 0
8/3/2022 6:15:00 AM 26.58 79.844 0.451 8.23 0.67 0
8/3/2022 6:30:00 AM 26.57 79.826 0.451 8.26 0.76 0
8/3/2022 6:45:00 AM 26.58 79.844 0.451 8.26 0.7 0
8/3/2022 7:00:00 AM 26.59 79.862 0.45 8.23 0.66 0
8/3/2022 7:15:00 AM 26.62 79.916 0.45 8.24 0.64 0
8/3/2022 7:30:00 AM 26.65 79.97 0.45 8.27 0.72 0
8/3/2022 7:45:00 AM 26.68 80.024 0.449 8.28 0.62 0
8/3/2022 8:00:00 AM 26.73 80.114 0.449 8.28 0.66 0
8/3/2022 8:15:00 AM 26.79 80.222 0.45 8.25 0.81 0
8/3/2022 8:30:00 AM 26.86 80.348 0.45 8.26 0.63 0
8/3/2022 8:45:00 AM 26.95 80.51 0.45 8.28 0.66 0
8/3/2022 9:00:00 AM 27.03 80.654 0.45 8.28 0.62 0
8/3/2022 9:15:00 AM 27.13 80.834 0.45 8.32 0.6 0
8/3/2022 9:30:00 AM 27.24 81.032 0.45 8.33 0.62 0
8/3/2022 9:45:00 AM 27.35 81.23 0.451 8.33 0.65 0
8/3/2022 10:00:00 AM 27.46 81.42799 0.451 8.3 0.68 0
8/3/2022 10:15:00 AM 27.57 81.626 0.451 8.32 0.63 0
8/3/2022 10:30:00 AM 27.67 81.806 0.451 8.32 0.62 0
8/3/2022 10:45:00 AM 27.76 81.968 0.451 8.35 0.64 0
8/3/2022 11:00:00 AM 27.87 82.166 0.451 8.33 0.59 0
8/3/2022 11:15:00 AM 27.99 82.382 0.451 8.34 0.6 0
8/3/2022 11:30:00 AM 28.11 82.598 0.451 8.35 0.62 0
8/3/2022 11:45:00 AM 28.19 82.742 0.451 8.36 0.61 0
8/3/2022 12:00:00 PM 28.29 82.922 0.451 8.4 0.62 0
8/3/2022 12:15:00 PM 28.39 83.102 0.45 8.41 0.72 0
8/3/2022 12:30:00 PM 28.51 83.318 0.45 8.4 0.61 0
8/3/2022 12:45:00 PM 28.65 83.57 0.45 8.42 1.39 0
8/3/2022 1:00:00 PM 28.76 83.768 0.45 8.44 0.66 0
8/3/2022 1:15:00 PM 28.86 83.948 0.45 8.45 0.59 0
8/3/2022 1:30:00 PM 28.91 84.038 0.45 8.42 0.61 0
8/3/2022 1:45:00 PM 28.97 84.146 0.45 8.43 0.58 0
8/3/2022 2:00:00 PM 29.03 84.25401 0.451 8.46 0.67 0
8/3/2022 2:15:00 PM 29.07 84.326 0.451 8.46 0.52 0
8/3/2022 2:30:00 PM 29.08 84.344 0.451 8.45 0.52 0
8/3/2022 2:45:00 PM 29.08 84.344 0.451 8.44 0.48 0
8/3/2022 3:00:00 PM 29.07 84.326 0.451 8.43 0.54 0
8/3/2022 3:15:00 PM 29.06 84.308 0.451 8.38 0.49 0
8/3/2022 3:30:00 PM 29.04 84.272 0.451 8.4 0.57 0
8/3/2022 3:45:00 PM 29.03 84.25401 0.451 8.39 0.5 0
8/3/2022 4:00:00 PM 29.02 84.236 0.451 8.38 0.44 0
8/3/2022 4:15:00 PM 29 84.2 0.451 8.39 0.48 0
8/3/2022 4:30:00 PM 28.99 84.182 0.451 8.38 0.51 0
8/3/2022 4:45:00 PM 28.98 84.164 0.451 8.37 0.51 0
8/3/2022 5:00:00 PM 28.96 84.128 0.451 8.37 0.52 0
8/3/2022 5:15:00 PM 28.95 84.11 0.451 8.38 0.52 0
8/3/2022 5:30:00 PM 28.93 84.074 0.451 8.36 0.5 0
8/3/2022 5:45:00 PM 28.91 84.038 0.451 8.34 0.44 0
8/3/2022 6:00:00 PM 28.9 84.02 0.451 8.38 0.46 0
8/3/2022 6:15:00 PM 28.89 84.002 0.451 8.34 1.42 0
8/3/2022 6:30:00 PM 28.87 83.966 0.451 8.33 0.53 0
8/3/2022 6:45:00 PM 28.86 83.948 0.451 8.32 0.58 0
8/3/2022 7:00:00 PM 28.85 83.93 0.451 8.32 0.6 0
8/3/2022 7:15:00 PM 28.84 83.912 0.451 8.3 0.49 0
8/3/2022 7:30:00 PM 28.83 83.894 0.451 8.29 0.47 0
8/3/2022 7:45:00 PM 28.81 83.858 0.451 8.31 1.85 0
8/3/2022 8:00:00 PM 28.8 83.84 0.451 8.3 0.49 0
8/3/2022 8:15:00 PM 28.79 83.82201 0.451 8.27 0.47 0
8/3/2022 8:30:00 PM 28.78 83.804 0.451 8.26 0.51 0
8/3/2022 8:45:00 PM 28.76 83.768 0.451 8.28 0.46 0
8/3/2022 9:00:00 PM 28.75 83.75 0.451 8.28 0.47 0
8/3/2022 9:15:00 PM 28.74 83.732 0.451 8.24 0.61 0
8/3/2022 9:30:00 PM 28.73 83.714 0.451 8.22 0.49 0
8/3/2022 9:45:00 PM 28.72 83.696 0.451 8.23 0.55 0
8/3/2022 10:00:00 PM 28.71 83.67799 0.451 8.22 0.59 0
8/3/2022 10:15:00 PM 28.7 83.66 0.451 8.23 0.47 0
8/3/2022 10:30:00 PM 28.69 83.642 0.451 8.18 0.48 0
8/3/2022 10:45:00 PM 28.67 83.606 0.452 8.19 0.48 0
8/3/2022 11:00:00 PM 28.66 83.588 0.451 8.19 0.47 0
8/3/2022 11:15:00 PM 28.65 83.57 0.452 8.19 0.45 0
8/3/2022 11:30:00 PM 28.64 83.552 0.451 8.17 0.49 0
8/3/2022 11:45:00 PM 28.63 83.534 0.452 8.18 0.49 0
8/4/2022 12:00:00 AM 28.62 83.51601 0.452 8.17 0.47 0
8/4/2022 12:15:00 AM 28.61 83.498 0.452 8.17 0.45 0
8/4/2022 12:30:00 AM 28.6 83.48 0.452 8.19 0.49 0
8/4/2022 12:45:00 AM 28.59 83.462 0.452 8.15 0.55 0
8/4/2022 1:00:00 AM 28.58 83.444 0.452 8.16 0.49 0
8/4/2022 1:15:00 AM 28.57 83.426 0.452 8.16 0.45 0
8/4/2022 1:30:00 AM 28.56 83.408 0.452 8.16 0.48 0
8/4/2022 1:45:00 AM 28.55 83.39 0.452 8.13 0.5 0
8/4/2022 2:00:00 AM 28.54 83.372 0.452 8.16 0.5 0
8/4/2022 2:15:00 AM 28.53 83.354 0.452 8.15 0.51 0
8/4/2022 2:30:00 AM 28.52 83.336 0.452 8.11 0.49 0
8/4/2022 2:45:00 AM 28.51 83.318 0.452 8.12 0.48 0
8/4/2022 3:00:00 AM 28.5 83.3 0.452 8.11 0.5 0
8/4/2022 3:15:00 AM 28.49 83.282 0.452 8.13 0.5 0
8/4/2022 3:30:00 AM 28.48 83.264 0.452 8.09 0.51 0
8/4/2022 3:45:00 AM 28.48 83.264 0.452 8.14 0.5 0
8/4/2022 4:00:00 AM 28.35 83.03 0.452 8.12 0.49 0
8/4/2022 4:15:00 AM 27.75 81.95 0.449 8.14 0.7 0
8/4/2022 4:30:00 AM 27.56 81.608 0.448 8.2 0.68 0
8/4/2022 4:45:00 AM 27.53 81.554 0.448 8.22 0.68 0
8/4/2022 5:00:00 AM 27.53 81.554 0.448 8.22 0.76 0
8/4/2022 5:15:00 AM 27.54 81.57201 0.448 8.22 0.71 0
8/4/2022 5:30:00 AM 27.56 81.608 0.448 8.22 0.68 0
8/4/2022 5:45:00 AM 27.56 81.608 0.448 8.21 0.67 0
8/4/2022 6:00:00 AM 27.57 81.626 0.448 8.24 0.71 0
8/4/2022 6:15:00 AM 27.58 81.644 0.448 8.21 0.74 0
8/4/2022 6:30:00 AM 27.59 81.662 0.448 8.22 0.76 0
8/4/2022 6:45:00 AM 27.62 81.716 0.448 8.22 0.68 0
8/4/2022 7:00:00 AM 27.65 81.77 0.448 8.23 0.62 0
8/4/2022 7:15:00 AM 27.68 81.824 0.449 8.24 0.65 0
8/4/2022 7:30:00 AM 27.73 81.914 0.449 8.26 0.64 0
8/4/2022 7:45:00 AM 27.78 82.004 0.449 8.24 0.68 0
8/4/2022 8:00:00 AM 27.85 82.13 0.449 8.28 0.63 0
8/4/2022 8:15:00 AM 27.94 82.292 0.449 8.25 0.63 0
8/4/2022 8:30:00 AM 27.99 82.382 0.449 8.27 0.69 0
8/4/2022 8:45:00 AM 28.06 82.508 0.449 8.28 0.63 0
8/4/2022 9:00:00 AM 28.15 82.67 0.45 8.31 0.67 0
8/4/2022 9:15:00 AM 28.25 82.85 0.45 8.28 0.68 0
8/4/2022 9:30:00 AM 28.38 83.084 0.45 8.3 0.62 0
8/4/2022 9:45:00 AM 28.5 83.3 0.451 8.31 0.61 0
8/4/2022 10:00:00 AM 28.6 83.48 0.451 8.32 0.63 0
8/4/2022 10:15:00 AM 28.68 83.624 0.452 8.32 0.56 0
8/4/2022 10:30:00 AM 28.77 83.786 0.452 8.33 0.56 0
8/4/2022 10:45:00 AM 28.9 84.02 0.452 8.34 0.58 0
8/4/2022 11:00:00 AM 29.02 84.236 0.452 8.35 0.56 0
8/4/2022 11:15:00 AM 29.14 84.452 0.453 8.35 0.64 0
8/4/2022 11:30:00 AM 29.24 84.632 0.453 8.36 0.61 0
8/4/2022 11:45:00 AM 29.39 84.902 0.452 8.37 0.57 0
8/4/2022 12:00:00 PM 29.5 85.1 0.452 8.41 0.55 0
8/4/2022 12:15:00 PM 29.58 85.244 0.452 8.39 0.59 0
8/4/2022 12:30:00 PM 29.67 85.406 0.452 8.41 0.59 0
8/4/2022 12:45:00 PM 29.75 85.55 0.452 8.41 0.57 0
8/4/2022 1:00:00 PM 29.87 85.76601 0.452 8.43 0.59 0
8/4/2022 1:15:00 PM 29.97 85.946 0.452 8.45 0.55 0
8/4/2022 1:30:00 PM 30.01 86.018 0.452 8.46 0.56 0
8/4/2022 1:45:00 PM 29.98 85.964 0.452 8.46 0.56 0
8/4/2022 2:00:00 PM 29.89 85.802 0.451 8.46 0.48 0
8/4/2022 2:15:00 PM 29.82 85.676 0.451 8.47 0.54 0
8/4/2022 2:30:00 PM 29.73 85.514 0.451 8.47 0.45 0
8/4/2022 2:45:00 PM 29.68 85.424 0.451 8.48 0.49 0
8/4/2022 3:00:00 PM 29.71 85.478 0.451 8.51 0.54 0
8/4/2022 3:15:00 PM 29.72 85.49599 0.451 8.49 0.54 0
8/4/2022 3:30:00 PM 29.69 85.442 0.451 8.5 0.56 0
8/4/2022 3:45:00 PM 29.63 85.334 0.451 8.51 0.52 0
8/4/2022 4:00:00 PM 29.56 85.208 0.451 8.53 0.55 0
8/4/2022 4:15:00 PM 29.46 85.028 0.451 8.5 1.07 0
8/4/2022 4:30:00 PM 29.43 84.974 0.451 8.5 0.95 0
8/4/2022 4:45:00 PM 29.45 85.01 0.451 8.5 0.76 0
8/4/2022 5:00:00 PM 29.46 85.028 0.452 8.5 0.55 0
8/4/2022 5:15:00 PM 29.46 85.028 0.452 8.46 0.56 0
8/4/2022 5:30:00 PM 29.45 85.01 0.452 8.45 0.52 0
8/4/2022 5:45:00 PM 29.45 85.01 0.452 8.45 0.56 0
8/4/2022 6:00:00 PM 29.44 84.992 0.452 8.45 0.55 0
8/4/2022 6:15:00 PM 29.43 84.974 0.452 8.47 0.52 0
8/4/2022 6:30:00 PM 29.42 84.956 0.452 8.43 0.52 0
8/4/2022 6:45:00 PM 29.42 84.956 0.452 8.43 0.49 0
8/4/2022 7:00:00 PM 29.4 84.92 0.452 8.4 0.48 0
8/4/2022 7:15:00 PM 29.4 84.92 0.452 8.42 0.53 0
8/4/2022 7:30:00 PM 29.39 84.902 0.452 8.41 0.52 0
8/4/2022 7:45:00 PM 29.38 84.884 0.452 8.41 0.5 0
8/4/2022 8:00:00 PM 29.37 84.866 0.452 8.42 0.51 0
8/4/2022 8:15:00 PM 29.36 84.848 0.452 8.41 0.51 0
8/4/2022 8:30:00 PM 29.35 84.83 0.452 8.4 0.49 0
8/4/2022 8:45:00 PM 29.34 84.812 0.452 8.38 0.48 0
8/4/2022 9:00:00 PM 29.33 84.794 0.452 8.37 0.47 0
8/4/2022 9:15:00 PM 29.32 84.776 0.452 8.37 0.54 0
8/4/2022 9:30:00 PM 29.31 84.758 0.452 8.36 0.5 0
8/4/2022 9:45:00 PM 29.3 84.74 0.452 8.38 0.48 0
8/4/2022 10:00:00 PM 29.3 84.74 0.452 8.37 0.52 0
8/4/2022 10:15:00 PM 29.28 84.704 0.452 8.33 0.69 0
8/4/2022 10:30:00 PM 29.27 84.686 0.452 8.36 0.5 0
8/4/2022 10:45:00 PM 29.26 84.668 0.452 8.34 0.49 0
8/4/2022 11:00:00 PM 29.26 84.668 0.453 8.34 0.51 0
8/4/2022 11:15:00 PM 29.25 84.65 0.453 8.29 0.54 0
8/4/2022 11:30:00 PM 29.24 84.632 0.453 8.28 0.48 0
8/4/2022 11:45:00 PM 29.23 84.614 0.453 8.28 0.51 0
8/5/2022 12:00:00 AM 29.22 84.59599 0.453 8.2 0.5 0
8/5/2022 12:15:00 AM 29.21 84.578 0.453 8.28 0.53 0
8/5/2022 12:30:00 AM 29.2 84.56001 0.453 8.23 0.5 0
8/5/2022 12:45:00 AM 29.19 84.542 0.453 8.26 0.48 0
8/5/2022 1:00:00 AM 29.18 84.524 0.453 8.23 0.54 0
8/5/2022 1:15:00 AM 29.17 84.506 0.453 8.2 0.49 0
8/5/2022 1:30:00 AM 29.16 84.488 0.453 8.24 0.51 0
8/5/2022 1:45:00 AM 29.15 84.47 0.453 8.19 0.51 0
8/5/2022 2:00:00 AM 29.14 84.452 0.453 8.22 0.51 0
8/5/2022 2:15:00 AM 29.13 84.434 0.453 8.21 0.47 0
8/5/2022 2:30:00 AM 29.12 84.416 0.453 8.16 0.48 0
8/5/2022 2:45:00 AM 29.11 84.39799 0.453 8.2 0.55 0
8/5/2022 3:00:00 AM 29.1 84.38 0.453 8.15 0.54 0
8/5/2022 3:15:00 AM 29.09 84.362 0.453 8.14 0.61 0
8/5/2022 3:30:00 AM 29.08 84.344 0.453 8.15 0.57 0
8/5/2022 3:45:00 AM 29.07 84.326 0.453 8.16 0.53 0
8/5/2022 4:00:00 AM 29.06 84.308 0.453 8.14 0.48 0
8/5/2022 4:15:00 AM 28.89 84.002 0.453 8.1 0.59 0
8/5/2022 4:30:00 AM 28.31 82.958 0.453 8.17 0.61 0
8/5/2022 4:45:00 AM 27.97 82.346 0.451 8.17 0.63 0
8/5/2022 5:00:00 AM 27.89 82.202 0.45 8.19 0.71 0
8/5/2022 5:15:00 AM 27.87 82.166 0.449 8.19 0.69 0
8/5/2022 5:30:00 AM 27.86 82.148 0.449 8.19 0.64 0
8/5/2022 5:45:00 AM 27.86 82.148 0.448 8.19 0.72 0
8/5/2022 6:00:00 AM 27.87 82.166 0.448 8.18 0.59 0
8/5/2022 6:15:00 AM 27.88 82.184 0.449 8.17 0.63 0
8/5/2022 6:30:00 AM 27.9 82.22 0.449 8.18 0.65 0
8/5/2022 6:45:00 AM 27.91 82.238 0.448 8.18 0.63 0
8/5/2022 7:00:00 AM 27.94 82.292 0.449 8.22 0.67 0
8/5/2022 7:15:00 AM 27.97 82.346 0.449 8.19 0.63 0
8/5/2022 7:30:00 AM 28.02 82.436 0.45 8.21 0.78 0
8/5/2022 7:45:00 AM 28.08 82.544 0.45 8.23 0.64 0
8/5/2022 8:00:00 AM 28.13 82.634 0.451 8.24 0.59 0
8/5/2022 8:15:00 AM 28.17 82.706 0.451 8.24 0.7 0
8/5/2022 8:30:00 AM 28.23 82.814 0.451 8.25 0.7 0
8/5/2022 8:45:00 AM 28.34 83.012 0.451 8.27 0.64 0
8/5/2022 9:00:00 AM 28.41 83.138 0.451 8.28 0.66 0
8/5/2022 9:15:00 AM 28.47 83.24599 0.452 8.29 0.72 0
8/5/2022 9:30:00 AM 28.51 83.318 0.452 8.3 0.59 0
8/5/2022 9:45:00 AM 28.57 83.426 0.452 8.32 0.56 0
8/5/2022 10:00:00 AM 28.62 83.51601 0.452 8.33 0.62 0
8/5/2022 10:15:00 AM 28.64 83.552 0.452 8.32 0.56 0
8/5/2022 10:30:00 AM 28.65 83.57 0.452 8.32 0.58 0
8/5/2022 10:45:00 AM 28.66 83.588 0.452 8.35 0.55 3
8/5/2022 11:00:00 AM 28.7 83.66 0.452 8.31 0.51 0
8/5/2022 11:15:00 AM 28.76 83.768 0.452 8.33 0.52 0
8/5/2022 11:30:00 AM 28.84 83.912 0.452 8.34 0.55 0
8/5/2022 11:45:00 AM 28.94 84.092 0.453 8.35 0.55 0
8/5/2022 12:00:00 PM 29.06 84.308 0.453 8.36 0.53 0
8/5/2022 12:15:00 PM 29.23 84.614 0.453 8.39 0.55 0
8/5/2022 12:30:00 PM 29.4 84.92 0.453 8.43 0.53 0
8/5/2022 12:45:00 PM 29.49 85.082 0.453 8.43 0.94 0
8/5/2022 1:00:00 PM 29.58 85.244 0.454 8.44 0.73 0
8/5/2022 1:15:00 PM 29.7 85.46001 0.454 8.49 0.64 0
8/5/2022 1:30:00 PM 29.84 85.712 0.454 8.48 0.51 0
8/5/2022 1:45:00 PM 29.96 85.92799 0.454 8.49 0.58 0
8/5/2022 2:00:00 PM 30 86 0.453 8.52 0.52 0
8/5/2022 2:15:00 PM 30.08 86.144 0.453 8.5 0.55 0
8/5/2022 2:30:00 PM 30.12 86.216 0.453 8.5 0.53 0
8/5/2022 2:45:00 PM 30.13 86.23399 0.453 8.5 0.52 0
8/5/2022 3:00:00 PM 30.13 86.23399 0.453 8.48 0.47 0
8/5/2022 3:15:00 PM 30.11 86.198 0.453 8.47 0.45 0
8/5/2022 3:30:00 PM 30.1 86.18 0.453 8.5 0.47 0
8/5/2022 3:45:00 PM 30.09 86.162 0.453 8.46 0.5 0
8/5/2022 4:00:00 PM 30.08 86.144 0.453 8.47 0.49 0
8/5/2022 4:15:00 PM 30.07 86.126 0.453 8.47 0.46 0
8/5/2022 4:30:00 PM 30.05 86.09 0.453 8.48 0.49 0
8/5/2022 4:45:00 PM 30.04 86.07201 0.453 8.43 0.46 0
8/5/2022 5:00:00 PM 30.03 86.054 0.453 8.46 0.47 0
8/5/2022 5:15:00 PM 30.01 86.018 0.453 8.42 0.49 0
8/5/2022 5:30:00 PM 30 86 0.453 8.42 0.45 0
8/5/2022 5:45:00 PM 29.99 85.982 0.453 8.41 0.45 0
8/5/2022 6:00:00 PM 29.97 85.946 0.453 8.42 0.62 0
8/5/2022 6:15:00 PM 29.96 85.92799 0.453 8.41 0.43 0
8/5/2022 6:30:00 PM 29.95 85.91 0.453 8.39 0.45 0
8/5/2022 6:45:00 PM 29.94 85.892 0.454 8.41 0.44 0
8/5/2022 7:00:00 PM 29.92 85.856 0.453 8.37 0.48 0
8/5/2022 7:15:00 PM 29.91 85.838 0.454 8.36 0.46 0
8/5/2022 7:30:00 PM 29.9 85.82 0.454 8.35 0.44 0
8/5/2022 7:45:00 PM 29.88 85.784 0.454 8.35 0.43 0
8/5/2022 8:00:00 PM 29.87 85.76601 0.454 8.32 0.46 0
8/5/2022 8:15:00 PM 29.86 85.748 0.454 8.31 0.41 0
8/5/2022 8:30:00 PM 29.85 85.73 0.454 8.3 0.45 0
8/5/2022 8:45:00 PM 29.84 85.712 0.454 8.32 0.47 0
8/5/2022 9:00:00 PM 29.82 85.676 0.454 8.27 0.51 0
8/5/2022 9:15:00 PM 29.81 85.658 0.454 8.28 0.44 0
8/5/2022 9:30:00 PM 29.8 85.64 0.454 8.29 0.47 0
8/5/2022 9:45:00 PM 29.79 85.622 0.454 8.25 0.46 0
8/5/2022 10:00:00 PM 29.78 85.604 0.454 8.24 0.47 0
8/5/2022 10:15:00 PM 29.77 85.586 0.454 8.27 0.56 0
8/5/2022 10:30:00 PM 29.75 85.55 0.454 8.25 0.46 0
8/5/2022 10:45:00 PM 29.74 85.532 0.454 8.25 0.45 0
8/5/2022 11:00:00 PM 29.73 85.514 0.454 8.24 0.46 0
8/5/2022 11:15:00 PM 29.71 85.478 0.454 8.24 0.47 0
8/5/2022 11:30:00 PM 29.7 85.46001 0.454 8.2 0.44 0
8/5/2022 11:45:00 PM 29.69 85.442 0.454 8.21 0.41 0
8/6/2022 12:00:00 AM 29.68 85.424 0.454 8.19 0.45 0
8/6/2022 12:15:00 AM 29.67 85.406 0.454 8.19 0.46 0
8/6/2022 12:30:00 AM 29.65 85.37 0.455 8.2 0.43 0
8/6/2022 12:45:00 AM 29.64 85.35201 0.454 8.18 0.48 0
8/6/2022 1:00:00 AM 29.63 85.334 0.455 8.15 0.43 0
8/6/2022 1:15:00 AM 29.62 85.316 0.454 8.16 0.47 0
8/6/2022 1:30:00 AM 29.61 85.298 0.455 8.18 0.42 0
8/6/2022 1:45:00 AM 29.59 85.262 0.455 8.15 0.44 0
8/6/2022 2:00:00 AM 29.58 85.244 0.455 8.17 2.14 0
8/6/2022 2:15:00 AM 29.57 85.226 0.455 8.15 0.9 0
8/6/2022 2:30:00 AM 29.56 85.208 0.455 8.12 0.47 0
8/6/2022 2:45:00 AM 29.55 85.18999 0.455 8.15 0.48 0
8/6/2022 3:00:00 AM 29.54 85.172 0.455 8.12 0.45 0
8/6/2022 3:15:00 AM 29.53 85.15401 0.455 8.1 0.34 0
8/6/2022 3:30:00 AM 29.52 85.136 0.455 8.11 0.45 0
8/6/2022 3:45:00 AM 29.51 85.118 0.455 8.12 0.66 0
8/6/2022 4:00:00 AM 29.5 85.1 0.455 8.11 1.55 0
8/6/2022 4:15:00 AM 29.48 85.064 0.455 8.1 0.4 0
8/6/2022 4:30:00 AM 29.48 85.064 0.455 8.09 0.45 0
8/6/2022 4:45:00 AM 29.46 85.028 0.455 8.1 0.17 0
8/6/2022 5:00:00 AM 29.45 85.01 0.455 8.1 0.45 0
8/6/2022 5:15:00 AM 29.39 84.902 0.455 8.09 0.48 0
8/6/2022 5:30:00 AM 28.82 83.876 0.453 8.12 0.67 0
8/6/2022 5:45:00 AM 28.48 83.264 0.449 8.17 0.59 0
8/6/2022 6:00:00 AM 28.37 83.066 0.443 8.18 0.75 0
8/6/2022 6:15:00 AM 28.33 82.994 0.438 8.18 0.86 0
8/6/2022 6:30:00 AM 28.31 82.958 0.435 8.18 0.98 0
8/6/2022 6:45:00 AM 28.29 82.922 0.432 8.17 1.36 0
8/6/2022 7:00:00 AM 28.27 82.886 0.431 8.16 1.08 0
8/6/2022 7:15:00 AM 28.24 82.832 0.431 8.16 1.09 0
8/6/2022 7:30:00 AM 28.23 82.814 0.432 8.16 1.18 0
8/6/2022 7:45:00 AM 28.23 82.814 0.432 8.18 1.14 0
8/6/2022 8:00:00 AM 28.24 82.832 0.433 8.2 1.09 0
8/6/2022 8:15:00 AM 28.27 82.886 0.435 8.18 1.07 0
8/6/2022 8:30:00 AM 28.35 83.03 0.437 8.21 4.92 0
8/6/2022 8:45:00 AM 28.44 83.192 0.44 8.21 1 0
8/6/2022 9:00:00 AM 28.52 83.336 0.442 8.24 1.02 0
8/6/2022 9:15:00 AM 28.57 83.426 0.444 8.25 0.99 0
8/6/2022 9:30:00 AM 28.67 83.606 0.446 8.25 0.9 0
8/6/2022 9:45:00 AM 28.75 83.75 0.447 8.27 0.89 0
8/6/2022 10:00:00 AM 28.87 83.966 0.448 8.28 0.87 0
8/6/2022 10:15:00 AM 28.98 84.164 0.449 8.29 1.22 0
8/6/2022 10:30:00 AM 29.07 84.326 0.45 8.3 0.73 0
8/6/2022 10:45:00 AM 29.17 84.506 0.45 8.32 1.02 0
8/6/2022 11:00:00 AM 29.33 84.794 0.451 8.32 0.95 0
8/6/2022 11:15:00 AM 29.49 85.082 0.451 8.33 0.77 0
8/6/2022 11:30:00 AM 29.62 85.316 0.451 8.35 0.69 0
8/6/2022 11:45:00 AM 29.74 85.532 0.451 8.36 0.64 0
8/6/2022 12:00:00 PM 29.8 85.64 0.45 8.37 0.71 0
8/6/2022 12:15:00 PM 29.82 85.676 0.45 8.38 0.66 0
8/6/2022 12:30:00 PM 29.84 85.712 0.45 8.39 0.7 0
8/6/2022 12:45:00 PM 29.87 85.76601 0.449 8.41 0.66 0
8/6/2022 1:00:00 PM 29.92 85.856 0.448 8.4 0.67 0
8/6/2022 1:15:00 PM 29.97 85.946 0.448 8.41 0.61 0
8/6/2022 1:30:00 PM 30.05 86.09 0.447 8.42 0.73 0
8/6/2022 1:45:00 PM 30.17 86.306 0.447 8.44 0.67 0
8/6/2022 2:00:00 PM 30.36 86.64799 0.447 8.46 0.66 0
8/6/2022 2:15:00 PM 30.52 86.936 0.447 8.47 0.4 0
8/6/2022 2:30:00 PM 30.61 87.098 0.447 8.49 0.52 0
8/6/2022 2:45:00 PM 30.66 87.188 0.447 8.52 0.56 0
8/6/2022 3:00:00 PM 30.68 87.224 0.447 8.51 0.55 0
8/6/2022 3:15:00 PM 30.66 87.188 0.446 8.52 0.54 0
8/6/2022 3:30:00 PM 30.65 87.17 0.446 8.53 0.88 0
8/6/2022 3:45:00 PM 30.61 87.098 0.446 8.52 3.56 0
8/6/2022 4:00:00 PM 30.58 87.044 0.446 8.52 1.18 0
8/6/2022 4:15:00 PM 30.54 86.972 0.446 8.53 0.6 0
8/6/2022 4:30:00 PM 30.46 86.828 0.446 8.53 0.5 0
8/6/2022 4:45:00 PM 30.44 86.792 0.446 8.51 0.47 0
8/6/2022 5:00:00 PM 30.43 86.774 0.446 8.51 0.8 0
8/6/2022 5:15:00 PM 30.42 86.756 0.446 8.5 0.51 0
8/6/2022 5:30:00 PM 30.41 86.738 0.446 8.49 0.48 0
8/6/2022 5:45:00 PM 30.4 86.72 0.446 8.47 0.49 0
8/6/2022 6:00:00 PM 30.39 86.702 0.446 8.46 0.58 0
8/6/2022 6:15:00 PM 30.38 86.684 0.446 8.47 0.48 0
8/6/2022 6:30:00 PM 30.37 86.666 0.446 8.44 0.45 0
8/6/2022 6:45:00 PM 30.36 86.64799 0.446 8.46 0.49 0
8/6/2022 7:00:00 PM 30.35 86.63 0.446 8.44 0.5 0
8/6/2022 7:15:00 PM 30.34 86.612 0.446 8.43 0.52 0
8/6/2022 7:30:00 PM 30.33 86.594 0.446 8.43 0.92 0
8/6/2022 7:45:00 PM 30.32 86.576 0.446 8.41 1.49 0
8/6/2022 8:00:00 PM 30.31 86.558 0.446 8.39 0.6 0
8/6/2022 8:15:00 PM 30.29 86.522 0.447 8.4 0.85 0
8/6/2022 8:30:00 PM 30.28 86.50401 0.446 8.37 0.83 0
8/6/2022 8:45:00 PM 30.27 86.486 0.447 8.35 0.46 0
8/6/2022 9:00:00 PM 30.26 86.468 0.447 8.34 0.49 0
8/6/2022 9:15:00 PM 30.25 86.45 0.447 8.33 0.49 0
8/6/2022 9:30:00 PM 30.24 86.432 0.447 8.31 0.56 0
8/6/2022 9:45:00 PM 30.23 86.414 0.447 8.29 0.58 0
8/6/2022 10:00:00 PM 30.22 86.396 0.447 8.28 0.68 0
8/6/2022 10:15:00 PM 30.21 86.378 0.447 8.25 0.6 0
8/6/2022 10:30:00 PM 30.19 86.342 0.447 8.26 0.48 0
8/6/2022 10:45:00 PM 30.18 86.324 0.447 8.26 0.63 0
8/6/2022 11:00:00 PM 30.17 86.306 0.447 8.24 1.04 0
8/6/2022 11:15:00 PM 30.16 86.288 0.447 8.23 0.91 0
8/6/2022 11:30:00 PM 30.15 86.27 0.447 8.23 0.56 0
8/6/2022 11:45:00 PM 30.14 86.252 0.447 8.21 0.56 0
8/7/2022 12:00:00 AM 30.13 86.23399 0.447 8.22 0.5 0
8/7/2022 12:15:00 AM 30.12 86.216 0.447 8.19 0.58 0
8/7/2022 12:30:00 AM 30.11 86.198 0.447 8.19 0.59 0
8/7/2022 12:45:00 AM 30.09 86.162 0.447 8.18 0.79 0
8/7/2022 1:00:00 AM 30.08 86.144 0.447 8.18 0.64 0
8/7/2022 1:15:00 AM 30.07 86.126 0.448 8.18 0.57 0
8/7/2022 1:30:00 AM 30.06 86.108 0.447 8.16 0.57 0
8/7/2022 1:45:00 AM 30.05 86.09 0.448 8.16 0.52 0
8/7/2022 2:00:00 AM 30.04 86.07201 0.447 8.15 0.53 0
8/7/2022 2:15:00 AM 30.02 86.036 0.447 8.14 0.46 0
8/7/2022 2:30:00 AM 30.02 86.036 0.448 8.14 0.49 0
8/7/2022 2:45:00 AM 30 86 0.448 8.13 0.51 0
8/7/2022 3:00:00 AM 29.99 85.982 0.448 8.13 0.47 0
8/7/2022 3:15:00 AM 29.98 85.964 0.448 8.12 0.47 0
8/7/2022 3:30:00 AM 29.97 85.946 0.448 8.14 0.49 0
8/7/2022 3:45:00 AM 29.96 85.92799 0.448 8.11 0.48 0
8/7/2022 4:00:00 AM 29.95 85.91 0.448 8.11 0.47 0
8/7/2022 4:15:00 AM 29.94 85.892 0.448 8.11 0.46 0
8/7/2022 4:30:00 AM 29.93 85.874 0.448 8.11 0.49 0
8/7/2022 4:45:00 AM 29.92 85.856 0.448 8.1 0.46 0
8/7/2022 5:00:00 AM 29.91 85.838 0.448 8.1 0.48 0
8/7/2022 5:15:00 AM 29.9 85.82 0.448 8.11 0.44 0
8/7/2022 5:30:00 AM 29.86 85.748 0.448 8.07 0.49 0
8/7/2022 5:45:00 AM 29.2 84.56001 0.446 8.11 0.61 0
8/7/2022 6:00:00 AM 28.9 84.02 0.445 8.15 0.69 0
8/7/2022 6:15:00 AM 28.85 83.93 0.445 8.17 0.7 0
8/7/2022 6:30:00 AM 28.83 83.894 0.445 8.19 0.66 0
8/7/2022 6:45:00 AM 28.83 83.894 0.445 8.2 0.67 0
8/7/2022 7:00:00 AM 28.83 83.894 0.444 8.21 0.61 0
8/7/2022 7:15:00 AM 28.83 83.894 0.444 8.19 0.64 0
8/7/2022 7:30:00 AM 28.85 83.93 0.444 8.2 0.61 0
8/7/2022 7:45:00 AM 28.88 83.98399 0.444 8.22 0.68 0
8/7/2022 8:00:00 AM 28.92 84.056 0.444 8.21 0.61 0
8/7/2022 8:15:00 AM 28.96 84.128 0.444 8.25 0.61 0
8/7/2022 8:30:00 AM 29.01 84.218 0.445 8.26 0.6 0
8/7/2022 8:45:00 AM 29.05 84.28999 0.445 8.25 0.63 0
8/7/2022 9:00:00 AM 29.06 84.308 0.445 8.28 0.84 0
8/7/2022 9:15:00 AM 29.11 84.39799 0.445 8.26 0.72 0
8/7/2022 9:30:00 AM 29.23 84.614 0.445 8.3 0.67 0
8/7/2022 9:45:00 AM 29.37 84.866 0.445 8.29 0.64 0
8/7/2022 10:00:00 AM 29.47 85.046 0.445 8.31 0.57 0
8/7/2022 10:15:00 AM 29.57 85.226 0.445 8.33 0.56 0
8/7/2022 10:30:00 AM 29.68 85.424 0.444 8.33 0.54 0
8/7/2022 10:45:00 AM 29.81 85.658 0.444 8.35 0.56 0
8/7/2022 11:00:00 AM 29.98 85.964 0.445 8.36 0.71 0
8/7/2022 11:15:00 AM 30.09 86.162 0.445 8.38 0.6 0
8/7/2022 11:30:00 AM 30.22 86.396 0.445 8.37 0.6 0
8/7/2022 11:45:00 AM 30.36 86.64799 0.446 8.4 0.63 0
8/7/2022 12:00:00 PM 30.41 86.738 0.446 8.41 0.5 0
8/7/2022 12:15:00 PM 30.41 86.738 0.446 8.41 0.51 0
8/7/2022 12:30:00 PM 30.46 86.828 0.447 8.4 0.53 0
8/7/2022 12:45:00 PM 30.44 86.792 0.447 8.43 0.61 0
8/7/2022 1:00:00 PM 30.41 86.738 0.447 8.45 0.54 0
8/7/2022 1:15:00 PM 30.41 86.738 0.447 8.41 0.52 0
8/7/2022 1:30:00 PM 30.39 86.702 0.447 8.42 0.46 0
8/7/2022 1:45:00 PM 30.39 86.702 0.448 8.41 0.55 0
8/7/2022 2:00:00 PM 30.38 86.684 0.448 8.38 0.49 0
8/7/2022 2:15:00 PM 30.36 86.64799 0.447 8.38 0.46 0
8/7/2022 2:30:00 PM 30.35 86.63 0.448 8.36 0.45 0
8/7/2022 2:45:00 PM 30.34 86.612 0.448 8.34 0.46 0
8/7/2022 3:00:00 PM 30.34 86.612 0.448 8.38 0.47 0
8/7/2022 3:15:00 PM 30.33 86.594 0.448 8.37 0.47 0
8/7/2022 3:30:00 PM 30.31 86.558 0.448 8.33 0.45 0
8/7/2022 3:45:00 PM 30.31 86.558 0.448 8.36 0.47 0
8/7/2022 4:00:00 PM 30.3 86.53999 0.448 8.33 0.45 0
8/7/2022 4:15:00 PM 30.29 86.522 0.448 8.34 0.48 0
8/7/2022 4:30:00 PM 30.28 86.50401 0.448 8.32 0.49 0
8/7/2022 4:45:00 PM 30.27 86.486 0.448 8.31 0.45 0
8/7/2022 5:00:00 PM 30.26 86.468 0.448 8.29 0.44 0
8/7/2022 5:15:00 PM 30.25 86.45 0.448 8.28 0.52 0
8/7/2022 5:30:00 PM 30.24 86.432 0.448 8.29 0.44 0
8/7/2022 5:45:00 PM 30.23 86.414 0.448 8.26 0.45 0
8/7/2022 6:00:00 PM 30.21 86.378 0.448 8.24 0.45 0
8/7/2022 6:15:00 PM 30.2 86.36 0.448 8.24 0.51 0
8/7/2022 6:30:00 PM 30.19 86.342 0.448 8.19 0.5 0
8/7/2022 6:45:00 PM 30.18 86.324 0.448 8.2 0.51 0
8/7/2022 7:00:00 PM 30.17 86.306 0.449 8.18 0.45 0
8/7/2022 7:15:00 PM 30.16 86.288 0.449 8.17 0.52 0
8/7/2022 7:30:00 PM 30.15 86.27 0.449 8.16 0.48 0
8/7/2022 7:45:00 PM 30.14 86.252 0.449 8.17 0.48 0
8/7/2022 8:00:00 PM 30.13 86.23399 0.449 8.14 0.5 0
8/7/2022 8:15:00 PM 30.11 86.198 0.449 8.15 0.48 0
8/7/2022 8:30:00 PM 30.1 86.18 0.449 8.13 0.54 0
8/7/2022 8:45:00 PM 30.09 86.162 0.449 8.12 0.42 0
8/7/2022 9:00:00 PM 30.08 86.144 0.449 8.13 0.49 0
8/7/2022 9:15:00 PM 30.07 86.126 0.449 8.14 0.47 0
8/7/2022 9:30:00 PM 30.06 86.108 0.449 8.1 0.48 0
8/7/2022 9:45:00 PM 30.05 86.09 0.449 8.11 0.51 0
8/7/2022 10:00:00 PM 30.04 86.07201 0.449 8.1 0.5 0
8/7/2022 10:15:00 PM 30.03 86.054 0.449 8.09 0.52 0
8/7/2022 10:30:00 PM 30.02 86.036 0.449 8.08 0.47 0
8/7/2022 10:45:00 PM 30.01 86.018 0.449 8.08 0.48 0
8/7/2022 11:00:00 PM 30 86 0.449 8.07 0.49 0
8/7/2022 11:15:00 PM 29.99 85.982 0.449 8.07 0.51 0
8/7/2022 11:30:00 PM 29.98 85.964 0.449 8.08 0.53 0
8/7/2022 11:45:00 PM 29.96 85.92799 0.449 8.05 0.49 0
8/8/2022 12:00:00 AM 29.96 85.92799 0.449 8.08 0.5 0
8/8/2022 12:15:00 AM 29.95 85.91 0.449 8.06 0.46 0
8/8/2022 12:30:00 AM 29.94 85.892 0.449 8.06 0.63 0
8/8/2022 12:45:00 AM 29.93 85.874 0.449 8.07 0.46 0
8/8/2022 1:00:00 AM 29.91 85.838 0.449 8.08 0.51 0
8/8/2022 1:15:00 AM 29.91 85.838 0.449 8.04 0.48 0
8/8/2022 1:30:00 AM 29.89 85.802 0.449 8.07 0.5 0
8/8/2022 1:45:00 AM 29.89 85.802 0.449 8.03 0.66 0
8/8/2022 2:00:00 AM 29.88 85.784 0.449 8.04 0.52 0
8/8/2022 2:15:00 AM 29.87 85.76601 0.449 8.04 0.48 0
8/8/2022 2:30:00 AM 29.86 85.748 0.449 8.03 0.52 0
8/8/2022 2:45:00 AM 29.85 85.73 0.449 8.02 0.49 0
8/8/2022 3:00:00 AM 29.84 85.712 0.449 8 0.48 0
8/8/2022 3:15:00 AM 29.83 85.694 0.449 8.01 0.5 0
8/8/2022 3:30:00 AM 29.82 85.676 0.449 8.02 0.46 0
8/8/2022 3:45:00 AM 29.81 85.658 0.449 8 0.47 0
8/8/2022 4:00:00 AM 29.8 85.64 0.449 8 0.49 0
8/8/2022 4:15:00 AM 29.79 85.622 0.449 8 0.51 0
8/8/2022 4:30:00 AM 29.2 84.56001 0.45 8.06 0.7 0
8/8/2022 4:45:00 AM 28.59 83.462 0.453 8.12 0.75 0
8/8/2022 5:00:00 AM 28.4 83.12 0.454 8.15 0.65 0
8/8/2022 5:15:00 AM 28.34 83.012 0.454 8.19 0.64 0
8/8/2022 5:30:00 AM 28.33 82.994 0.455 8.18 0.76 0
8/8/2022 5:45:00 AM 28.33 82.994 0.455 8.18 0.69 0
8/8/2022 6:00:00 AM 28.34 83.012 0.456 8.19 0.65 0
8/8/2022 6:15:00 AM 28.36 83.048 0.457 8.2 0.68 0
8/8/2022 6:30:00 AM 28.38 83.084 0.457 8.21 0.81 0
8/8/2022 6:45:00 AM 28.41 83.138 0.457 8.2 0.6 0
8/8/2022 7:00:00 AM 28.45 83.21001 0.457 8.16 0.6 0
8/8/2022 7:15:00 AM 28.5 83.3 0.458 8.21 0.64 0
8/8/2022 7:30:00 AM 28.55 83.39 0.457 8.22 0.65 0
8/8/2022 7:45:00 AM 28.62 83.51601 0.457 8.21 0.68 0
8/8/2022 8:00:00 AM 28.7 83.66 0.457 8.26 0.65 0
8/8/2022 8:15:00 AM 28.77 83.786 0.456 8.28 1.09 0
8/8/2022 8:30:00 AM 28.85 83.93 0.455 8.28 0.98 0
8/8/2022 8:45:00 AM 28.97 84.146 0.455 8.28 0.81 0
8/8/2022 9:00:00 AM 29.08 84.344 0.455 8.3 0.71 0
8/8/2022 9:15:00 AM 29.18 84.524 0.455 8.33 0.63 0
8/8/2022 9:30:00 AM 29.29 84.722 0.455 8.32 0.61 0
8/8/2022 9:45:00 AM 29.37 84.866 0.456 8.35 0.54 0
8/8/2022 10:00:00 AM 29.46 85.028 0.456 8.34 0.54 0
8/8/2022 10:15:00 AM 29.57 85.226 0.456 8.35 0.56 0
8/8/2022 10:30:00 AM 29.67 85.406 0.456 8.37 0.51 0
8/8/2022 10:45:00 AM 29.75 85.55 0.457 8.37 0.57 0
8/8/2022 11:00:00 AM 29.8 85.64 0.457 8.39 0.58 0
8/8/2022 11:15:00 AM 29.91 85.838 0.458 8.38 0.5 0
8/8/2022 11:30:00 AM 30 86 0.458 8.4 0.49 0
8/8/2022 11:45:00 AM 30.08 86.144 0.458 8.42 0.61 0
8/8/2022 12:00:00 PM 30.14 86.252 0.457 8.43 0.56 0
8/8/2022 12:15:00 PM 30.19 86.342 0.457 8.45 0.54 0
8/8/2022 12:30:00 PM 30.22 86.396 0.457 8.46 0.51 0
8/8/2022 12:45:00 PM 30.25 86.45 0.457 8.48 0.53 0
8/8/2022 1:00:00 PM 30.31 86.558 0.457 8.5 0.52 0
8/8/2022 1:15:00 PM 30.39 86.702 0.457 8.52 0.55 0
8/8/2022 1:30:00 PM 30.46 86.828 0.456 8.52 0.52 0
8/8/2022 1:45:00 PM 30.51 86.918 0.456 8.55 0.5 0
8/8/2022 2:00:00 PM 30.58 87.044 0.456 8.56 0.5 0
8/8/2022 2:15:00 PM 30.61 87.098 0.456 8.56 1.08 0
8/8/2022 2:30:00 PM 30.67 87.206 0.456 8.57 0.51 0
8/8/2022 2:45:00 PM 30.72 87.296 0.456 8.6 0.53 0
8/8/2022 3:00:00 PM 30.77 87.386 0.456 8.62 0.51 0
8/8/2022 3:15:00 PM 30.77 87.386 0.456 8.62 0.82 0
8/8/2022 3:30:00 PM 30.74 87.332 0.456 8.63 0.56 0
8/8/2022 3:45:00 PM 30.72 87.296 0.456 8.61 0.53 0
8/8/2022 4:00:00 PM 30.71 87.278 0.456 8.59 0.48 0
8/8/2022 4:15:00 PM 30.7 87.26 0.456 8.6 0.45 0
8/8/2022 4:30:00 PM 30.69 87.242 0.456 8.59 0.45 0
8/8/2022 4:45:00 PM 30.68 87.224 0.457 8.55 0.45 0
8/8/2022 5:00:00 PM 30.67 87.206 0.457 8.54 0.49 0
8/8/2022 5:15:00 PM 30.66 87.188 0.456 8.56 0.51 0
8/8/2022 5:30:00 PM 30.65 87.17 0.456 8.55 0.44 0
8/8/2022 5:45:00 PM 30.64 87.152 0.457 8.57 0.46 0
8/8/2022 6:00:00 PM 30.63 87.134 0.457 8.55 0.44 0
8/8/2022 6:15:00 PM 30.62 87.116 0.457 8.54 0.47 0
8/8/2022 6:30:00 PM 30.61 87.098 0.457 8.51 0.48 0
8/8/2022 6:45:00 PM 30.6 87.08 0.457 8.5 0.45 0
8/8/2022 7:00:00 PM 30.59 87.062 0.457 8.49 0.44 0
8/8/2022 7:15:00 PM 30.57 87.026 0.457 8.44 0.45 0
8/8/2022 7:30:00 PM 30.57 87.026 0.457 8.48 0.46 0
8/8/2022 7:45:00 PM 30.55 86.99 0.457 8.46 0.4 0
8/8/2022 8:00:00 PM 30.55 86.99 0.457 8.41 0.41 0
8/8/2022 8:15:00 PM 30.53 86.954 0.457 8.41 0.46 0
8/8/2022 8:30:00 PM 30.52 86.936 0.457 8.37 0.45 0
8/8/2022 8:45:00 PM 30.51 86.918 0.458 8.37 0.47 0
8/8/2022 9:00:00 PM 30.5 86.9 0.458 8.38 0.54 0
8/8/2022 9:15:00 PM 30.49 86.882 0.458 8.33 0.48 0
8/8/2022 9:30:00 PM 30.48 86.864 0.458 8.35 0.47 0
8/8/2022 9:45:00 PM 30.47 86.84599 0.458 8.3 0.46 0
8/8/2022 10:00:00 PM 30.46 86.828 0.458 8.3 0.42 0
8/8/2022 10:15:00 PM 30.44 86.792 0.458 8.28 0.46 0
8/8/2022 10:30:00 PM 30.43 86.774 0.458 8.27 0.45 0
8/8/2022 10:45:00 PM 30.42 86.756 0.458 8.23 0.42 0
8/8/2022 11:00:00 PM 30.41 86.738 0.458 8.25 0.42 0
8/8/2022 11:15:00 PM 30.4 86.72 0.458 8.26 0.43 0
8/8/2022 11:30:00 PM 30.39 86.702 0.458 8.24 0.54 0
8/8/2022 11:45:00 PM 30.38 86.684 0.458 8.22 0.41 0
8/9/2022 12:00:00 AM 30.37 86.666 0.458 8.24 0.47 0
8/9/2022 12:15:00 AM 30.36 86.64799 0.458 8.21 0.45 0
8/9/2022 12:30:00 AM 30.35 86.63 0.458 8.21 0.42 0
8/9/2022 12:45:00 AM 30.34 86.612 0.458 8.19 0.44 0
8/9/2022 1:00:00 AM 30.33 86.594 0.458 8.2 0.51 0
8/9/2022 1:15:00 AM 30.32 86.576 0.458 8.19 0.44 0
8/9/2022 1:30:00 AM 30.31 86.558 0.458 8.19 0.43 0
8/9/2022 1:45:00 AM 30.3 86.53999 0.458 8.19 0.41 0
8/9/2022 2:00:00 AM 30.29 86.522 0.458 8.2 0.49 0
8/9/2022 2:15:00 AM 30.28 86.50401 0.459 8.16 0.46 0
8/9/2022 2:30:00 AM 30.27 86.486 0.458 8.16 0.5 0
8/9/2022 2:45:00 AM 30.26 86.468 0.459 8.16 0.44 0
8/9/2022 3:00:00 AM 30.25 86.45 0.459 8.15 0.46 0
8/9/2022 3:15:00 AM 30.24 86.432 0.458 8.15 0.42 0
8/9/2022 3:30:00 AM 30.22 86.396 0.459 8.15 0.46 0
8/9/2022 3:45:00 AM 30.22 86.396 0.459 8.16 0.41 0
8/9/2022 4:00:00 AM 30.18 86.324 0.459 8.12 0.56 0
8/9/2022 4:15:00 AM 29.47 85.046 0.459 8.17 0.65 0
8/9/2022 4:30:00 AM 29.2 84.56001 0.459 8.21 0.66 0
8/9/2022 4:45:00 AM 29.1 84.38 0.459 8.23 0.66 0
8/9/2022 5:00:00 AM 29.06 84.308 0.458 8.23 0.67 0
8/9/2022 5:15:00 AM 29.03 84.25401 0.458 8.23 0.58 0
8/9/2022 5:30:00 AM 29 84.2 0.458 8.22 0.58 0
8/9/2022 5:45:00 AM 28.99 84.182 0.459 8.22 0.61 0
8/9/2022 6:00:00 AM 28.97 84.146 0.459 8.22 0.59 0
8/9/2022 6:15:00 AM 28.97 84.146 0.46 8.22 0.82 0
8/9/2022 6:30:00 AM 28.97 84.146 0.46 8.21 0.87 0
8/9/2022 6:45:00 AM 28.98 84.164 0.46 8.21 0.76 0
8/9/2022 7:00:00 AM 28.97 84.146 0.46 8.21 0.6 0
8/9/2022 7:15:00 AM 28.97 84.146 0.46 8.22 0.67 0
8/9/2022 7:30:00 AM 28.99 84.182 0.46 8.22 0.85 0
8/9/2022 7:45:00 AM 29.04 84.272 0.46 8.26 0.66 0
8/9/2022 8:00:00 AM 29.09 84.362 0.46 8.23 0.65 0
8/9/2022 8:15:00 AM 29.14 84.452 0.46 8.26 0.64 0
8/9/2022 8:30:00 AM 29.19 84.542 0.46 8.26 0.59 0
8/9/2022 8:45:00 AM 29.22 84.59599 0.46 8.27 0.62 0
8/9/2022 9:00:00 AM 29.26 84.668 0.46 8.29 0.56 0
8/9/2022 9:15:00 AM 29.3 84.74 0.46 8.3 0.58 0
8/9/2022 9:30:00 AM 29.34 84.812 0.46 8.31 0.65 0
8/9/2022 9:45:00 AM 29.36 84.848 0.46 8.32 0.63 0
8/9/2022 10:00:00 AM 29.38 84.884 0.46 8.33 0.6 0
8/9/2022 10:15:00 AM 29.43 84.974 0.46 8.34 0.54 0
8/9/2022 10:30:00 AM 29.45 85.01 0.46 8.34 0.58 0
8/9/2022 10:45:00 AM 29.49 85.082 0.46 8.35 0.52 0
8/9/2022 11:00:00 AM 29.5 85.1 0.46 8.37 0.58 0
8/9/2022 11:15:00 AM 29.48 85.064 0.46 8.37 0.58 0
8/9/2022 11:30:00 AM 29.47 85.046 0.46 8.39 0.62 0
8/9/2022 11:45:00 AM 29.54 85.172 0.46 8.39 0.55 0
8/9/2022 12:00:00 PM 29.62 85.316 0.46 8.42 0.57 0
8/9/2022 12:15:00 PM 29.68 85.424 0.46 8.43 0.56 0
8/9/2022 12:30:00 PM 29.75 85.55 0.461 8.47 0.58 0
8/9/2022 12:45:00 PM 29.79 85.622 0.461 8.46 0.48 0
8/9/2022 1:00:00 PM 29.78 85.604 0.46 8.48 0.56 0
8/9/2022 1:15:00 PM 29.84 85.712 0.46 8.51 0.51 0
8/9/2022 1:30:00 PM 29.92 85.856 0.46 8.53 0.53 0
8/9/2022 1:45:00 PM 30 86 0.461 8.59 0.67 0
8/9/2022 2:00:00 PM 29.99 85.982 0.461 8.56 0.56 0
8/9/2022 2:15:00 PM 29.98 85.964 0.461 8.54 0.52 0
8/9/2022 2:30:00 PM 29.98 85.964 0.461 8.54 0.5 0
8/9/2022 2:45:00 PM 29.97 85.946 0.461 8.5 0.52 0
8/9/2022 3:00:00 PM 29.96 85.92799 0.461 8.51 0.44 0
8/9/2022 3:15:00 PM 29.95 85.91 0.461 8.51 0.74 0
8/9/2022 3:30:00 PM 29.95 85.91 0.461 8.5 0.45 0
8/9/2022 3:45:00 PM 29.94 85.892 0.461 8.52 0.47 0
8/9/2022 4:00:00 PM 29.93 85.874 0.461 8.49 0.48 0
8/9/2022 4:15:00 PM 29.93 85.874 0.461 8.5 0.45 0
8/9/2022 4:30:00 PM 29.92 85.856 0.461 8.48 0.45 0
8/9/2022 4:45:00 PM 29.91 85.838 0.461 8.47 0.5 0
8/9/2022 5:00:00 PM 29.9 85.82 0.461 8.47 0.45 0
8/9/2022 5:15:00 PM 29.89 85.802 0.461 8.45 0.54 0
8/9/2022 5:30:00 PM 29.88 85.784 0.461 8.46 0.51 0
8/9/2022 5:45:00 PM 29.88 85.784 0.461 8.48 0.45 0
8/9/2022 6:00:00 PM 29.87 85.76601 0.461 8.44 0.47 0
8/9/2022 6:15:00 PM 29.86 85.748 0.461 8.44 0.48 0
8/9/2022 6:30:00 PM 29.86 85.748 0.461 8.46 0.45 0
8/9/2022 6:45:00 PM 29.85 85.73 0.461 8.42 0.46 0
8/9/2022 7:00:00 PM 29.84 85.712 0.461 8.38 0.46 0
8/9/2022 7:15:00 PM 29.83 85.694 0.461 8.4 0.46 0
8/9/2022 7:30:00 PM 29.82 85.676 0.462 8.38 0.52 0
8/9/2022 7:45:00 PM 29.82 85.676 0.462 8.36 0.46 0
8/9/2022 8:00:00 PM 29.81 85.658 0.462 8.37 0.55 0
8/9/2022 8:15:00 PM 29.8 85.64 0.462 8.33 0.53 0
8/9/2022 8:30:00 PM 29.79 85.622 0.462 8.3 0.51 0
8/9/2022 8:45:00 PM 29.77 85.586 0.462 8.28 0.5 0
8/9/2022 9:00:00 PM 29.76 85.568 0.462 8.27 0.48 0
8/9/2022 9:15:00 PM 29.76 85.568 0.462 8.25 0.56 0
8/9/2022 9:30:00 PM 29.74 85.532 0.462 8.25 0.49 0
8/9/2022 9:45:00 PM 29.73 85.514 0.462 8.23 0.43 0
8/9/2022 10:00:00 PM 29.72 85.49599 0.462 8.24 0.55 0
8/9/2022 10:15:00 PM 29.71 85.478 0.462 8.22 1.24 0
8/9/2022 10:30:00 PM 29.7 85.46001 0.462 8.2 0.49 0
8/9/2022 10:45:00 PM 29.7 85.46001 0.462 8.2 0.45 0
8/9/2022 11:00:00 PM 29.68 85.424 0.462 8.2 0.51 0
8/9/2022 11:15:00 PM 29.68 85.424 0.463 8.22 0.5 0
8/9/2022 11:30:00 PM 29.67 85.406 0.462 8.2 0.48 0
8/9/2022 11:45:00 PM 29.66 85.388 0.463 8.18 0.66 0
8/10/2022 12:00:00 AM 29.65 85.37 0.463 8.2 0.47 0
8/10/2022 12:15:00 AM 29.64 85.35201 0.463 8.17 0.46 0
8/10/2022 12:30:00 AM 29.64 85.35201 0.463 8.19 0.49 0
8/10/2022 12:45:00 AM 29.63 85.334 0.463 8.16 0.5 0
8/10/2022 1:00:00 AM 29.62 85.316 0.463 8.18 0.47 0
8/10/2022 1:15:00 AM 29.61 85.298 0.463 8.18 0.46 0
8/10/2022 1:30:00 AM 29.6 85.28 0.463 8.17 0.51 0
8/10/2022 1:45:00 AM 29.59 85.262 0.463 8.17 0.46 0
8/10/2022 2:00:00 AM 29.59 85.262 0.463 8.14 0.46 0
8/10/2022 2:15:00 AM 29.58 85.244 0.463 8.17 0.52 0
8/10/2022 2:30:00 AM 29.57 85.226 0.463 8.17 0.47 0
8/10/2022 2:45:00 AM 29.56 85.208 0.463 8.12 0.48 0
8/10/2022 3:00:00 AM 29.55 85.18999 0.463 8.13 0.56 0
8/10/2022 3:15:00 AM 29.55 85.18999 0.463 8.13 0.54 0
8/10/2022 3:30:00 AM 29.54 85.172 0.463 8.11 0.49 0
8/10/2022 3:45:00 AM 29.53 85.15401 0.463 8.11 0.5 0
8/10/2022 4:00:00 AM 29.45 85.01 0.463 8.12 0.48 0
8/10/2022 4:15:00 AM 28.8 83.84 0.458 8.15 0.64 0
8/10/2022 4:30:00 AM 28.57 83.426 0.456 8.19 0.59 0
8/10/2022 4:45:00 AM 28.42 83.156 0.454 8.21 0.65 0
8/10/2022 5:00:00 AM 28.39 83.102 0.454 8.21 0.64 0
8/10/2022 5:15:00 AM 28.38 83.084 0.454 8.24 0.7 0
8/10/2022 5:30:00 AM 28.37 83.066 0.454 8.21 0.64 0
8/10/2022 5:45:00 AM 28.37 83.066 0.453 8.22 0.67 0
8/10/2022 6:00:00 AM 28.35 83.03 0.454 8.24 0.65 0
8/10/2022 6:15:00 AM 28.33 82.994 0.454 8.23 0.71 0
8/10/2022 6:30:00 AM 28.32 82.976 0.454 8.25 0.71 0
8/10/2022 6:45:00 AM 28.3 82.94 0.454 8.23 0.76 0
8/10/2022 7:00:00 AM 28.28 82.904 0.454 8.23 0.66 0
8/10/2022 7:15:00 AM 28.27 82.886 0.454 8.24 0.58 0
8/10/2022 7:30:00 AM 28.27 82.886 0.454 8.26 0.77 0
8/10/2022 7:45:00 AM 28.27 82.886 0.453 8.26 0.65 0
8/10/2022 8:00:00 AM 28.27 82.886 0.453 8.27 0.62 0
8/10/2022 8:15:00 AM 28.25 82.85 0.453 8.28 0.7 0
8/10/2022 8:30:00 AM 28.24 82.832 0.454 8.29 0.72 0
8/10/2022 8:45:00 AM 28.24 82.832 0.454 8.3 0.56 0
8/10/2022 9:00:00 AM 28.24 82.832 0.454 8.28 0.61 0
8/10/2022 9:15:00 AM 28.26 82.868 0.454 8.3 0.62 0
8/10/2022 9:30:00 AM 28.28 82.904 0.455 8.32 0.66 0
8/10/2022 9:45:00 AM 28.29 82.922 0.455 8.33 0.66 0
8/10/2022 10:00:00 AM 28.29 82.922 0.455 8.37 0.57 0
8/10/2022 10:15:00 AM 28.32 82.976 0.455 8.37 0.57 0
8/10/2022 10:30:00 AM 28.38 83.084 0.455 8.41 0.58 0
8/10/2022 10:45:00 AM 28.48 83.264 0.455 8.41 0.66 0
8/10/2022 11:00:00 AM 28.56 83.408 0.455 8.43 0.64 0
8/10/2022 11:15:00 AM 28.64 83.552 0.455 8.45 0.55 0
8/10/2022 11:30:00 AM 27.49 81.482 0.001 8.37 0.18 0
8/10/2022 11:45:00 AM -99999.99 -179968 -100 -99999.99 -99999.99 -99999.99
8/10/2022 12:00:00 PM 28.78 83.804 0.456 8.47 2.02 0
8/10/2022 12:15:00 PM 28.82 83.876 0.456 8.46 1.94 0
8/10/2022 12:30:00 PM 28.85 83.93 0.457 8.49 0.83 0
8/10/2022 12:45:00 PM 28.9 84.02 0.456 8.51 1.27 0
8/10/2022 1:00:00 PM 28.97 84.146 0.455 8.54 0.72 0
8/10/2022 1:15:00 PM 29.08 84.344 0.455 8.58 1.2 0
8/10/2022 1:30:00 PM 29.14 84.452 0.454 8.62 0.53 0
8/10/2022 1:45:00 PM 29.16 84.488 0.455 8.66 0.47 0
8/10/2022 2:00:00 PM 29.15 84.47 0.454 8.68 0.72 0
8/10/2022 2:15:00 PM 29.14 84.452 0.454 8.67 0.35 0
8/10/2022 2:30:00 PM 29.13 84.434 0.454 8.66 0.34 0
8/10/2022 2:45:00 PM 29.13 84.434 0.452 8.65 0.3 0
8/10/2022 3:00:00 PM 29.13 84.434 0.454 8.66 0.47 0
8/10/2022 3:15:00 PM 29.12 84.416 0.454 8.64 0.78 0
8/10/2022 3:30:00 PM 29.11 84.39799 0.454 8.64 0.88 0
8/10/2022 3:45:00 PM 29.11 84.39799 0.454 8.64 0.34 0
8/10/2022 4:00:00 PM 29.1 84.38 0.454 8.64 0.79 0
8/10/2022 4:15:00 PM 29.1 84.38 0.336 8.64 0.62 0
8/10/2022 4:30:00 PM 29.09 84.362 0.454 8.64 0.57 0
8/10/2022 4:45:00 PM 29.08 84.344 0.454 8.63 0.28 0
8/10/2022 5:00:00 PM 29.08 84.344 0.455 8.64 0.34 0
8/10/2022 5:15:00 PM 29.07 84.326 0.454 8.62 0.28 0
8/10/2022 5:30:00 PM 29.06 84.308 0.455 8.61 0.47 0
8/10/2022 5:45:00 PM 29.05 84.28999 0.454 8.61 0.33 0
8/10/2022 6:00:00 PM 29.05 84.28999 0.454 8.61 0.57 0
8/10/2022 6:15:00 PM 29.04 84.272 0.454 8.59 0.33 0
8/10/2022 6:30:00 PM 29.03 84.25401 0.454 8.6 0.46 0
8/10/2022 6:45:00 PM 29.02 84.236 0.454 8.58 0.32 0
8/10/2022 7:00:00 PM 29.02 84.236 0.454 8.57 0.37 0
8/10/2022 7:15:00 PM 29.01 84.218 0.455 8.57 0.33 0
8/10/2022 7:30:00 PM 29 84.2 0.455 8.57 0.22 0
8/10/2022 7:45:00 PM 29 84.2 0.455 8.53 0.47 0
8/10/2022 8:00:00 PM 28.99 84.182 0.455 8.52 0.67 0
8/10/2022 8:15:00 PM 28.98 84.164 0.455 8.51 0.21 0
8/10/2022 8:30:00 PM 28.97 84.146 0.222 8.49 0.6 0
8/10/2022 8:45:00 PM 28.96 84.128 0.455 8.48 3.35 0
8/10/2022 9:00:00 PM 28.96 84.128 0.455 8.46 0.7 0
8/10/2022 9:15:00 PM 28.95 84.11 0.455 8.46 0.65 0
8/10/2022 9:30:00 PM 28.94 84.092 0.357 8.43 0.39 0
8/10/2022 9:45:00 PM 28.93 84.074 0.455 8.43 0.27 0
8/10/2022 10:00:00 PM 28.93 84.074 0.455 8.41 0.49 0
8/10/2022 10:15:00 PM 28.92 84.056 0.455 8.41 0.18 0
8/10/2022 10:30:00 PM 28.91 84.038 0.455 8.38 0.19 0
8/10/2022 10:45:00 PM 28.9 84.02 0.455 8.4 0.24 0
8/10/2022 11:00:00 PM 28.9 84.02 0.455 8.39 1.32 0
8/10/2022 11:15:00 PM 28.89 84.002 0.456 8.38 0.53 0
8/10/2022 11:30:00 PM 28.89 84.002 0.455 8.39 3.58 0
8/10/2022 11:45:00 PM 28.88 83.98399 0.455 8.37 1.11 0
8/11/2022 12:00:00 AM 28.87 83.966 0.456 8.38 4.83 0
8/11/2022 12:15:00 AM 28.87 83.966 0.455 8.36 0.65 0
8/11/2022 12:30:00 AM 28.86 83.948 0.456 8.37 0.35 0
8/11/2022 12:45:00 AM 28.86 83.948 0.456 8.35 0.8 0
8/11/2022 1:00:00 AM 28.85 83.93 0.456 8.35 0.15 0
8/11/2022 1:15:00 AM 28.84 83.912 0.456 8.33 0.18 0
8/11/2022 1:30:00 AM 28.84 83.912 0.456 8.34 0.22 0
8/11/2022 1:45:00 AM 28.83 83.894 0.456 8.33 0.24 0
8/11/2022 2:00:00 AM 28.83 83.894 0.247 8.32 0.43 0
8/11/2022 2:15:00 AM 28.82 83.876 0.456 8.32 0.18 0
8/11/2022 2:30:00 AM 28.81 83.858 0.456 8.33 0.22 0
8/11/2022 2:45:00 AM 28.81 83.858 0.456 8.3 0.21 0
8/11/2022 3:00:00 AM 28.8 83.84 0.456 8.31 0.26 0
8/11/2022 3:15:00 AM 28.79 83.82201 0.456 8.28 0.24 0
8/11/2022 3:30:00 AM 28.79 83.82201 0.456 8.28 0.2 0
8/11/2022 3:45:00 AM 28.78 83.804 0.456 8.28 0.28 0
8/11/2022 4:00:00 AM 28.44 83.192 0.457 8.24 3.72 0
8/11/2022 4:15:00 AM 27.86 82.148 0.46 8.21 0.55 0
8/11/2022 4:30:00 AM 27.77 81.986 0.155 8.22 0.44 0
8/11/2022 4:45:00 AM 27.62 81.716 0.462 8.23 1.5 0
8/11/2022 5:00:00 AM 27.57 81.626 0.461 8.23 0.75 0
8/11/2022 5:15:00 AM 27.57 81.626 0.461 8.23 1.55 0
8/11/2022 5:30:00 AM 27.59 81.662 0.462 8.22 2.56 0
8/11/2022 5:45:00 AM 27.61 81.698 0.224 8.23 0.45 0
8/11/2022 6:00:00 AM 27.61 81.698 0.461 8.23 0.5 0
8/11/2022 6:15:00 AM 27.61 81.698 0.461 8.24 0.86 0
8/11/2022 6:30:00 AM 27.59 81.662 0.46 8.24 0.32 0
8/11/2022 6:45:00 AM 27.57 81.626 0.46 8.25 0.42 0
8/11/2022 7:00:00 AM 27.58 81.644 0.46 8.27 0.65 0
8/11/2022 7:15:00 AM 27.62 81.716 0.46 8.3 0.43 0
8/11/2022 7:30:00 AM 27.65 81.77 0.459 8.31 0.39 0
8/11/2022 7:45:00 AM 27.69 81.842 0.459 8.33 0.33 0
8/11/2022 8:00:00 AM 27.73 81.914 0.46 8.35 0.39 0
8/11/2022 8:15:00 AM 27.79 82.022 0.46 8.36 0.37 0
8/11/2022 8:30:00 AM 27.84 82.112 0.461 8.38 0.39 0
8/11/2022 8:45:00 AM 27.88 82.184 0.461 8.41 0.39 0
8/11/2022 9:00:00 AM 27.96 82.328 0.461 8.44 0.31 0
8/11/2022 9:15:00 AM 28.05 82.49 0.461 8.48 0.3 0
8/11/2022 9:30:00 AM 28.15 82.67 0.461 8.5 0.34 0
8/11/2022 9:45:00 AM 28.23 82.814 0.461 8.54 0.28 0
8/11/2022 10:00:00 AM 28.32 82.976 0.461 8.57 0.32 0
8/11/2022 10:15:00 AM 28.43 83.174 0.46 8.57 0.42 0
8/11/2022 10:30:00 AM 28.52 83.336 0.46 8.61 0.29 0
8/11/2022 10:45:00 AM 28.59 83.462 0.459 8.66 0.27 0
8/11/2022 11:00:00 AM 28.67 83.606 0.457 8.68 0.24 0
8/11/2022 11:15:00 AM 28.76 83.768 0.456 8.68 0.24 0
8/11/2022 11:30:00 AM 28.84 83.912 0.455 8.71 0.26 0
8/11/2022 11:45:00 AM 28.92 84.056 0.455 8.73 0.71 0
8/11/2022 12:00:00 PM 29 84.2 0.454 8.76 0.37 0
8/11/2022 12:15:00 PM 29.07 84.326 0.453 8.79 0.27 0
8/11/2022 12:30:00 PM 29.17 84.506 0.453 8.82 0.32 0
8/11/2022 12:45:00 PM 29.24 84.632 0.453 8.83 1.41 0
8/11/2022 1:00:00 PM 29.33 84.794 0.453 8.88 0.35 0
8/11/2022 1:15:00 PM 29.39 84.902 0.453 8.91 0.62 0
8/11/2022 1:30:00 PM 29.44 84.992 0.453 8.93 0.28 0
8/11/2022 1:45:00 PM 29.47 85.046 0.453 8.95 2.13 0
8/11/2022 2:00:00 PM 29.54 85.172 0.453 8.98 0.35 0
8/11/2022 2:15:00 PM 29.61 85.298 0.453 8.99 0.28 0
8/11/2022 2:30:00 PM 29.67 85.406 0.418 9.01 0.46 0
8/11/2022 2:45:00 PM 29.73 85.514 0.453 9.03 1.46 0
8/11/2022 3:00:00 PM 29.77 85.586 0.453 9.05 1.65 0
8/11/2022 3:15:00 PM 29.77 85.586 0.453 9.06 0.5 0
8/11/2022 3:30:00 PM 29.75 85.55 0.453 9.04 0.23 0
8/11/2022 3:45:00 PM 29.75 85.55 0.453 9.04 0.51 0
8/11/2022 4:00:00 PM 29.74 85.532 0.454 9.04 0.5 0
8/11/2022 4:15:00 PM 29.72 85.49599 0.454 9.02 0.67 0
8/11/2022 4:30:00 PM 29.72 85.49599 0.454 9.01 0.52 0
8/11/2022 4:45:00 PM 29.71 85.478 0.453 9.02 0.56 0
8/11/2022 5:00:00 PM 29.7 85.46001 0.453 9.01 0.23 0
8/11/2022 5:15:00 PM 29.69 85.442 0.453 9.01 2.12 0
8/11/2022 5:30:00 PM 29.67 85.406 0.454 9 0.32 0
8/11/2022 5:45:00 PM 29.67 85.406 0.122 8.99 0.29 0
8/11/2022 6:00:00 PM 29.66 85.388 0.453 9 1.79 0
8/11/2022 6:15:00 PM 29.65 85.37 0.454 8.99 0.22 0
8/11/2022 6:30:00 PM 29.64 85.35201 0.454 8.99 0.17 0
8/11/2022 6:45:00 PM 29.62 85.316 0.454 9.01 0.2 0
8/11/2022 7:00:00 PM 29.61 85.298 0.454 8.98 0.64 0
8/11/2022 7:15:00 PM 29.6 85.28 0.454 8.97 0.35 0
8/11/2022 7:30:00 PM 29.59 85.262 0.454 8.93 0.19 0
8/11/2022 7:45:00 PM 29.57 85.226 0.455 8.93 0.53 0
8/11/2022 8:00:00 PM 29.56 85.208 0.454 8.93 0.37 0
8/11/2022 8:15:00 PM 29.55 85.18999 0.455 8.91 0.17 0
8/11/2022 8:30:00 PM 29.54 85.172 0.457 8.9 0.96 0
8/11/2022 8:45:00 PM 29.53 85.15401 0.455 8.9 0.19 0
8/11/2022 9:00:00 PM 29.52 85.136 0.455 8.89 0.24 0
8/11/2022 9:15:00 PM 29.5 85.1 0.455 8.85 0.18 0
8/11/2022 9:30:00 PM 29.49 85.082 0.455 8.85 0.2 0
8/11/2022 9:45:00 PM 29.46 85.028 0.455 8.84 0.24 0
8/11/2022 10:00:00 PM 29.46 85.028 0.455 8.82 0.19 0
8/11/2022 10:15:00 PM 29.45 85.01 0.455 8.83 0.2 0
8/11/2022 10:30:00 PM 29.44 84.992 0.455 8.81 0.19 0
8/11/2022 10:45:00 PM 29.43 84.974 0.455 8.82 0.14 0
8/11/2022 11:00:00 PM 29.42 84.956 0.455 8.81 0.21 0
8/11/2022 11:15:00 PM 29.42 84.956 0.455 8.81 0.17 0
8/11/2022 11:30:00 PM 29.41 84.938 0.455 8.8 0.17 0
8/11/2022 11:45:00 PM 29.4 84.92 0.455 8.79 0.2 0
8/12/2022 12:00:00 AM 29.39 84.902 0.455 8.8 0.22 0
8/12/2022 12:15:00 AM 29.38 84.884 0.455 8.76 0.18 0
8/12/2022 12:30:00 AM 29.37 84.866 0.456 8.77 0.44 0
8/12/2022 12:45:00 AM 29.36 84.848 0.455 8.77 0.27 0
8/12/2022 1:00:00 AM 29.35 84.83 0.456 8.76 0.38 0
8/12/2022 1:15:00 AM 29.34 84.812 0.456 8.75 0.87 0
8/12/2022 1:30:00 AM 29.33 84.794 0.456 8.75 0.69 0
8/12/2022 1:45:00 AM 29.32 84.776 0.457 8.74 0.65 0
8/12/2022 2:00:00 AM 29.32 84.776 0.23 8.74 0.38 0
8/12/2022 2:15:00 AM 29.31 84.758 0.456 8.74 0.25 0
8/12/2022 2:30:00 AM 29.3 84.74 0.456 8.74 0.18 0
8/12/2022 2:45:00 AM 29.29 84.722 0.456 8.73 0.28 0
8/12/2022 3:00:00 AM 29.28 84.704 0.456 8.73 1.32 0
8/12/2022 3:15:00 AM 29.27 84.686 0.456 8.73 0.16 0
8/12/2022 3:30:00 AM 29.26 84.668 0.456 8.72 0.15 0
8/12/2022 3:45:00 AM 29.25 84.65 0.456 8.71 0.19 0
8/12/2022 4:00:00 AM 29.24 84.632 0.456 8.7 0.16 0
8/12/2022 4:15:00 AM 27.85 82.13 0.456 8.47 0.4 0
8/12/2022 4:30:00 AM 27.13 80.834 0.456 8.31 0.36 0
8/12/2022 4:45:00 AM 26.95 80.51 0.456 8.29 0.4 0
8/12/2022 5:00:00 AM 26.9 80.42 0.456 8.25 0.41 0
8/12/2022 5:15:00 AM 26.87 80.366 0.456 8.26 0.29 0
8/12/2022 5:30:00 AM 26.85 80.33 0.456 8.25 0.37 0
8/12/2022 5:45:00 AM 26.82 80.276 0.455 8.27 0.39 0
8/12/2022 6:00:00 AM 26.8 80.24 0.455 8.25 0.28 0
8/12/2022 6:15:00 AM 26.77 80.186 0.454 8.25 0.33 0
8/12/2022 6:30:00 AM 26.72 80.096 0.454 8.26 0.4 0
8/12/2022 6:45:00 AM 26.7 80.06 0.454 8.29 0.24 0
8/12/2022 7:00:00 AM 26.7 80.06 0.454 8.3 0.29 0
8/12/2022 7:15:00 AM 26.72 80.096 0.453 8.32 0.49 0
8/12/2022 7:30:00 AM 26.75 80.15 0.453 8.33 0.38 0
8/12/2022 7:45:00 AM 26.8 80.24 0.453 8.35 0.3 0
8/12/2022 8:00:00 AM 26.85 80.33 0.453 8.38 0.38 0
8/12/2022 8:15:00 AM 26.89 80.402 0.453 8.42 0.67 0
8/12/2022 8:30:00 AM 26.93 80.474 0.454 8.44 0.33 0
8/12/2022 8:45:00 AM 26.99 80.582 0.453 8.49 0.3 0
8/12/2022 9:00:00 AM 27.05 80.69 0.453 8.54 0.37 0
8/12/2022 9:15:00 AM 27.12 80.816 0.453 8.59 0.3 0
8/12/2022 9:30:00 AM 27.19 80.942 0.454 8.63 0.4 0
8/12/2022 9:45:00 AM 27.25 81.05 0.454 8.64 0.51 0
8/12/2022 10:00:00 AM 27.34 81.212 0.454 8.69 0.38 0
8/12/2022 10:15:00 AM 27.4 81.32 0.454 8.73 0.23 0
8/12/2022 10:30:00 AM 27.49 81.482 0.454 8.78 0.29 0
8/12/2022 10:45:00 AM 27.57 81.626 0.454 8.82 0.35 0
8/12/2022 11:00:00 AM 27.63 81.734 0.454 8.83 0.29 0
8/12/2022 11:15:00 AM 27.68 81.824 0.454 8.86 0.34 0
8/12/2022 11:30:00 AM 27.76 81.968 0.454 8.9 0.31 0
8/12/2022 11:45:00 AM 27.85 82.13 0.454 8.92 0.32 0
8/12/2022 12:00:00 PM 27.94 82.292 0.454 8.96 0.29 0
8/12/2022 12:15:00 PM 28.03 82.454 0.453 8.99 0.18 0
8/12/2022 12:30:00 PM 28.12 82.616 0.453 9.01 0.26 0
8/12/2022 12:45:00 PM 28.2 82.76 0.452 9.05 0.2 0
8/12/2022 1:00:00 PM 28.24 82.832 0.452 9.09 0.27 0
8/12/2022 1:15:00 PM 28.31 82.958 0.452 9.09 0.7 0
8/12/2022 1:30:00 PM 28.42 83.156 0.451 9.13 0.25 0
8/12/2022 1:45:00 PM 28.47 83.24599 0.451 9.16 1.03 0
8/12/2022 2:00:00 PM 28.51 83.318 0.451 9.17 0.21 0
8/12/2022 2:15:00 PM 28.56 83.408 0.451 9.18 0.2 0
8/12/2022 2:30:00 PM 28.64 83.552 0.45 9.21 1.67 0
8/12/2022 2:45:00 PM 28.67 83.606 0.45 9.22 0.26 0
8/12/2022 3:00:00 PM 28.68 83.624 0.45 9.25 0.22 0
8/12/2022 3:15:00 PM 28.67 83.606 0.45 9.26 0.21 0
8/12/2022 3:30:00 PM 28.65 83.57 0.45 9.24 0.2 0
8/12/2022 3:45:00 PM 28.65 83.57 0.45 9.2 0.15 0
8/12/2022 4:00:00 PM 28.64 83.552 0.45 9.2 0.18 0
8/12/2022 4:15:00 PM 28.64 83.552 0.45 9.22 0.2 0
8/12/2022 4:30:00 PM 28.63 83.534 0.45 9.2 0.15 0
8/12/2022 4:45:00 PM 28.63 83.534 0.45 9.22 0.15 0
8/12/2022 5:00:00 PM 28.61 83.498 0.45 9.2 0.18 0
8/12/2022 5:15:00 PM 28.61 83.498 0.45 9.19 0.16 0
8/12/2022 5:30:00 PM 28.59 83.462 0.45 9.2 0.15 0
8/12/2022 5:45:00 PM 28.59 83.462 0.45 9.18 0.16 0
8/12/2022 6:00:00 PM 28.58 83.444 0.45 9.2 0.14 0
8/12/2022 6:15:00 PM 28.58 83.444 0.45 9.22 0.17 0
8/12/2022 6:30:00 PM 28.57 83.426 0.45 9.18 0.25 0
8/12/2022 6:45:00 PM 28.56 83.408 0.45 9.19 0.15 0
8/12/2022 7:00:00 PM 28.55 83.39 0.45 9.18 0.18 0
8/12/2022 7:15:00 PM 28.54 83.372 0.45 9.18 0.18 0
8/12/2022 7:30:00 PM 28.53 83.354 0.45 9.19 0.18 0
8/12/2022 7:45:00 PM 28.52 83.336 0.45 9.15 0.17 0
8/12/2022 8:00:00 PM 28.52 83.336 0.45 9.15 0.15 0
8/12/2022 8:15:00 PM 28.51 83.318 0.45 9.16 0.16 0
8/12/2022 8:30:00 PM 28.5 83.3 0.451 9.15 0.16 0
8/12/2022 8:45:00 PM 28.5 83.3 0.451 9.12 0.16 0
8/12/2022 9:00:00 PM 28.49 83.282 0.451 9.12 0.14 0
8/12/2022 9:15:00 PM 28.48 83.264 0.451 9.1 0.18 0
8/12/2022 9:30:00 PM 28.47 83.24599 0.451 9.11 0.16 0
8/12/2022 9:45:00 PM 28.47 83.24599 0.451 9.1 0.17 0
8/12/2022 10:00:00 PM 28.46 83.228 0.451 9.09 0.21 0
8/12/2022 10:15:00 PM 28.45 83.21001 0.451 9.06 0.16 0
8/12/2022 10:30:00 PM 28.44 83.192 0.451 9.06 0.15 0
8/12/2022 10:45:00 PM 28.43 83.174 0.451 9.07 0.15 0
8/12/2022 11:00:00 PM 28.42 83.156 0.452 9.05 0.18 0
8/12/2022 11:15:00 PM 28.42 83.156 0.455 9.04 0.65 0
8/12/2022 11:30:00 PM 28.41 83.138 0.452 9.03 0.26 0
8/12/2022 11:45:00 PM 28.4 83.12 0.452 9.01 0.24 0
8/13/2022 12:00:00 AM 28.4 83.12 0.452 9.03 0.19 0
8/13/2022 12:15:00 AM 28.38 83.084 0.452 9.02 0.24 0
8/13/2022 12:30:00 AM 28.38 83.084 0.452 9.01 0.25 0
8/13/2022 12:45:00 AM 28.37 83.066 0.452 9 0.27 0
8/13/2022 1:00:00 AM 28.36 83.048 0.452 9.01 0.19 0
8/13/2022 1:15:00 AM 28.36 83.048 0.452 9.02 0.15 0
8/13/2022 1:30:00 AM 28.35 83.03 0.452 8.98 0.17 0
8/13/2022 1:45:00 AM 28.34 83.012 0.452 8.99 0.21 0
8/13/2022 2:00:00 AM 28.33 82.994 0.452 9 0.2 0
8/13/2022 2:15:00 AM 28.32 82.976 0.452 8.97 0.17 0
8/13/2022 2:30:00 AM 28.31 82.958 0.452 8.97 0.2 0
8/13/2022 2:45:00 AM 28.31 82.958 0.452 8.97 0.13 0
8/13/2022 3:00:00 AM 28.29 82.922 0.452 8.98 0.15 0
8/13/2022 3:15:00 AM 28.28 82.904 0.452 8.98 0.13 0
8/13/2022 3:30:00 AM 28.27 82.886 0.452 8.95 0.17 0
8/13/2022 3:45:00 AM 28.27 82.886 0.452 8.96 0.13 0
8/13/2022 4:00:00 AM 28.1 82.58 0.452 8.94 1.08 0
8/13/2022 4:15:00 AM 26.56 79.808 0.456 8.64 0.22 0
8/13/2022 4:30:00 AM 25.69 78.242 0.458 8.42 0.26 0
8/13/2022 4:45:00 AM 25.37 77.666 0.459 8.35 0.2 0
8/13/2022 5:00:00 AM 25.24 77.432 0.459 8.34 0.25 0
8/13/2022 5:15:00 AM 25.16 77.288 0.458 8.34 0.29 0
8/13/2022 5:30:00 AM 25.11 77.198 0.458 8.29 0.25 0
8/13/2022 5:45:00 AM 25.08 77.144 0.457 8.33 0.31 0
8/13/2022 6:00:00 AM 25.05 77.09 0.456 8.3 0.32 0
8/13/2022 6:15:00 AM 25.02 77.036 0.455 8.32 0.27 0
8/13/2022 6:30:00 AM 25.01 77.018 0.455 8.3 0.3 0
8/13/2022 6:45:00 AM 25.02 77.036 0.455 8.32 0.33 0
8/13/2022 7:00:00 AM 25.04 77.07201 0.455 8.34 0.29 0
8/13/2022 7:15:00 AM 25.09 77.162 0.455 8.37 0.85 0
8/13/2022 7:30:00 AM 25.12 77.216 0.455 8.42 0.47 0
8/13/2022 7:45:00 AM 25.15 77.27 0.456 8.41 0.44 0
8/13/2022 8:00:00 AM 25.2 77.36 0.456 8.47 0.31 0
8/13/2022 8:15:00 AM 25.25 77.45 0.455 8.52 0.37 0
8/13/2022 8:30:00 AM 25.33 77.594 0.455 8.54 0.28 0
8/13/2022 8:45:00 AM 25.4 77.72 0.455 8.6 0.25 0
8/13/2022 9:00:00 AM 25.49 77.882 0.455 8.66 0.26 0
8/13/2022 9:15:00 AM 25.57 78.026 0.455 8.71 0.23 0
8/13/2022 9:30:00 AM 25.7 78.26 0.455 8.78 0.27 0
8/13/2022 9:45:00 AM 25.83 78.494 0.455 8.8 0.25 0
8/13/2022 10:00:00 AM 25.95 78.71 0.454 8.85 0.24 0
8/13/2022 10:15:00 AM 26.08 78.944 0.454 8.89 0.23 0
8/13/2022 10:30:00 AM 26.17 79.106 0.454 8.92 0.26 0
8/13/2022 10:45:00 AM 26.22 79.196 0.454 8.94 0.52 0
8/13/2022 11:00:00 AM 26.25 79.25 0.454 8.97 0.24 0
8/13/2022 11:15:00 AM 26.34 79.412 0.454 8.97 0.25 0
8/13/2022 11:30:00 AM 26.45 79.61 0.454 8.99 0.25 0
8/13/2022 11:45:00 AM 26.49 79.682 0.454 8.99 0.23 0
8/13/2022 12:00:00 PM 26.5 79.7 0.454 8.99 0.18 0
8/13/2022 12:15:00 PM 26.5 79.7 0.455 8.98 0.18 0
8/13/2022 12:30:00 PM 26.5 79.7 0.454 8.96 0.19 0
8/13/2022 12:45:00 PM 26.5 79.7 0.455 8.96 0.19 0
8/13/2022 1:00:00 PM 26.5 79.7 0.455 8.96 0.15 0
8/13/2022 1:15:00 PM 26.5 79.7 0.455 8.97 0.16 0
8/13/2022 1:30:00 PM 26.5 79.7 0.455 8.97 0.24 0
8/13/2022 1:45:00 PM 26.49 79.682 0.455 8.96 0.18 0
8/13/2022 2:00:00 PM 26.49 79.682 0.455 8.95 0.17 0
8/13/2022 2:15:00 PM 26.49 79.682 0.455 8.94 0.15 0
8/13/2022 2:30:00 PM 26.49 79.682 0.455 8.96 0.16 0
8/13/2022 2:45:00 PM 26.48 79.664 0.455 8.95 0.15 0
8/13/2022 3:00:00 PM 26.48 79.664 0.455 8.96 0.17 0
8/13/2022 3:15:00 PM 26.48 79.664 0.455 8.96 0.2 0
8/13/2022 3:30:00 PM 26.47 79.646 0.455 8.95 0.19 0
8/13/2022 3:45:00 PM 26.47 79.646 0.455 8.94 0.14 0
8/13/2022 4:00:00 PM 26.47 79.646 0.455 8.94 0.15 0
8/13/2022 4:15:00 PM 26.46 79.628 0.455 8.92 0.14 0
8/13/2022 4:30:00 PM 26.46 79.628 0.455 8.92 0.14 0
8/13/2022 4:45:00 PM 26.46 79.628 0.455 8.92 1.17 0
8/13/2022 5:00:00 PM 26.45 79.61 0.455 8.93 0.12 0
8/13/2022 5:15:00 PM 26.45 79.61 0.455 8.91 0.17 0
8/13/2022 5:30:00 PM 26.45 79.61 0.455 8.92 0.17 0
8/13/2022 5:45:00 PM 26.45 79.61 0.455 8.92 0.14 0
8/13/2022 6:00:00 PM 26.45 79.61 0.455 8.91 0.16 0
8/13/2022 6:15:00 PM 26.44 79.592 0.455 8.91 0.14 0
8/13/2022 6:30:00 PM 26.44 79.592 0.455 8.91 0.18 0
8/13/2022 6:45:00 PM 26.44 79.592 0.455 8.9 0.12 0
8/13/2022 7:00:00 PM 26.43 79.574 0.455 8.9 0.15 0
8/13/2022 7:15:00 PM 26.43 79.574 0.455 8.89 0.15 0
8/13/2022 7:30:00 PM 26.43 79.574 0.455 8.9 0.01 0
8/13/2022 7:45:00 PM 26.43 79.574 0.455 8.88 0.17 0
8/13/2022 8:00:00 PM 26.42 79.556 0.455 8.89 0.14 0
8/13/2022 8:15:00 PM 26.42 79.556 0.455 8.88 0.12 0
8/13/2022 8:30:00 PM 26.42 79.556 0.455 8.86 0.13 0
8/13/2022 8:45:00 PM 26.41 79.538 0.455 8.87 0.12 0
8/13/2022 9:00:00 PM 26.41 79.538 0.455 8.88 0.17 0
8/13/2022 9:15:00 PM 26.41 79.538 0.455 8.87 0.12 0
8/13/2022 9:30:00 PM 26.41 79.538 0.455 8.87 0.14 0
8/13/2022 9:45:00 PM 26.41 79.538 0.455 8.88 0.2 0
8/13/2022 10:00:00 PM 26.4 79.52 0.455 8.88 0.15 0
8/13/2022 10:15:00 PM 26.39 79.502 0.455 8.87 0.17 0
8/13/2022 10:30:00 PM 26.39 79.502 0.455 8.85 0.14 0
8/13/2022 10:45:00 PM 26.38 79.484 0.273 8.85 0.52 0
8/13/2022 11:00:00 PM 26.38 79.484 0.455 8.85 0.22 0
8/13/2022 11:15:00 PM 26.37 79.466 0.456 8.82 0.15 0
8/13/2022 11:30:00 PM 26.37 79.466 0.454 8.83 0.78 0
8/13/2022 11:45:00 PM 26.37 79.466 0.456 8.82 0.15 0
8/14/2022 12:00:00 AM 26.37 79.466 0.455 8.83 0.6 0
8/14/2022 12:15:00 AM 26.36 79.448 0.27 8.8 0.8 0
8/14/2022 12:30:00 AM 26.36 79.448 0.456 8.8 1.05 0
8/14/2022 12:45:00 AM 26.35 79.43 0.456 8.81 0.16 0
8/14/2022 1:00:00 AM 26.35 79.43 0.456 8.8 2.32 0
8/14/2022 1:15:00 AM 26.35 79.43 0.453 8.8 0.61 0
8/14/2022 1:30:00 AM 26.35 79.43 0.456 8.8 0.18 0
8/14/2022 1:45:00 AM 26.34 79.412 0.456 8.78 0.39 0
8/14/2022 2:00:00 AM 26.34 79.412 0.456 8.79 0.44 0
8/14/2022 2:15:00 AM 26.34 79.412 0.456 8.79 0.58 0
8/14/2022 2:30:00 AM 26.33 79.394 0.456 8.79 0.54 0
8/14/2022 2:45:00 AM 26.33 79.394 0.431 8.77 0.74 0
8/14/2022 3:00:00 AM 26.32 79.376 0.112 8.8 0.65 0
8/14/2022 3:15:00 AM 26.32 79.376 0.459 8.76 0.73 0
8/14/2022 3:30:00 AM 26.32 79.376 0.456 8.78 1.01 0
8/14/2022 3:45:00 AM 26.31 79.358 0.456 8.75 0.25 0
8/14/2022 4:00:00 AM 25.87 78.566 0.457 8.6 0.41 0
8/14/2022 4:15:00 AM 25.16 77.288 0.458 8.42 0.64 0
8/14/2022 4:30:00 AM 24.97 76.946 0.281 8.36 0.38 0
8/14/2022 4:45:00 AM 24.92 76.856 0.459 8.36 0.8 0
8/14/2022 5:00:00 AM 24.91 76.838 0.458 8.35 0.74 0
8/14/2022 5:15:00 AM 24.91 76.838 0.358 8.34 0.51 0
8/14/2022 5:30:00 AM 24.92 76.856 0.457 8.33 0.54 0
8/14/2022 5:45:00 AM 24.92 76.856 0.457 8.32 0.41 0
8/14/2022 6:00:00 AM 24.91 76.838 0.457 8.3 0.63 0
8/14/2022 6:15:00 AM 24.9 76.82 0.457 8.32 0.5 0
8/14/2022 6:30:00 AM 24.89 76.802 0.457 8.32 0.72 0
8/14/2022 6:45:00 AM 24.88 76.784 0.238 8.34 0.52 0
8/14/2022 7:00:00 AM 24.91 76.838 0.456 8.36 0.38 0
8/14/2022 7:15:00 AM 24.95 76.91 0.458 8.41 0.64 0
8/14/2022 7:30:00 AM 25.01 77.018 0.457 8.47 0.66 0
8/14/2022 7:45:00 AM 25.06 77.108 0.457 8.48 0.93 0
8/14/2022 8:00:00 AM 25.1 77.18 0.513 8.52 0.52 0
8/14/2022 8:15:00 AM 25.19 77.342 0.364 8.57 0.51 0
8/14/2022 8:30:00 AM 25.29 77.522 0.456 8.63 0.77 0
8/14/2022 8:45:00 AM 25.41 77.738 0.455 8.7 0.68 0
8/14/2022 9:00:00 AM 25.51 77.918 0.456 8.76 1.69 0
8/14/2022 9:15:00 AM 25.63 78.134 0.455 8.81 0.51 0
8/14/2022 9:30:00 AM 25.78 78.404 0.273 8.88 0.6 0
8/14/2022 9:45:00 AM 25.91 78.638 0.455 8.93 1.13 0
8/14/2022 10:00:00 AM 26.02 78.836 0.455 8.98 0.81 0
8/14/2022 10:15:00 AM 26.15 79.07 0.455 9.02 0.52 0
8/14/2022 10:30:00 AM 26.27 79.286 0.4 9.06 0.64 0
8/14/2022 10:45:00 AM 26.38 79.484 0.32 9.1 0.85 0
8/14/2022 11:00:00 AM 26.5 79.7 0.264 9.13 0.47 0
8/14/2022 11:15:00 AM 26.55 79.79 0.455 9.16 1.14 0
8/14/2022 11:30:00 AM 26.57 79.826 0.455 9.17 0.64 0
8/14/2022 11:45:00 AM 26.66 79.988 0.454 9.18 0.34 0
8/14/2022 12:00:00 PM 26.88 80.384 0.454 9.21 0.98 0
8/14/2022 12:15:00 PM 27.04 80.672 0.454 9.24 0.52 0
8/14/2022 12:30:00 PM 27.05 80.69 0.453 9.22 0.93 0
8/14/2022 12:45:00 PM 27.05 80.69 0.453 9.22 0.62 0
8/14/2022 1:00:00 PM 27.05 80.69 0.453 9.21 0.51 0
8/14/2022 1:15:00 PM 27.04 80.672 0.456 9.2 0.43 0
8/14/2022 1:30:00 PM 27.04 80.672 0.459 9.2 0.25 0
8/14/2022 1:45:00 PM 27.03 80.654 0.453 9.2 0.28 0
8/14/2022 2:00:00 PM 27.02 80.636 0.453 9.21 0.29 0
8/14/2022 2:15:00 PM 27.01 80.618 0.453 9.2 1.45 0
8/14/2022 2:30:00 PM 27 80.6 0.228 9.21 0.43 0
8/14/2022 2:45:00 PM 26.99 80.582 0.454 9.19 0.53 0
8/14/2022 3:00:00 PM 26.98 80.564 0.453 9.2 0.35 0
8/14/2022 3:15:00 PM 26.98 80.564 0.453 9.2 0.91 0
8/14/2022 3:30:00 PM 26.97 80.546 0.453 9.2 0.25 0
8/14/2022 3:45:00 PM 26.96 80.528 0.453 9.19 0.27 0
8/14/2022 4:00:00 PM 26.95 80.51 0.147 9.18 0.33 0
8/14/2022 4:15:00 PM 26.95 80.51 0.453 9.19 0.48 0
8/14/2022 4:30:00 PM 26.94 80.492 0.453 9.18 0.33 0
8/14/2022 4:45:00 PM 26.93 80.474 0.453 9.18 0.51 0
8/14/2022 5:00:00 PM 26.92 80.456 0.453 9.18 0.56 0
8/14/2022 5:15:00 PM 26.91 80.438 0.453 9.15 2.79 0
8/14/2022 5:30:00 PM 26.9 80.42 0.452 9.16 0.24 0
8/14/2022 5:45:00 PM 26.9 80.42 0.139 9.16 0.63 0
8/14/2022 6:00:00 PM 26.89 80.402 0.461 9.16 0.92 0
8/14/2022 6:15:00 PM 26.88 80.384 0.456 9.16 0.34 0
8/14/2022 6:30:00 PM 26.88 80.384 0.453 9.16 0.32 0
8/14/2022 6:45:00 PM 26.87 80.366 0.451 9.15 0.55 0
8/14/2022 7:00:00 PM 26.86 80.348 0.453 9.16 0.66 0
8/14/2022 7:15:00 PM 26.85 80.33 0.453 9.14 0.5 0
8/14/2022 7:30:00 PM 26.85 80.33 0.258 9.13 0.35 0
8/14/2022 7:45:00 PM 26.84 80.312 0.361 9.14 0.62 0
8/14/2022 8:00:00 PM 26.83 80.294 0.143 9.14 0.49 0
8/14/2022 8:15:00 PM 26.83 80.294 0.455 9.13 0.37 0
8/14/2022 8:30:00 PM 26.82 80.276 0.454 9.14 0.6 0
8/14/2022 8:45:00 PM 26.82 80.276 0.453 9.13 2.37 0
8/14/2022 9:00:00 PM 26.81 80.258 0.454 9.11 0.73 0
8/14/2022 9:15:00 PM 26.8 80.24 0.454 9.12 0.52 0
8/14/2022 9:30:00 PM 26.79 80.222 0.453 9.13 0.18 0
8/14/2022 9:45:00 PM 26.78 80.204 0.454 9.1 0.39 0
8/14/2022 10:00:00 PM 26.77 80.186 0.454 9.1 0.29 0
8/14/2022 10:15:00 PM 26.77 80.186 0.454 9.09 11.45 0
8/14/2022 10:30:00 PM 26.75 80.15 0.454 9.08 0.5 0
8/14/2022 10:45:00 PM 26.75 80.15 0.22 9.08 0.29 0
8/14/2022 11:00:00 PM 26.74 80.132 0.455 9.07 0.43 0
8/14/2022 11:15:00 PM 26.74 80.132 0.454 9.05 0.29 0
8/14/2022 11:30:00 PM 26.73 80.114 0.454 9.05 0.3 0
8/14/2022 11:45:00 PM 26.72 80.096 0.455 9.05 0.3 0
8/15/2022 12:00:00 AM 26.72 80.096 0.455 9.04 0.51 0
8/15/2022 12:15:00 AM 26.71 80.078 0.455 9.03 0.47 0
8/15/2022 12:30:00 AM 26.7 80.06 0.455 9.03 0.47 0
8/15/2022 12:45:00 AM 26.7 80.06 0.455 9.02 0.28 0
8/15/2022 1:00:00 AM 26.7 80.06 0.455 9.01 0.66 0
8/15/2022 1:15:00 AM 26.69 80.042 0.455 9.01 0.44 0
8/15/2022 1:30:00 AM 26.68 80.024 0.455 9 0.35 0
8/15/2022 1:45:00 AM 26.68 80.024 0.455 9 0.25 0
8/15/2022 2:00:00 AM 26.68 80.024 0.243 9 0.18 0
8/15/2022 2:15:00 AM 26.67 80.006 0.457 8.98 0.41 0
8/15/2022 2:30:00 AM 26.67 80.006 0.455 8.98 1.38 0
8/15/2022 2:45:00 AM 26.66 79.988 0.237 8.97 0.58 0
8/15/2022 3:00:00 AM 26.66 79.988 0.455 8.96 0.29 0
8/15/2022 3:15:00 AM 26.65 79.97 0.455 8.96 0.3 0
8/15/2022 3:30:00 AM 26.65 79.97 0.455 8.96 2.62 0
8/15/2022 3:45:00 AM 26.64 79.952 0.455 8.96 8.54 0
8/15/2022 4:00:00 AM 26.61 79.898 0.455 8.93 0.46 0
8/15/2022 4:15:00 AM 25.81 78.458 0.456 8.76 0.23 0
8/15/2022 4:30:00 AM 25 77 0.457 8.47 3.32 0
8/15/2022 4:45:00 AM 24.88 76.784 0.459 8.39 0.84 0
8/15/2022 5:00:00 AM 24.87 76.766 0.26 8.37 0.58 0
8/15/2022 5:15:00 AM 24.89 76.802 0.461 8.34 0.46 0
8/15/2022 5:30:00 AM 24.91 76.838 0.461 8.34 0.55 0
8/15/2022 5:45:00 AM 24.92 76.856 0.461 8.33 0.87 0
8/15/2022 6:00:00 AM 24.93 76.874 0.46 8.33 0.43 0
8/15/2022 6:15:00 AM 24.95 76.91 0.46 8.33 2.23 0
8/15/2022 6:30:00 AM 24.96 76.92799 0.46 8.34 1.05 0
8/15/2022 6:45:00 AM 24.97 76.946 0.458 8.34 0.58 0
8/15/2022 7:00:00 AM 24.98 76.964 0.458 8.36 0.51 0
8/15/2022 7:15:00 AM 25 77 0.458 8.37 0.52 0
8/15/2022 7:30:00 AM 25.03 77.054 0.458 8.42 0.65 0
8/15/2022 7:45:00 AM 25.06 77.108 0.458 8.48 1.17 0
8/15/2022 8:00:00 AM 25.1 77.18 0.457 8.52 0.8 0
8/15/2022 8:15:00 AM 25.13 77.234 0.456 8.56 1.29 0
8/15/2022 8:30:00 AM 25.18 77.324 0.457 8.6 0.58 0
8/15/2022 8:45:00 AM 25.22 77.396 0.457 8.68 0.53 0
8/15/2022 9:00:00 AM 25.26 77.468 0.457 8.72 0.5 0
8/15/2022 9:15:00 AM 25.29 77.522 0.458 8.77 0.57 0
8/15/2022 9:30:00 AM 25.35 77.63 0.128 8.83 0.61 0
8/15/2022 9:45:00 AM 25.44 77.792 0.457 8.91 0.26 0
8/15/2022 10:00:00 AM 25.53 77.954 0.456 8.96 0.35 0
8/15/2022 10:15:00 AM 25.61 78.098 0.456 9.01 0.58 0
8/15/2022 10:30:00 AM 25.68 78.224 0.456 9.03 0.26 0
8/15/2022 10:45:00 AM 25.79 78.422 0.459 9.09 1.5 0
8/15/2022 11:00:00 AM 25.83 78.494 0.455 9.06 1.59 0
8/15/2022 11:15:00 AM 25.84 78.512 0.455 9.15 1.09 1.21
8/15/2022 11:30:00 AM 25.85 78.53 0.454 9.17 0.6 11.05
8/15/2022 11:45:00 AM 25.9 78.62 0.454 9.2 0.85 0
8/15/2022 12:00:00 PM 25.95 78.71 0.453 9.22 3.63 0
8/15/2022 12:15:00 PM 25.98 78.764 0.453 9.25 0.52 0
8/15/2022 12:30:00 PM 25.99 78.782 0.453 9.26 0.84 0
8/15/2022 12:45:00 PM 25.99 78.782 0.452 9.26 1.36 0
8/15/2022 1:00:00 PM 26.01 78.818 0.359 9.28 0.82 0
8/15/2022 1:15:00 PM 26.06 78.908 0.452 9.3 0.34 0
8/15/2022 1:30:00 PM 26.1 78.98 0.451 9.32 0.26 0
8/15/2022 1:45:00 PM 26.16 79.088 0.45 9.35 0.37 0
8/15/2022 2:00:00 PM 26.19 79.142 0.45 9.37 0.28 0
8/15/2022 2:15:00 PM 26.22 79.196 0.449 9.37 0.26 0
8/15/2022 2:30:00 PM 26.21 79.17799 0.449 9.36 0.22 0
8/15/2022 2:45:00 PM 26.21 79.17799 0.449 9.33 0.52 0
8/15/2022 3:00:00 PM 26.21 79.17799 0.456 9.34 0.76 0
8/15/2022 3:15:00 PM 26.21 79.17799 0.45 9.34 0.27 0
8/15/2022 3:30:00 PM 26.2 79.16 0.451 9.33 0.61 1.22
8/15/2022 3:45:00 PM 26.2 79.16 0.45 9.34 0.58 0
8/15/2022 4:00:00 PM 26.2 79.16 0.45 9.32 0.78 0
8/15/2022 4:15:00 PM 26.2 79.16 0.272 9.34 0.6 0
8/15/2022 4:30:00 PM 26.19 79.142 0.45 9.33 0.65 0
8/15/2022 4:45:00 PM 26.19 79.142 0.45 9.33 0.7 0
8/15/2022 5:00:00 PM 26.18 79.124 0.451 9.33 0.73 0
8/15/2022 5:15:00 PM 26.18 79.124 0.451 9.33 0.67 1.43
8/15/2022 5:30:00 PM 26.17 79.106 0.45 9.34 0.27 1.43
8/15/2022 5:45:00 PM 26.17 79.106 0.45 9.34 0.62 1.43
8/15/2022 6:00:00 PM 26.17 79.106 0.45 9.33 0.74 1.53
8/15/2022 6:15:00 PM 26.16 79.088 0.159 9.31 0.57 1.54
8/15/2022 6:30:00 PM 26.16 79.088 0.45 9.31 0.65 1.01
8/15/2022 6:45:00 PM 26.15 79.07 0.45 9.32 0.37 0
8/15/2022 7:00:00 PM 26.15 79.07 0.45 9.32 0.42 1.29
8/15/2022 7:15:00 PM 26.14 79.052 0.45 9.31 0.65 1.33
8/15/2022 7:30:00 PM 26.14 79.052 0.45 9.31 0.79 0
8/15/2022 7:45:00 PM 26.13 79.034 0.45 9.3 0.75 1.27
8/15/2022 8:00:00 PM 26.13 79.034 0.45 9.3 0.32 1.24
8/15/2022 8:15:00 PM 26.12 79.016 0.45 9.29 1.02 0.87
8/15/2022 8:30:00 PM 26.12 79.016 0.45 9.29 0.12 0.8
8/15/2022 8:45:00 PM 26.11 78.998 0.45 9.29 5.86 0.68
8/15/2022 9:00:00 PM 26.1 78.98 0.45 9.28 0.41 1.1
8/15/2022 9:15:00 PM 26.1 78.98 0.45 9.27 0.8 0.88
8/15/2022 9:30:00 PM 26.09 78.962 0.45 9.27 0.62 0.79
8/15/2022 9:45:00 PM 26.09 78.962 0.45 9.27 1.38 0.73
8/15/2022 10:00:00 PM 26.08 78.944 0.45 9.27 0.5 0.85
8/15/2022 10:15:00 PM 26.07 78.926 0.451 9.26 1.19 0.8
8/15/2022 10:30:00 PM 26.06 78.908 0.45 9.25 0.62 0.7
8/15/2022 10:45:00 PM 26.06 78.908 0.45 9.26 0.24 0.61
8/15/2022 11:00:00 PM 26.06 78.908 0.45 9.25 0.79 0.56
8/15/2022 11:15:00 PM 26.06 78.908 0.451 9.24 0.84 0.66
8/15/2022 11:30:00 PM 26.05 78.89 0.45 9.24 0.36 0.88
8/15/2022 11:45:00 PM 26.05 78.89 0.289 9.24 0.72 0.78
8/16/2022 12:00:00 AM 26.05 78.89 0.451 9.24 0.58 0
8/16/2022 12:15:00 AM 26.05 78.89 0.451 9.22 0.17 0.4
8/16/2022 12:30:00 AM 26.05 78.89 0.451 9.23 0.39 0.71
8/16/2022 12:45:00 AM 26.04 78.872 0.451 9.23 0.18 0.4
8/16/2022 1:00:00 AM 26.04 78.872 0.451 9.24 0.59 0.35
8/16/2022 1:15:00 AM 26.04 78.872 0.451 9.23 0.18 0.29
8/16/2022 1:30:00 AM 26.04 78.872 0.451 9.24 1.2 0.2
8/16/2022 1:45:00 AM 26.03 78.854 0.451 9.22 0.17 0.12
8/16/2022 2:00:00 AM 26.03 78.854 0.451 9.21 0.29 0.1
8/16/2022 2:15:00 AM 26.03 78.854 0.159 9.23 0.79 0
8/16/2022 2:30:00 AM 26.03 78.854 0.451 9.23 0.26 -0.14
8/16/2022 2:45:00 AM 26.02 78.836 0.451 9.21 0.2 -0.3
8/16/2022 3:00:00 AM 26.02 78.836 0.237 9.22 0.91 -0.43
8/16/2022 3:15:00 AM 26.02 78.836 0.287 9.2 0.48 -0.63
8/16/2022 3:30:00 AM 26.01 78.818 0.295 9.19 0.67 -0.83
8/16/2022 3:45:00 AM 26.01 78.818 0.451 9.18 0.24 -1.1
8/16/2022 4:00:00 AM 26 78.8 0.452 9.2 0.55 -1.33
8/16/2022 4:15:00 AM 25.8 78.44 0.291 9.17 0.55 -1.58
8/16/2022 4:30:00 AM 24.59 76.262 0.462 8.7 0.64 0
8/16/2022 4:45:00 AM 24.05 75.29 0.455 8.4 0.62 -1.86
8/16/2022 5:00:00 AM 23.98 75.164 0.456 8.33 0.26 -2.19
8/16/2022 5:15:00 AM 23.94 75.092 0.456 8.31 0.65 -2.25
8/16/2022 5:30:00 AM 23.93 75.074 0.456 8.29 0.37 -2.7
8/16/2022 5:45:00 AM 23.93 75.074 0.456 8.28 2.62 -2.68
8/16/2022 6:00:00 AM 23.95 75.11 0.353 8.27 0.95 -3.08
8/16/2022 6:15:00 AM 23.98 75.164 0.456 8.3 0.35 -3.41
8/16/2022 6:30:00 AM 24.02 75.236 0.456 8.32 0.72 0
8/16/2022 6:45:00 AM 24.06 75.308 0.456 8.36 0.29 -3.56
8/16/2022 7:00:00 AM 24.1 75.38 0.456 8.4 0.42 -3.46
8/16/2022 7:15:00 AM 24.15 75.47 0.456 8.44 0.32 -3.24
8/16/2022 7:30:00 AM 24.23 75.614 0.456 8.5 0.39 -3.23
8/16/2022 7:45:00 AM 24.32 75.776 0.456 8.58 0.37 -2.9
8/16/2022 8:00:00 AM 24.39 75.902 0.456 8.63 0.3 -3.23
8/16/2022 8:15:00 AM 24.46 76.028 0.455 8.7 0.34 0
8/16/2022 8:30:00 AM 24.54 76.172 0.455 8.76 0.43 0
8/16/2022 8:45:00 AM 24.64 76.352 0.455 8.85 0.89 -7.77
8/16/2022 9:00:00 AM 24.71 76.478 0.454 8.92 0.31 0
8/16/2022 9:15:00 AM 24.8 76.64 0.453 9 0.33 -6.79
8/16/2022 9:30:00 AM 24.9 76.82 0.453 9.03 0.47 -3.9
8/16/2022 9:45:00 AM 25 77 0.452 9.08 0.28 -4.08
8/16/2022 10:00:00 AM 25.1 77.18 0.452 9.12 1.51 0
8/16/2022 10:15:00 AM 25.17 77.306 0.452 9.14 1.04 -3.21
8/16/2022 10:30:00 AM 25.27 77.486 0.451 9.19 0.39 -3.91
8/16/2022 10:45:00 AM 25.47 77.846 0.45 9.23 0.33 -3.32
8/16/2022 11:00:00 AM 25.63 78.134 0.45 9.28 0.25 -3.71
8/16/2022 11:15:00 AM 25.79 78.422 0.45 9.31 0.67 0
8/16/2022 11:30:00 AM 25.94 78.692 0.45 9.33 0.24 -3.35
8/16/2022 11:45:00 AM 26.07 78.926 0.45 9.37 2.62 -3.09
8/16/2022 12:00:00 PM 26.18 79.124 0.271 9.37 0.64 -3.12
8/16/2022 12:15:00 PM 26.21 79.17799 0.45 9.38 0.26 -4.01
8/16/2022 12:30:00 PM 26.23 79.214 0.45 9.39 0.27 -3.24
8/16/2022 12:45:00 PM 26.27 79.286 0.282 9.4 0.7 -3.15
8/16/2022 1:00:00 PM 26.31 79.358 0.449 9.41 0.48 -3.43
8/16/2022 1:15:00 PM 26.4 79.52 0.45 9.43 0.31 -3.34
8/16/2022 1:30:00 PM 26.5 79.7 0.508 9.45 0.85 -3.65
8/16/2022 1:45:00 PM 26.61 79.898 0.445 9.49 5.65 -3.44
8/16/2022 2:00:00 PM 26.67 80.006 0.45 9.51 0.67 -3.63
8/16/2022 2:15:00 PM 26.67 80.006 0.45 9.49 0.29 -3.93
8/16/2022 2:30:00 PM 26.67 80.006 0.36 9.48 0.7 -3.49
8/16/2022 2:45:00 PM 26.67 80.006 0.362 9.48 0.64 -3.27
8/16/2022 3:00:00 PM 26.66 79.988 0.45 9.49 0.58 -3.39
8/16/2022 3:15:00 PM 26.66 79.988 0.45 9.49 0.62 -3.65
8/16/2022 3:30:00 PM 26.65 79.97 0.45 9.49 0.6 -3.53
8/16/2022 3:45:00 PM 26.64 79.952 0.45 9.49 0.55 -3.84
8/16/2022 4:00:00 PM 26.63 79.934 0.45 9.48 0.27 -4.36
8/16/2022 4:15:00 PM 26.62 79.916 0.45 9.48 0.34 -4.16
8/16/2022 4:30:00 PM 26.61 79.898 0.45 9.47 0.53 -3.38
8/16/2022 4:45:00 PM 26.61 79.898 0.45 9.47 0.29 -4.41
8/16/2022 5:00:00 PM 26.6 79.88 0.18 9.47 0.95 -4.18
8/16/2022 5:15:00 PM 26.59 79.862 0.279 9.46 0.93 -4.04
8/16/2022 5:30:00 PM 26.58 79.844 0.45 9.47 0.27 -3.39
8/16/2022 5:45:00 PM 26.57 79.826 0.45 9.45 0.38 -3.01
8/16/2022 6:00:00 PM 26.56 79.808 0.45 9.45 0.25 -3.26
8/16/2022 6:15:00 PM 26.55 79.79 0.45 9.45 0.33 -4.2
8/16/2022 6:30:00 PM 26.54 79.772 0.45 9.44 0.32 -3.38
8/16/2022 6:45:00 PM 26.53 79.754 0.45 9.44 0.26 -3.58
8/16/2022 7:00:00 PM 26.52 79.736 0.45 9.43 0.26 -3.36
8/16/2022 7:15:00 PM 26.51 79.718 0.451 9.43 0.55 -3.77
8/16/2022 7:30:00 PM 26.51 79.718 0.45 9.43 0.24 -4.59
8/16/2022 7:45:00 PM 26.5 79.7 0.45 9.42 0.76 -3.47
8/16/2022 8:00:00 PM 26.49 79.682 0.45 9.43 0.24 -4.55
8/16/2022 8:15:00 PM 26.48 79.664 0.45 9.41 0.36 -4.44
8/16/2022 8:30:00 PM 26.48 79.664 0.45 9.41 0.27 -4.36
8/16/2022 8:45:00 PM 26.47 79.646 0.451 9.4 0.48 -2.97
8/16/2022 9:00:00 PM 26.47 79.646 0.45 9.41 0.57 -4.51
8/16/2022 9:15:00 PM 26.46 79.628 0.45 9.4 0.23 -3.87
8/16/2022 9:30:00 PM 26.45 79.61 0.451 9.39 1.12 -4.15
8/16/2022 9:45:00 PM 26.45 79.61 0.45 9.4 0.46 -4.31
8/16/2022 10:00:00 PM 26.44 79.592 0.289 9.41 0.43 -4.05
8/16/2022 10:15:00 PM 26.43 79.574 0.45 9.4 0.53 -4.7
8/16/2022 10:30:00 PM 26.43 79.574 0.319 9.4 0.76 -4.42
8/16/2022 10:45:00 PM 26.42 79.556 0.169 9.39 0.55 -4.94
8/16/2022 11:00:00 PM 26.42 79.556 0.45 9.38 0.33 -3.85
8/16/2022 11:15:00 PM 26.41 79.538 0.451 9.39 0.67 -4.17
8/16/2022 11:30:00 PM 26.41 79.538 0.128 9.38 0.57 -5.13
8/16/2022 11:45:00 PM 26.4 79.52 0.378 9.38 0.53 -4.45
8/17/2022 12:00:00 AM 26.4 79.52 0.451 9.37 0.31 -4.36
8/17/2022 12:15:00 AM 26.4 79.52 0.451 9.36 0.97 -4.67
8/17/2022 12:30:00 AM 26.39 79.502 0.451 9.36 0.23 -4.76
8/17/2022 12:45:00 AM 26.39 79.502 0.451 9.36 0.29 -5.23
8/17/2022 1:00:00 AM 26.38 79.484 0.451 9.36 0.43 -4.96
8/17/2022 1:15:00 AM 26.38 79.484 0.451 9.34 0.26 -4.98
8/17/2022 1:30:00 AM 26.37 79.466 0.451 9.33 0.25 -4.59
8/17/2022 1:45:00 AM 26.36 79.448 0.451 9.33 0.39 -5.07
8/17/2022 2:00:00 AM 26.36 79.448 0.451 9.31 0.25 -4.75
8/17/2022 2:15:00 AM 26.35 79.43 0.451 9.32 0.26 -3.35
8/17/2022 2:30:00 AM 26.35 79.43 0.451 9.31 0.21 -5.05
8/17/2022 2:45:00 AM 26.34 79.412 0.451 9.32 0.2 0
8/17/2022 3:00:00 AM 26.34 79.412 0.451 9.3 0.33 -3.96
8/17/2022 3:15:00 AM 26.33 79.394 0.452 9.3 0.24 -3.56
8/17/2022 3:30:00 AM 26.32 79.376 0.452 9.29 0.28 -4.3
8/17/2022 3:45:00 AM 26.32 79.376 0.452 9.29 0.25 -3.7
8/17/2022 4:00:00 AM 26.31 79.358 0.452 9.29 0.25 -3.98
8/17/2022 4:15:00 AM 25.99 78.782 0.452 9.25 0.29 -4.47
8/17/2022 4:30:00 AM 24.33 75.794 0.454 8.68 0.29 -4.7
8/17/2022 4:45:00 AM 23.86 74.948 0.454 8.47 0.41 -4.52
8/17/2022 5:00:00 AM 23.75 74.75 0.454 8.43 0.33 -4.78
8/17/2022 5:15:00 AM 23.72 74.696 0.454 8.37 0.27 -4.18
8/17/2022 5:30:00 AM 23.71 74.67799 0.453 8.37 0.32 -5.17
8/17/2022 5:45:00 AM 23.7 74.66 0.453 8.34 0.31 -4.31
8/17/2022 6:00:00 AM 23.71 74.67799 0.453 8.35 0.27 -4.37
8/17/2022 6:15:00 AM 23.72 74.696 0.453 8.34 0.26 -4.76
8/17/2022 6:30:00 AM 23.74 74.732 0.453 8.39 0.28 -4.53
8/17/2022 6:45:00 AM 23.77 74.786 0.454 8.42 0.33 -4.93
8/17/2022 7:00:00 AM 23.84 74.912 0.454 8.48 0.28 -5
8/17/2022 7:15:00 AM 23.89 75.002 0.455 8.52 0.24 -4.67
8/17/2022 7:30:00 AM 23.95 75.11 0.455 8.56 0.37 -4.67
8/17/2022 7:45:00 AM 24.02 75.236 0.454 8.6 0.3 -4.16
8/17/2022 8:00:00 AM 24.09 75.362 0.454 8.63 0.29 -4.23
8/17/2022 8:15:00 AM 24.15 75.47 0.455 8.7 0.28 -6.07
8/17/2022 8:30:00 AM 24.22 75.596 0.455 8.75 0.27 -4.14
8/17/2022 8:45:00 AM 24.3 75.74 0.455 8.82 0.28 -4.87
8/17/2022 9:00:00 AM 24.37 75.866 0.454 8.88 3.77 -4.53
8/17/2022 9:15:00 AM 24.42 75.956 0.454 8.91 0.46 -4.58
8/17/2022 9:30:00 AM 24.48 76.064 0.453 8.96 0.33 -4.6
8/17/2022 9:45:00 AM 24.55 76.19 0.452 9.02 0.35 -4.77
8/17/2022 10:00:00 AM 24.63 76.334 0.45 9.06 0.3 -3.89
8/17/2022 10:15:00 AM 24.7 76.46 0.449 9.12 0.88 -4.71
8/17/2022 10:30:00 AM 24.76 76.568 0.449 9.15 2.07 -4.58
8/17/2022 10:45:00 AM 24.79 76.622 0.449 9.17 0.3 -4.08
8/17/2022 11:00:00 AM 24.8 76.64 0.449 9.18 0.32 -4.8
8/17/2022 11:15:00 AM 24.83 76.694 0.449 9.19 0.3 -4.53
8/17/2022 11:30:00 AM 24.87 76.766 0.449 9.19 0.27 -3.72
8/17/2022 11:45:00 AM 24.96 76.92799 0.448 9.25 0.37 -3.48
8/17/2022 12:00:00 PM 25.04 77.07201 0.449 9.28 0.71 -5.15
8/17/2022 12:15:00 PM 25.11 77.198 0.449 9.31 3.32 -4.9
8/17/2022 12:30:00 PM 25.19 77.342 0.449 9.32 0.3 -5.4
8/17/2022 12:45:00 PM 25.21 77.378 0.449 9.35 0.25 -5.08
8/17/2022 1:00:00 PM 25.2 77.36 0.449 9.34 0.42 -5.28
8/17/2022 1:15:00 PM 25.23 77.414 0.449 9.35 0.33 -4.44
8/17/2022 1:30:00 PM 25.3 77.54 0.449 9.37 0.27 -5.11
8/17/2022 1:45:00 PM 25.37 77.666 0.449 9.37 0.28 -4.84
8/17/2022 2:00:00 PM 25.41 77.738 0.449 9.38 0.42 -4.69
8/17/2022 2:15:00 PM 25.42 77.756 0.135 9.36 0.69 -5.28
8/17/2022 2:30:00 PM 25.43 77.774 0.449 9.35 0.38 -4.29
8/17/2022 2:45:00 PM 25.43 77.774 0.449 9.37 2.36 -5.02
8/17/2022 3:00:00 PM 25.43 77.774 0.449 9.38 0.19 -4.39
8/17/2022 3:15:00 PM 25.42 77.756 0.449 9.38 0.49 -4.91
8/17/2022 3:30:00 PM 25.42 77.756 0.449 9.38 0.25 -4.52
8/17/2022 3:45:00 PM 25.42 77.756 0.449 9.37 0.26 -4.8
8/17/2022 4:00:00 PM 25.41 77.738 0.449 9.36 0.31 -5.02
8/17/2022 4:15:00 PM 25.41 77.738 0.449 9.36 7.38 -5.19
8/17/2022 4:30:00 PM 25.4 77.72 0.449 9.36 0.21 -4.95
8/17/2022 4:45:00 PM 25.4 77.72 0.449 9.38 0.25 -4.35
8/17/2022 5:00:00 PM 25.39 77.702 0.449 9.38 0.2 0
8/17/2022 5:15:00 PM 25.39 77.702 0.449 9.37 0.27 -4.45
8/17/2022 5:30:00 PM 25.39 77.702 0.449 9.36 0.24 -4.23
8/17/2022 5:45:00 PM 25.38 77.684 0.449 9.36 0.23 -4.08
8/17/2022 6:00:00 PM 25.38 77.684 0.449 9.36 0.24 -4.29
8/17/2022 6:15:00 PM 25.38 77.684 0.45 9.36 0.06 -4.37
8/17/2022 6:30:00 PM 25.37 77.666 0.45 9.36 0.23 -3.43
8/17/2022 6:45:00 PM 25.37 77.666 0.45 9.35 0.23 -4.54
8/17/2022 7:00:00 PM 25.37 77.666 0.45 9.34 0.54 -5.21
8/17/2022 7:15:00 PM 25.36 77.648 0.45 9.33 0.21 0
8/17/2022 7:30:00 PM 25.36 77.648 0.45 9.35 0.79 -4.97
8/17/2022 7:45:00 PM 25.36 77.648 0.45 9.35 0.26 -5.02
8/17/2022 8:00:00 PM 25.35 77.63 0.45 9.32 0.24 -5.32
8/17/2022 8:15:00 PM 25.35 77.63 0.45 9.33 0.18 -4.3
8/17/2022 8:30:00 PM 25.35 77.63 0.45 9.33 0.22 -5.17
8/17/2022 8:45:00 PM 25.34 77.612 0.45 9.31 33.59 -4.1
8/17/2022 9:00:00 PM 25.34 77.612 0.45 9.3 0.32 -3.52
8/17/2022 9:15:00 PM 25.34 77.612 0.45 9.32 0.59 0
8/17/2022 9:30:00 PM 25.33 77.594 0.45 9.31 0.21 0
8/17/2022 9:45:00 PM 25.33 77.594 0.45 9.31 0.22 -3.28
8/17/2022 10:00:00 PM 25.33 77.594 0.45 9.32 0.53 -3.95
8/17/2022 10:15:00 PM 25.33 77.594 0.45 9.34 0.55 -4.85
8/17/2022 10:30:00 PM 25.32 77.576 0.45 9.31 0.18 -4.74
8/17/2022 10:45:00 PM 25.32 77.576 0.45 9.3 0.21 -4.07
8/17/2022 11:00:00 PM 25.32 77.576 0.45 9.3 0.21 -4.76
8/17/2022 11:15:00 PM 25.32 77.576 0.45 9.31 0.19 -5.02
8/17/2022 11:30:00 PM 25.31 77.558 0.45 9.31 0.36 -5.19
8/17/2022 11:45:00 PM 25.31 77.558 0.45 9.3 0.18 -3.81
8/18/2022 12:00:00 AM 25.31 77.558 0.45 9.29 0.58 -5.07
8/18/2022 12:15:00 AM 25.31 77.558 0.45 9.29 0.2 -4.99
8/18/2022 12:30:00 AM 25.3 77.54 0.349 9.29 0.34 -5.49
8/18/2022 12:45:00 AM 25.3 77.54 0.451 9.28 0.36 -5.21
8/18/2022 1:00:00 AM 25.3 77.54 0.449 9.29 1.34 -5.51
8/18/2022 1:15:00 AM 25.3 77.54 0.45 9.28 0.75 -4.69
8/18/2022 1:30:00 AM 25.29 77.522 0.45 9.28 1.29 -5.66
8/18/2022 1:45:00 AM 25.29 77.522 0.45 9.27 1.38 -5.57
8/18/2022 2:00:00 AM 25.29 77.522 0.222 9.28 0.67 -5.55
8/18/2022 2:15:00 AM 25.28 77.504 0.45 9.27 0.46 -5.85
8/18/2022 2:30:00 AM 25.28 77.504 0.456 9.26 0.77 -5.8
8/18/2022 2:45:00 AM 25.28 77.504 0.45 9.26 0.19 -4.91
8/18/2022 3:00:00 AM 25.27 77.486 0.45 9.28 0.19 -5
8/18/2022 3:15:00 AM 25.27 77.486 0.45 9.26 2.92 -5.09
8/18/2022 3:30:00 AM 25.27 77.486 0.45 9.26 0.22 -4.29
8/18/2022 3:45:00 AM 25.26 77.468 0.45 9.25 0.21 -5.45
8/18/2022 4:00:00 AM 25.26 77.468 0.45 9.25 0.21 -4.58
8/18/2022 4:15:00 AM 25.27 77.486 0.451 9.22 0.27 -5.59
8/18/2022 4:30:00 AM 24.58 76.244 0.453 9.02 0.34 -5.73
8/18/2022 4:45:00 AM 23.37 74.066 0.455 8.52 0.38 -4.93
8/18/2022 5:00:00 AM 23.08 73.544 0.455 8.39 0.34 -5.22
8/18/2022 5:15:00 AM 23 73.4 0.454 8.35 0.36 -4.35
8/18/2022 5:30:00 AM 22.96 73.328 0.454 8.34 0.27 -5.61
8/18/2022 5:45:00 AM 22.94 73.292 0.453 8.28 0.35 -4.51
8/18/2022 6:00:00 AM 22.93 73.274 0.452 8.29 0.37 -5.15
8/18/2022 6:15:00 AM 22.94 73.292 0.452 8.3 0.31 -5.45
8/18/2022 6:30:00 AM 22.95 73.31 0.451 8.34 0.27 -6.42
8/18/2022 6:45:00 AM 22.98 73.364 0.451 8.35 0.33 -6.02
8/18/2022 7:00:00 AM 23.03 73.454 0.452 8.42 0.3 -6.08
8/18/2022 7:15:00 AM 23.09 73.562 0.452 8.48 0.3 -5.99
8/18/2022 7:30:00 AM 23.16 73.688 0.452 8.53 0.34 -5.81
8/18/2022 7:45:00 AM 23.21 73.778 0.453 8.54 0.3 -6.16
8/18/2022 8:00:00 AM 23.27 73.886 0.453 8.59 0.28 -6.29
8/18/2022 8:15:00 AM 23.34 74.012 0.454 8.67 0.31 -5.53
8/18/2022 8:30:00 AM 23.42 74.156 0.455 8.69 0.29 -6.29
8/18/2022 8:45:00 AM 23.5 74.3 0.456 8.75 0.32 -8.51
8/18/2022 9:00:00 AM 23.61 74.498 0.456 8.79 0.32 -4.53
8/18/2022 9:15:00 AM 23.74 74.732 0.456 8.86 0.7 0
8/18/2022 9:30:00 AM 23.86 74.948 0.456 8.88 0.48 -5.32
8/18/2022 9:45:00 AM 24.02 75.236 0.455 8.99 0.38 -4.86
8/18/2022 10:00:00 AM 24.2 75.56 0.453 9.04 0.34 -5.77
8/18/2022 10:15:00 AM 24.36 75.848 0.453 9.08 0.29 -5.8
8/18/2022 10:30:00 AM 24.51 76.118 0.452 9.13 0.34 -5.17
8/18/2022 10:45:00 AM 24.67 76.406 0.451 9.17 1.81 -4.56
8/18/2022 11:00:00 AM 24.84 76.712 0.451 9.21 0.34 -5.07
8/18/2022 11:15:00 AM 25 77 0.451 9.23 0.31 -5.29
8/18/2022 11:30:00 AM 25.16 77.288 0.451 9.26 0.28 -5.69
8/18/2022 11:45:00 AM 25.29 77.522 0.451 9.28 0.29 -5.45
8/18/2022 12:00:00 PM 25.42 77.756 0.452 9.3 0.49 -5.44
8/18/2022 12:15:00 PM 25.55 77.99 0.252 9.32 0.51 -5.83
8/18/2022 12:30:00 PM 25.63 78.134 0.452 9.33 0.28 -5.9
8/18/2022 12:45:00 PM 25.69 78.242 0.452 9.33 0.24 -5.89
8/18/2022 1:00:00 PM 25.78 78.404 0.453 9.35 0.43 -6.41
8/18/2022 1:15:00 PM 25.88 78.584 0.453 9.36 0.69 -5.36
8/18/2022 1:30:00 PM 25.99 78.782 0.453 9.38 0.27 -6.41
8/18/2022 1:45:00 PM 26.09 78.962 0.452 9.4 0.26 0
8/18/2022 2:00:00 PM 26.18 79.124 0.452 9.42 2.09 -5.33
8/18/2022 2:15:00 PM 26.18 79.124 0.452 9.4 0.23 -5.9
8/18/2022 2:30:00 PM 26.18 79.124 0.452 9.4 0.23 -5.94
8/18/2022 2:45:00 PM 26.19 79.142 0.452 9.41 0.21 -6.04
8/18/2022 3:00:00 PM 26.17 79.106 0.452 9.41 0.26 -5.85
8/18/2022 3:15:00 PM 26.16 79.088 0.452 9.41 0.24 -5.45
8/18/2022 3:30:00 PM 26.15 79.07 0.452 9.39 0.24 -4.45
8/18/2022 3:45:00 PM 26.15 79.07 0.452 9.4 0.2 -4.88
8/18/2022 4:00:00 PM 26.14 79.052 0.452 9.41 0.21 -5.44
8/18/2022 4:15:00 PM 26.13 79.034 0.452 9.39 0.25 -5.39
8/18/2022 4:30:00 PM 26.12 79.016 0.452 9.39 0.72 -5.3
8/18/2022 4:45:00 PM 26.11 78.998 0.452 9.39 0.2 -5.71
8/18/2022 5:00:00 PM 26.11 78.998 0.452 9.4 0.37 -6.13
8/18/2022 5:15:00 PM 26.1 78.98 0.452 9.38 0.23 -6.76
8/18/2022 5:30:00 PM 26.09 78.962 0.452 9.39 0.35 -6.02
8/18/2022 5:45:00 PM 26.08 78.944 0.452 9.36 0.22 -6.27
8/18/2022 6:00:00 PM 26.08 78.944 0.452 9.36 0.15 -5.71
8/18/2022 6:15:00 PM 26.07 78.926 0.453 9.38 0.2 -5.89
8/18/2022 6:30:00 PM 26.06 78.908 0.452 9.35 0.2 -5.56
8/18/2022 6:45:00 PM 26.05 78.89 0.452 9.36 0.18 -5.78
8/18/2022 7:00:00 PM 26.04 78.872 0.452 9.37 0.27 -5.8
8/18/2022 7:15:00 PM 26.04 78.872 0.452 9.37 0.24 -5.25
8/18/2022 7:30:00 PM 26.03 78.854 0.452 9.35 0.21 -5.62
8/18/2022 7:45:00 PM 26.03 78.854 0.452 9.37 0.22 -4.99
8/18/2022 8:00:00 PM 26.02 78.836 0.453 9.35 0.22 -5.86
8/18/2022 8:15:00 PM 26.01 78.818 0.453 9.34 0.26 -5.78
8/18/2022 8:30:00 PM 26 78.8 0.453 9.35 0.17 -5.7
8/18/2022 8:45:00 PM 26 78.8 0.453 9.35 0.23 -4.82
8/18/2022 9:00:00 PM 25.99 78.782 0.453 9.34 0.22 -6.02
8/18/2022 9:15:00 PM 25.98 78.764 0.453 9.35 0.25 -5.91
8/18/2022 9:30:00 PM 25.98 78.764 0.452 9.34 0.19 -5.96
8/18/2022 9:45:00 PM 25.97 78.746 0.453 9.35 0.2 -7.06
8/18/2022 10:00:00 PM 25.97 78.746 0.453 9.33 0.19 -5.93
8/18/2022 10:15:00 PM 25.96 78.728 0.453 9.32 0.19 -5.35
8/18/2022 10:30:00 PM 25.95 78.71 0.453 9.32 0.19 -5.22
8/18/2022 10:45:00 PM 25.95 78.71 0.453 9.33 0.19 -5.63
8/18/2022 11:00:00 PM 25.94 78.692 0.453 9.3 0.18 -6.35
8/18/2022 11:15:00 PM 25.94 78.692 0.452 9.32 5.84 -5.56
8/18/2022 11:30:00 PM 25.93 78.674 0.453 9.3 0.21 -5.86
8/18/2022 11:45:00 PM 25.92 78.656 0.453 9.3 0.48 -5.48
8/19/2022 12:00:00 AM 25.91 78.638 0.453 9.28 0.2 -5.74
8/19/2022 12:15:00 AM 25.91 78.638 0.453 9.3 0.69 -5.82
8/19/2022 12:30:00 AM 25.9 78.62 0.452 9.29 0.67 -5.37
8/19/2022 12:45:00 AM 25.91 78.638 0.453 9.3 0.16 -6.24
8/19/2022 1:00:00 AM 25.89 78.602 0.453 9.28 0.18 -6.64
8/19/2022 1:15:00 AM 25.89 78.602 0.453 9.3 0.18 -5.89
8/19/2022 1:30:00 AM 25.88 78.584 0.453 9.27 0.23 -6.54
8/19/2022 1:45:00 AM 25.88 78.584 0.453 9.27 0.2 -7.04
8/19/2022 2:00:00 AM 25.87 78.566 0.453 9.26 0.23 -6.55
8/19/2022 2:15:00 AM 25.86 78.548 0.453 9.25 0.22 -6.15
8/19/2022 2:30:00 AM 25.86 78.548 0.453 9.25 0.18 -6.5
8/19/2022 2:45:00 AM 25.85 78.53 0.453 9.25 0.23 -5.31
8/19/2022 3:00:00 AM 25.84 78.512 0.453 9.24 0.2 -5.73
8/19/2022 3:15:00 AM 25.83 78.494 0.453 9.24 0.22 -6.52
8/19/2022 3:30:00 AM 25.83 78.494 0.454 9.23 0.23 -6.43
8/19/2022 3:45:00 AM 25.82 78.476 0.454 9.22 0.2 -4.9
8/19/2022 4:00:00 AM 25.82 78.476 0.454 9.23 0.18 -5.88
8/19/2022 4:15:00 AM 25.15 77.27 0.455 9.11 0.47 -6.11
8/19/2022 4:30:00 AM 23.93 75.074 0.459 8.61 2.51 -5.57
8/19/2022 4:45:00 AM 23.67 74.606 0.459 8.48 0.36 -5.23
8/19/2022 5:00:00 AM 23.61 74.498 0.459 8.45 0.34 -4.92
8/19/2022 5:15:00 AM 23.59 74.462 0.459 8.44 0.33 -5.94
8/19/2022 5:30:00 AM 23.58 74.444 0.459 8.41 1.19 -5.93
8/19/2022 5:45:00 AM 23.57 74.426 0.459 8.39 0.39 -6.57
8/19/2022 6:00:00 AM 23.57 74.426 0.458 8.4 0.34 -5.43
8/19/2022 6:15:00 AM 23.57 74.426 0.458 8.42 0.48 -6.67
8/19/2022 6:30:00 AM 23.57 74.426 0.458 8.4 1.18 -5.25
8/19/2022 6:45:00 AM 23.6 74.48 0.458 8.46 0.34 -6.47
8/19/2022 7:00:00 AM 23.65 74.57 0.457 8.5 0.34 -6.36
8/19/2022 7:15:00 AM 23.71 74.67799 0.456 8.52 0.35 -5.42
8/19/2022 7:30:00 AM 23.76 74.768 0.456 8.57 0.67 -6.73
8/19/2022 7:45:00 AM 23.83 74.894 0.456 8.6 0.83 -5.95
8/19/2022 8:00:00 AM 23.92 75.056 0.456 8.64 0.46 -4.78
8/19/2022 8:15:00 AM 24.01 75.218 0.453 8.69 3.54 -5.88
8/19/2022 8:30:00 AM 24.12 75.416 0.457 8.73 0.63 -4.79
8/19/2022 8:45:00 AM 24.25 75.65 0.457 8.81 0.39 -5.5
8/19/2022 9:00:00 AM 24.34 75.812 0.457 8.81 0.71 -6.2
8/19/2022 9:15:00 AM 24.47 76.046 0.456 8.87 0.46 -6.34
8/19/2022 9:30:00 AM 24.65 76.37 0.456 8.93 0.4 -6.25
8/19/2022 9:45:00 AM 24.79 76.622 0.457 9 0.35 -5.52
8/19/2022 10:00:00 AM 24.93 76.874 0.457 9.03 0.38 -6.09
8/19/2022 10:15:00 AM 25.08 77.144 0.457 9.08 0.41 -6.27
8/19/2022 10:30:00 AM 25.23 77.414 0.457 9.11 0.37 -6.12
8/19/2022 10:45:00 AM 25.4 77.72 0.458 9.14 0.35 -5.97
8/19/2022 11:00:00 AM 25.58 78.044 0.458 9.16 1.27 -6.45
8/19/2022 11:15:00 AM 25.75 78.35 0.458 9.19 0.53 -6.1
8/19/2022 11:30:00 AM 25.83 78.494 0.458 9.19 0.36 -5.35
8/19/2022 11:45:00 AM 25.94 78.692 0.4 9.2 0.78 -5.78
8/19/2022 12:00:00 PM 26.06 78.908 0.445 9.24 0.98 -5.73
8/19/2022 12:15:00 PM 26.14 79.052 0.459 9.24 0.68 -6.16
8/19/2022 12:30:00 PM 26.23 79.214 0.46 9.26 0.65 -6.17
8/19/2022 12:45:00 PM 26.38 79.484 0.46 9.28 0.72 -6.03
8/19/2022 1:00:00 PM 26.54 79.772 0.46 9.29 0.77 -5.78
8/19/2022 1:15:00 PM 26.58 79.844 0.46 9.3 0.32 -5.04
8/19/2022 1:30:00 PM 26.57 79.826 0.46 9.29 0.35 -4.58
8/19/2022 1:45:00 PM 26.57 79.826 0.46 9.3 0.33 -5.75
8/19/2022 2:00:00 PM 26.57 79.826 0.46 9.31 0.31 -6.34
8/19/2022 2:15:00 PM 26.56 79.808 0.46 9.29 0.32 -6.36
8/19/2022 2:30:00 PM 26.55 79.79 0.46 9.28 0.29 -5.61
8/19/2022 2:45:00 PM 26.54 79.772 0.46 9.27 0.56 -5.23
8/19/2022 3:00:00 PM 26.53 79.754 0.46 9.28 0.33 -6.39
8/19/2022 3:15:00 PM 26.52 79.736 0.46 9.27 0.29 -6.41
8/19/2022 3:30:00 PM 26.51 79.718 0.46 9.26 0.29 -5.4
8/19/2022 3:45:00 PM 26.5 79.7 0.46 9.26 0.27 -6.28
8/19/2022 4:00:00 PM 26.49 79.682 0.46 9.26 0.34 -6.15
8/19/2022 4:15:00 PM 26.48 79.664 0.46 9.27 0.28 -6.02
8/19/2022 4:30:00 PM 26.47 79.646 0.46 9.27 0.35 -5.84
8/19/2022 4:45:00 PM 26.47 79.646 0.46 9.26 0.29 -5.09
8/19/2022 5:00:00 PM 26.45 79.61 0.46 9.26 0.32 -5.84
8/19/2022 5:15:00 PM 26.45 79.61 0.46 9.23 0.33 -6.06
8/19/2022 5:30:00 PM 26.44 79.592 0.46 9.25 0.29 -5.49
8/19/2022 5:45:00 PM 26.43 79.574 0.46 9.23 0.04 -5.16
8/19/2022 6:00:00 PM 26.43 79.574 0.46 9.25 0.31 -5.93
8/19/2022 6:15:00 PM 26.41 79.538 0.46 9.22 0.29 -5.3
8/19/2022 6:30:00 PM 26.41 79.538 0.46 9.23 0.32 -5.53
8/19/2022 6:45:00 PM 26.4 79.52 0.459 9.2 0.6 -7.06
8/19/2022 7:00:00 PM 26.39 79.502 0.46 9.21 0.28 -6.24
8/19/2022 7:15:00 PM 26.38 79.484 0.462 9.2 0.43 -5.79
8/19/2022 7:30:00 PM 26.37 79.466 0.461 9.21 0.52 -5.57
8/19/2022 7:45:00 PM 26.36 79.448 0.461 9.2 8.81 -4.75
8/19/2022 8:00:00 PM 26.35 79.43 0.461 9.18 0.33 -5.1
8/19/2022 8:15:00 PM 26.34 79.412 0.461 9.19 0.29 -5.71
8/19/2022 8:30:00 PM 26.33 79.394 0.461 9.19 0.33 -6.07
8/19/2022 8:45:00 PM 26.31 79.358 0.461 9.16 0.34 -4.97
8/19/2022 9:00:00 PM 26.3 79.34 0.461 9.15 0.3 -4.9
8/19/2022 9:15:00 PM 26.3 79.34 0.461 9.16 0.32 -6.18
8/19/2022 9:30:00 PM 26.29 79.32201 0.461 9.16 0.37 -4.83
8/19/2022 9:45:00 PM 26.29 79.32201 0.461 9.12 0.32 -5.12
8/19/2022 10:00:00 PM 26.28 79.304 0.461 9.13 0.33 -5.31
8/19/2022 10:15:00 PM 26.28 79.304 0.461 9.13 0.36 -4.88
8/19/2022 10:30:00 PM 26.27 79.286 0.461 9.13 0.59 -5.94
8/19/2022 10:45:00 PM 26.26 79.268 0.461 9.11 0.29 -4.99
8/19/2022 11:00:00 PM 26.24 79.232 0.462 9.11 0.42 -6.95
8/19/2022 11:15:00 PM 26.23 79.214 0.462 9.11 0.3 -5.86
8/19/2022 11:30:00 PM 26.22 79.196 0.462 9.08 0.31 -6.54
8/19/2022 11:45:00 PM 26.22 79.196 0.462 9.08 0.33 -6.14
8/20/2022 12:00:00 AM 26.21 79.17799 0.462 9.07 0.43 -5.58
8/20/2022 12:15:00 AM 26.21 79.17799 0.462 9.06 0.78 -5.23
8/20/2022 12:30:00 AM 26.21 79.17799 0.272 9.05 0.9 -6.48
8/20/2022 12:45:00 AM 26.21 79.17799 0.462 9.07 0.33 -6.25
8/20/2022 1:00:00 AM 26.2 79.16 0.462 9.05 0.34 -5.53
8/20/2022 1:15:00 AM 26.19 79.142 0.462 9.03 0.35 -5.45
8/20/2022 1:30:00 AM 26.19 79.142 0.462 9.04 0.34 -5.79
8/20/2022 1:45:00 AM 26.18 79.124 0.462 9 0.33 -5.13
8/20/2022 2:00:00 AM 26.18 79.124 0.463 9.02 0.34 -6.48
8/20/2022 2:15:00 AM 26.17 79.106 0.462 9.01 0.34 -5.42
8/20/2022 2:30:00 AM 26.17 79.106 0.463 9.02 0.32 -5.78
8/20/2022 2:45:00 AM 26.16 79.088 0.463 8.99 0.33 -5.28
8/20/2022 3:00:00 AM 26.16 79.088 0.463 9 0.37 -5.42
8/20/2022 3:15:00 AM 26.15 79.07 0.463 8.98 0.37 -6.21
8/20/2022 3:30:00 AM 26.15 79.07 0.463 8.98 0.35 -6.09
8/20/2022 3:45:00 AM 26.14 79.052 0.463 8.99 0.36 -6.3
8/20/2022 4:00:00 AM 26.14 79.052 0.463 8.99 0.36 -10.33
8/20/2022 4:15:00 AM 25.5 77.9 0.463 8.95 0.44 -5.75
8/20/2022 4:30:00 AM 25.02 77.036 0.469 8.7 0.57 -7.24
8/20/2022 4:45:00 AM 24.89 76.802 0.47 8.62 1.07 -5.71
8/20/2022 5:00:00 AM 24.87 76.766 0.47 8.57 0.63 -5.14
8/20/2022 5:15:00 AM 24.87 76.766 0.47 8.55 0.57 -6.46
8/20/2022 5:30:00 AM 24.88 76.784 0.47 8.52 0.98 -6.17
8/20/2022 5:45:00 AM 24.91 76.838 0.469 8.52 0.67 -5.8
8/20/2022 6:00:00 AM 24.93 76.874 0.47 8.5 0.65 -4.84
8/20/2022 6:15:00 AM 24.96 76.92799 0.469 8.51 0.52 -6.2
8/20/2022 6:30:00 AM 25 77 0.469 8.51 0.56 -5.45
8/20/2022 6:45:00 AM 25.05 77.09 0.468 8.53 0.55 -5.49
8/20/2022 7:00:00 AM 25.13 77.234 0.468 8.56 2.02 -5.55
8/20/2022 7:15:00 AM 25.18 77.324 0.467 8.57 0.58 -5.75
8/20/2022 7:30:00 AM 25.25 77.45 0.467 8.59 1.63 -5.3
8/20/2022 7:45:00 AM 25.35 77.63 0.47 8.63 1.1 -4.9
8/20/2022 8:00:00 AM 25.45 77.81 0.47 8.66 1.15 -5.75
8/20/2022 8:15:00 AM 25.58 78.044 0.47 8.68 1.05 -6
8/20/2022 8:30:00 AM 25.68 78.224 0.47 8.72 0.83 -6.09
8/20/2022 8:45:00 AM 25.74 78.332 0.47 8.74 0.58 -6.35
8/20/2022 9:00:00 AM 25.8 78.44 0.471 8.76 0.85 -6.07
8/20/2022 9:15:00 AM 25.93 78.674 0.47 8.81 0.71 -5.11
8/20/2022 9:30:00 AM 26.11 78.998 0.471 8.86 0.84 -5.07
8/20/2022 9:45:00 AM 26.31 79.358 0.471 8.9 2.08 -5.47
8/20/2022 10:00:00 AM 26.5 79.7 0.471 8.95 0.77 -4.86
8/20/2022 10:15:00 AM 26.62 79.916 0.472 8.98 1.46 -7.41
8/20/2022 10:30:00 AM 26.8 80.24 0.467 9.03 5.22 -6.78
8/20/2022 10:45:00 AM 26.97 80.546 0.289 9.05 2.5 -6.02
8/20/2022 11:00:00 AM 27.08 80.744 0.472 9.1 0.52 -5.64
8/20/2022 11:15:00 AM 27.24 81.032 0.472 9.12 0.54 -6.74
8/20/2022 11:30:00 AM 27.44 81.392 0.472 9.13 0.48 -7.44
8/20/2022 11:45:00 AM 27.5 81.5 0.472 9.13 0.53 -7.2
8/20/2022 12:00:00 PM 27.51 81.518 0.472 9.11 0.48 -8.82
8/20/2022 12:15:00 PM 27.51 81.518 0.472 9.12 0.49 -8.72
8/20/2022 12:30:00 PM 27.51 81.518 0.473 9.11 0.54 -5.21
8/20/2022 12:45:00 PM 27.5 81.5 0.472 9.11 0.47 -6.29
8/20/2022 1:00:00 PM 27.49 81.482 0.472 9.11 0.46 -8.57
8/20/2022 1:15:00 PM 27.48 81.464 0.472 9.12 0.47 -7.95
8/20/2022 1:30:00 PM 27.47 81.446 0.473 9.08 0.46 -9.64
8/20/2022 1:45:00 PM 27.45 81.41 0.473 9.13 0.47 -6.68
8/20/2022 2:00:00 PM 27.44 81.392 0.473 9.09 0.51 -6.18
8/20/2022 2:15:00 PM 27.43 81.374 0.473 9.1 0.61 -6.07
8/20/2022 2:30:00 PM 27.42 81.356 0.473 9.09 0.45 -10.48
8/20/2022 2:45:00 PM 27.41 81.338 0.473 9.11 0.55 -7.57
8/20/2022 3:00:00 PM 27.4 81.32 0.473 9.08 0.47 -9.87
8/20/2022 3:15:00 PM 27.39 81.302 0.473 9.09 0.52 -7.76
8/20/2022 3:30:00 PM 27.38 81.284 0.473 9.06 0.53 -6.19
8/20/2022 3:45:00 PM 27.37 81.266 0.473 9.03 0.48 -7.73
8/20/2022 4:00:00 PM 27.36 81.248 0.473 9.07 1.18 -8.5
8/20/2022 4:15:00 PM 27.35 81.23 0.473 9.06 0.48 -7.21
8/20/2022 4:30:00 PM 27.34 81.212 0.473 9.07 0.53 -6.95
8/20/2022 4:45:00 PM 27.33 81.194 0.473 9.04 0.52 -7.09
8/20/2022 5:00:00 PM 27.32 81.176 0.473 9.04 0.53 -6.26
8/20/2022 5:15:00 PM 27.31 81.158 0.473 9.04 0.49 -7.06
8/20/2022 5:30:00 PM 27.3 81.14 0.473 9.03 0.54 -7.68
8/20/2022 5:45:00 PM 27.29 81.122 0.473 9.04 0.87 -8.57
8/20/2022 6:00:00 PM 27.28 81.104 0.473 9.02 0.56 -5.67
8/20/2022 6:15:00 PM 27.27 81.086 0.473 9.02 9.41 -6.63
8/20/2022 6:30:00 PM 27.26 81.068 0.473 9.02 0.53 -6.34
8/20/2022 6:45:00 PM 27.25 81.05 0.473 9.02 0.58 -6.93
8/20/2022 7:00:00 PM 27.24 81.032 0.473 8.98 0.53 -6.68
8/20/2022 7:15:00 PM 27.23 81.014 0.473 9.02 0.52 -6.97
8/20/2022 7:30:00 PM 27.22 80.996 0.473 9 0.52 -7.04
8/20/2022 7:45:00 PM 27.21 80.978 0.473 9 0.55 -5.91
8/20/2022 8:00:00 PM 27.21 80.978 0.473 9 0.54 -7.71
8/20/2022 8:15:00 PM 27.2 80.96 0.473 8.99 0.55 -6.11
8/20/2022 8:30:00 PM 27.19 80.942 0.473 9 0.57 -4.94
8/20/2022 8:45:00 PM 27.18 80.924 0.473 8.99 0.52 -5.44
8/20/2022 9:00:00 PM 27.17 80.906 0.473 8.99 0.58 -9.24
8/20/2022 9:15:00 PM 27.16 80.888 0.473 8.96 0.53 -8.73
8/20/2022 9:30:00 PM 27.16 80.888 0.473 8.97 0.52 -8.35
8/20/2022 9:45:00 PM 27.15 80.87 0.473 8.94 0.53 -6.73
8/20/2022 10:00:00 PM 27.14 80.852 0.473 8.96 0.56 -12.38
8/20/2022 10:15:00 PM 27.13 80.834 0.473 8.94 0.51 -5.58
8/20/2022 10:30:00 PM 27.12 80.816 0.473 8.93 0.56 -5.73
8/20/2022 10:45:00 PM 27.11 80.798 0.474 8.92 0.57 -7.13
8/20/2022 11:00:00 PM 27.11 80.798 0.474 8.92 0.55 -8.86
8/20/2022 11:15:00 PM 27.1 80.78 0.474 8.91 0.53 -14.72
8/20/2022 11:30:00 PM 27.09 80.762 0.474 8.92 0.54 -8.14
8/20/2022 11:45:00 PM 27.08 80.744 0.474 8.9 0.57 -5.35
8/21/2022 12:00:00 AM 27.07 80.726 0.474 8.9 0.61 -6.92
8/21/2022 12:15:00 AM 27.06 80.708 0.474 8.87 0.54 -13.49
8/21/2022 12:30:00 AM 27.05 80.69 0.474 8.88 0.56 -6.3
8/21/2022 12:45:00 AM 27.05 80.69 0.474 8.86 0.49 -6.61
8/21/2022 1:00:00 AM 27.04 80.672 0.474 8.83 0.58 -8.23
8/21/2022 1:15:00 AM 27.03 80.654 0.474 8.85 0.58 -9.5
8/21/2022 1:30:00 AM 27.02 80.636 0.474 8.85 1.28 -8.67
8/21/2022 1:45:00 AM 27.01 80.618 0.474 8.82 0.58 -9.99
8/21/2022 2:00:00 AM 27 80.6 0.474 8.82 0.81 -7.48
8/21/2022 2:15:00 AM 26.99 80.582 0.474 8.81 0.59 -6.46
8/21/2022 2:30:00 AM 26.98 80.564 0.474 8.8 3.75 -9.88
8/21/2022 2:45:00 AM 26.97 80.546 0.475 8.79 1.12 -6.62
8/21/2022 3:00:00 AM 26.97 80.546 0.475 8.77 0.58 -5.47
8/21/2022 3:15:00 AM 26.96 80.528 0.475 8.75 1.1 -12.48
8/21/2022 3:30:00 AM 26.95 80.51 0.475 8.77 0.6 -7.21
8/21/2022 3:45:00 AM 26.94 80.492 0.475 8.74 0.67 -8.47
8/21/2022 4:00:00 AM 26.93 80.474 0.475 8.73 0.59 -9.8
8/21/2022 4:15:00 AM 26.93 80.474 0.475 8.73 0.68 -6.4
8/21/2022 4:30:00 AM 26.92 80.456 0.347 8.71 0.98 -8.2
8/21/2022 4:45:00 AM 26.91 80.438 0.475 8.71 0.67 -13.52
8/21/2022 5:00:00 AM 26.91 80.438 0.475 8.71 0.6 -18.26
8/21/2022 5:15:00 AM 25.84 78.512 0.478 8.6 0.74 -12.77
8/21/2022 5:30:00 AM 25.38 77.684 0.48 8.53 0.72 -16.22
8/21/2022 5:45:00 AM 25.31 77.558 0.48 8.47 0.69 -13.96
8/21/2022 6:00:00 AM 25.3 77.54 0.48 8.49 0.68 -10.74
8/21/2022 6:15:00 AM 25.31 77.558 0.48 8.49 0.78 -13.05
8/21/2022 6:30:00 AM 25.33 77.594 0.436 8.48 0.82 -15.43
8/21/2022 6:45:00 AM 25.35 77.63 0.415 8.49 2.62 -13.38
8/21/2022 7:00:00 AM 25.35 77.63 0.48 8.47 1.57 -16.41
8/21/2022 7:15:00 AM 25.34 77.612 0.481 8.46 0.82 -6.29
8/21/2022 7:30:00 AM 25.33 77.594 0.481 8.46 6.27 -9.57
8/21/2022 7:45:00 AM 25.34 77.612 0.482 8.47 0.62 -12.25
8/21/2022 8:00:00 AM 25.35 77.63 0.483 8.47 1.56 -8.06
8/21/2022 8:15:00 AM 25.37 77.666 0.483 8.48 0.89 -7
8/21/2022 8:30:00 AM 25.39 77.702 0.484 8.5 0.84 -5.77
8/21/2022 8:45:00 AM 25.44 77.792 0.543 8.53 1.16 -12
8/21/2022 9:00:00 AM 25.5 77.9 0.486 8.54 0.71 -5.94
8/21/2022 9:15:00 AM 25.56 78.008 0.486 8.57 0.62 -13.41
8/21/2022 9:30:00 AM 25.6 78.08 0.486 8.58 2.99 -10.8
8/21/2022 9:45:00 AM 25.68 78.224 0.486 8.59 1.1 -14.85
8/21/2022 10:00:00 AM 25.76 78.368 0.486 8.62 0.67 -8.88
8/21/2022 10:15:00 AM 25.8 78.44 0.485 8.64 0.66 -12.39
8/21/2022 10:30:00 AM 25.79 78.422 0.485 8.64 0.65 -9
8/21/2022 10:45:00 AM 25.78 78.404 0.483 8.63 0.65 -17
8/21/2022 11:00:00 AM 25.77 78.386 0.481 8.64 1.07 -7.8
8/21/2022 11:15:00 AM 25.8 78.44 0.479 8.64 0.71 -6.26
8/21/2022 11:30:00 AM 25.88 78.584 0.479 8.68 0.73 -8.9
8/21/2022 11:45:00 AM 26.04 78.872 0.479 8.74 1.41 -8.62
8/21/2022 12:00:00 PM 26.25 79.25 0.479 8.78 0.66 -6.2
8/21/2022 12:15:00 PM 26.37 79.466 0.479 8.81 0.58 -6.62
8/21/2022 12:30:00 PM 26.57 79.826 0.479 8.83 0.62 -6.01
8/21/2022 12:45:00 PM 26.67 80.006 0.48 8.85 0.62 -5.83
8/21/2022 1:00:00 PM 26.63 79.934 0.48 8.86 0.66 -5.63
8/21/2022 1:15:00 PM 26.58 79.844 0.48 8.88 0.67 -7.03
8/21/2022 1:30:00 PM 26.55 79.79 0.48 8.88 0.68 -8.22
8/21/2022 1:45:00 PM 26.58 79.844 0.48 8.87 0.69 -10.43
8/21/2022 2:00:00 PM 26.61 79.898 0.479 8.86 0.59 -6.47
8/21/2022 2:15:00 PM 26.66 79.988 0.479 8.86 0.59 -7.19
8/21/2022 2:30:00 PM 26.71 80.078 0.479 8.85 0.63 -11.18
8/21/2022 2:45:00 PM 26.75 80.15 0.478 8.85 0.61 -46.83
8/21/2022 3:00:00 PM 26.73 80.114 0.478 8.83 0.65 -6.57
8/21/2022 3:15:00 PM 26.7 80.06 0.477 8.85 0.62 -14.11
8/21/2022 3:30:00 PM 26.66 79.988 0.477 8.82 0.6 -18.58
8/21/2022 3:45:00 PM 26.6 79.88 0.476 8.84 0.6 -8.33
8/21/2022 4:00:00 PM 26.54 79.772 0.475 8.81 0.59 -6.89
8/21/2022 4:15:00 PM 26.51 79.718 0.475 8.78 0.65 -21.33
8/21/2022 4:30:00 PM 26.5 79.7 0.475 8.78 0.6 -8.6
8/21/2022 4:45:00 PM 26.5 79.7 0.476 8.76 0.56 -17.35
8/21/2022 5:00:00 PM 26.5 79.7 0.475 8.77 0.57 -9.84
8/21/2022 5:15:00 PM 26.5 79.7 0.476 8.73 0.55 -7.99
8/21/2022 5:30:00 PM 26.5 79.7 0.475 8.74 0.55 -7.1
8/21/2022 5:45:00 PM 26.5 79.7 0.475 8.73 0.58 -7.76
8/21/2022 6:00:00 PM 26.5 79.7 0.475 8.73 0.58 -7.49
8/21/2022 6:15:00 PM 26.49 79.682 0.476 8.74 0.54 -6.36
8/21/2022 6:30:00 PM 26.49 79.682 0.476 8.74 0.55 -6.72
8/21/2022 6:45:00 PM 26.49 79.682 0.475 8.7 0.58 -6.99
8/21/2022 7:00:00 PM 26.48 79.664 0.476 8.71 0.54 -5.42
8/21/2022 7:15:00 PM 26.48 79.664 0.476 8.74 0.55 -8.01
8/21/2022 7:30:00 PM 26.47 79.646 0.476 8.73 0.61 -6.68
8/21/2022 7:45:00 PM 26.47 79.646 0.476 8.68 0.61 -7.5
8/21/2022 8:00:00 PM 26.47 79.646 0.476 8.67 0.59 -7.05
8/21/2022 8:15:00 PM 26.47 79.646 0.476 8.69 0.58 -6.8
8/21/2022 8:30:00 PM 26.46 79.628 0.476 8.64 0.52 -6.9
8/21/2022 8:45:00 PM 26.46 79.628 0.476 8.64 0.66 -7.12
8/21/2022 9:00:00 PM 26.45 79.61 0.476 8.64 0.56 -6.53
8/21/2022 9:15:00 PM 26.45 79.61 0.476 8.65 0.64 -7.06
8/21/2022 9:30:00 PM 26.44 79.592 0.476 8.62 0.6 -5.64
8/21/2022 9:45:00 PM 26.44 79.592 0.476 8.57 0.59 -6.5
8/21/2022 10:00:00 PM 26.43 79.574 0.476 8.58 0.67 -6.99
8/21/2022 10:15:00 PM 26.43 79.574 0.476 8.53 0.58 -7.36
8/21/2022 10:30:00 PM 26.42 79.556 0.477 8.5 0.6 -7.6
8/21/2022 10:45:00 PM 26.41 79.538 0.477 8.49 0.62 -7.35
8/21/2022 11:00:00 PM 26.41 79.538 0.477 8.48 0.66 -6.62
8/21/2022 11:15:00 PM 26.41 79.538 0.477 8.45 0.65 -7.25
8/21/2022 11:30:00 PM 26.4 79.52 0.477 8.45 0.65 -6.52
8/21/2022 11:45:00 PM 26.4 79.52 0.477 8.44 0.49 -7
8/22/2022 12:00:00 AM 26.4 79.52 0.477 8.4 0.02 -7.66
8/22/2022 12:15:00 AM 26.4 79.52 0.477 8.4 0.72 -7.73
8/22/2022 12:30:00 AM 26.39 79.502 0.477 8.38 0.72 -6.29
8/22/2022 12:45:00 AM 26.39 79.502 0.477 8.37 0.68 -7.39
8/22/2022 1:00:00 AM 26.39 79.502 0.477 8.37 0.61 -5.88
8/22/2022 1:15:00 AM 26.39 79.502 0.477 8.37 0.75 -6.92
8/22/2022 1:30:00 AM 26.38 79.484 0.477 8.35 0.17 -6.27
8/22/2022 1:45:00 AM 26.38 79.484 0.477 8.33 0.64 -7.55
8/22/2022 2:00:00 AM 26.37 79.466 0.477 8.3 0.69 -6.34
8/22/2022 2:15:00 AM 26.38 79.484 0.477 8.32 0.78 -7.37
8/22/2022 2:30:00 AM 26.37 79.466 0.477 8.28 0.74 -5.18
8/22/2022 2:45:00 AM 26.36 79.448 0.273 8.28 1.12 -7.13
8/22/2022 3:00:00 AM 26.36 79.448 0.287 8.25 1.01 -6.62
8/22/2022 3:15:00 AM 26.36 79.448 0.478 8.26 0.83 -5.77
8/22/2022 3:30:00 AM 26.35 79.43 0.478 8.24 0.71 -7.63
8/22/2022 3:45:00 AM 26.36 79.448 0.477 8.25 0.67 -29.58
8/22/2022 4:00:00 AM 26.34 79.412 0.478 8.22 2.85 -6.31
8/22/2022 4:15:00 AM 26.34 79.412 0.496 8.23 1.02 -6.81
8/22/2022 4:30:00 AM 26.33 79.394 0.263 8.22 1.04 -7.13
8/22/2022 4:45:00 AM 25.86 78.548 0.475 8.31 0.97 -6.28
8/22/2022 5:00:00 AM 24.81 76.658 0.49 8.28 1.66 -8.37
8/22/2022 5:15:00 AM 24.58 76.244 0.49 8.27 0.83 -10.55
8/22/2022 5:30:00 AM 24.53 76.154 0.489 8.27 0.77 -6.14
8/22/2022 5:45:00 AM 24.49 76.082 0.486 8.26 1.13 -6.28
8/22/2022 6:00:00 AM 24.46 76.028 0.484 8.24 0.79 -6.22
8/22/2022 6:15:00 AM 24.43 75.974 0.484 8.25 0.84 -6.54
8/22/2022 6:30:00 AM 24.39 75.902 0.485 8.25 0.72 -8.24
8/22/2022 6:45:00 AM 24.37 75.866 0.486 8.21 0.76 -5.75
8/22/2022 7:00:00 AM 24.36 75.848 0.488 8.21 0.67 -7.99
8/22/2022 7:15:00 AM 24.37 75.866 0.493 8.2 0.91 -5.18
8/22/2022 7:30:00 AM 24.39 75.902 0.491 8.23 1.24 -5.74
8/22/2022 7:45:00 AM 24.43 75.974 0.493 8.22 0.66 -5.43
8/22/2022 8:00:00 AM 24.48 76.064 0.494 8.24 0.67 -5.06
8/22/2022 8:15:00 AM 24.51 76.118 0.485 8.27 3.65 -6.12
8/22/2022 8:30:00 AM 24.6 76.28 0.493 8.27 6.37 -5.55
8/22/2022 8:45:00 AM 24.74 76.532 0.492 8.31 1.28 -6.39
8/22/2022 9:00:00 AM 24.76 76.568 0.491 8.33 4.77 -5.41
8/22/2022 9:15:00 AM 24.77 76.586 0.491 8.33 0.9 -5.17
8/22/2022 9:30:00 AM 24.87 76.766 0.49 8.37 1.23 0
8/22/2022 9:45:00 AM 24.99 76.982 0.489 8.41 0.82 -7.19
8/22/2022 10:00:00 AM 25.08 77.144 0.49 8.42 0.91 -7.86
8/22/2022 10:15:00 AM 25.18 77.324 0.488 8.44 0.72 -5.88
8/22/2022 10:30:00 AM 25.29 77.522 0.487 8.47 1.64 -8.39
8/22/2022 10:45:00 AM 25.38 77.684 0.192 8.49 0.94 -7.36
8/22/2022 11:00:00 AM 25.44 77.792 0.486 8.5 1.42 -5.16
8/22/2022 11:15:00 AM 25.47 77.846 0.484 8.5 2.71 -6.13
8/22/2022 11:30:00 AM 25.49 77.882 0.485 8.51 0.93 -5.91
8/22/2022 11:45:00 AM 25.47 77.846 0.484 8.51 0.6 -6.46
8/22/2022 12:00:00 PM 25.48 77.864 0.484 8.53 0.67 -6.23
8/22/2022 12:15:00 PM 25.54 77.972 0.484 8.52 0.62 -6.94
8/22/2022 12:30:00 PM 25.58 78.044 0.483 8.53 0.7 0
8/22/2022 12:45:00 PM 25.68 78.224 0.482 8.54 0.82 -5.95
8/22/2022 1:00:00 PM 25.75 78.35 0.482 8.54 0.6 -7.57
8/22/2022 1:15:00 PM 25.77 78.386 0.282 8.54 0.67 -6.46
8/22/2022 1:30:00 PM 25.78 78.404 0.244 8.55 0.7 -8.93
8/22/2022 1:45:00 PM 25.81 78.458 0.484 8.55 0.54 -8.33
8/22/2022 2:00:00 PM 25.85 78.53 0.484 8.57 0.97 -6.23
8/22/2022 2:15:00 PM 25.85 78.53 0.274 8.53 1.12 -6.23
8/22/2022 2:30:00 PM 25.85 78.53 0.484 8.54 0.52 -6.51
8/22/2022 2:45:00 PM 25.85 78.53 0.484 8.54 2.01 -6.18
8/22/2022 3:00:00 PM 25.85 78.53 0.484 8.55 0.58 -9.11
8/22/2022 3:15:00 PM 25.85 78.53 0.484 8.55 -0.12 -5.88
8/22/2022 3:30:00 PM 25.85 78.53 0.484 8.57 0.59 -8.49
8/22/2022 3:45:00 PM 25.84 78.512 0.317 8.54 0.83 -7.19
8/22/2022 4:00:00 PM 25.84 78.512 0.485 8.53 2.05 -8.58
8/22/2022 4:15:00 PM 25.84 78.512 0.484 8.51 0.67 -6.41
8/22/2022 4:30:00 PM 25.84 78.512 0.484 8.5 0.59 -14.08
8/22/2022 4:45:00 PM 25.83 78.494 0.484 8.5 0.56 -9.67
8/22/2022 5:00:00 PM 25.83 78.494 0.484 8.51 1.26 -9.34
8/22/2022 5:15:00 PM 25.83 78.494 0.484 8.5 6.94 -6.83
8/22/2022 5:30:00 PM 25.82 78.476 0.484 8.5 -0.03 -6.33
8/22/2022 5:45:00 PM 25.82 78.476 0.484 8.5 1.16 -6.91
8/22/2022 6:00:00 PM 25.82 78.476 0.484 8.5 0.78 -5.76
8/22/2022 6:15:00 PM 25.81 78.458 0.484 8.48 0.68 -7.97
8/22/2022 6:30:00 PM 25.81 78.458 0.484 8.48 0.58 -9.98
8/22/2022 6:45:00 PM 25.81 78.458 0.484 8.49 0.55 -8.91
8/22/2022 7:00:00 PM 25.8 78.44 0.484 8.49 0.62 -6.01
8/22/2022 7:15:00 PM 25.8 78.44 0.484 8.51 0.69 -5.86
8/22/2022 7:30:00 PM 25.8 78.44 0.484 8.51 0.6 -8.25
8/22/2022 7:45:00 PM 25.8 78.44 0.484 8.48 0.54 -6.13
8/22/2022 8:00:00 PM 25.79 78.422 0.484 8.48 0.54 -7.93
8/22/2022 8:15:00 PM 25.79 78.422 0.481 8.46 3.04 -8.9
8/22/2022 8:30:00 PM 25.79 78.422 0.484 8.44 0.64 -6.71
8/22/2022 8:45:00 PM 25.78 78.404 0.484 8.5 0.59 -2000.62
8/22/2022 9:00:00 PM 25.78 78.404 0.484 8.48 0.57 -7
8/22/2022 9:15:00 PM 25.78 78.404 0.484 8.48 0.61 -9.96
8/22/2022 9:30:00 PM 25.78 78.404 0.484 8.48 0.12 -7.94
8/22/2022 9:45:00 PM 25.77 78.386 0.484 8.47 0.52 -8.54
8/22/2022 10:00:00 PM 25.77 78.386 0.484 8.43 0.77 -7.62
8/22/2022 10:15:00 PM 25.77 78.386 0.231 8.45 1.05 -6.28
8/22/2022 10:30:00 PM 25.76 78.368 0.484 8.45 0.52 -10.5
8/22/2022 10:45:00 PM 25.76 78.368 0.484 8.43 1.67 -8.35
8/22/2022 11:00:00 PM 25.76 78.368 0.484 8.46 2.29 -6.25
8/22/2022 11:15:00 PM 25.75 78.35 0.484 8.43 0.59 -7.19
8/22/2022 11:30:00 PM 25.75 78.35 0.484 8.44 1.62 -11.03
8/22/2022 11:45:00 PM 25.75 78.35 0.484 8.43 8.96 -13.97
8/23/2022 12:00:00 AM 25.74 78.332 0.485 8.44 2.79 -9.34
8/23/2022 12:15:00 AM 25.74 78.332 0.484 8.43 0.56 -5.98
8/23/2022 12:30:00 AM 25.74 78.332 0.484 8.41 0.85 -12.61
8/23/2022 12:45:00 AM 25.74 78.332 0.484 8.43 1.12 -12.77
8/23/2022 1:00:00 AM 25.73 78.314 0.485 8.41 -0.09 -9.28
8/23/2022 1:15:00 AM 25.73 78.314 0.484 8.41 0.59 -8.49
8/23/2022 1:30:00 AM 25.72 78.296 0.483 8.41 2.98 -10.38
8/23/2022 1:45:00 AM 25.73 78.314 0.484 8.43 0.6 -10.36
8/23/2022 2:00:00 AM 25.72 78.296 0.485 8.4 0.76 -9.05
8/23/2022 2:15:00 AM 25.71 78.278 0.485 8.4 0.59 -6.99
8/23/2022 2:30:00 AM 25.71 78.278 0.484 8.39 0.55 -8.56
8/23/2022 2:45:00 AM 25.7 78.26 0.491 8.38 1.71 -9.64
8/23/2022 3:00:00 AM 25.7 78.26 0.27 8.37 2.1 -6.8
8/23/2022 3:15:00 AM 25.7 78.26 0.485 8.35 0.91 -9.9
8/23/2022 3:30:00 AM 25.69 78.242 0.485 8.34 0.97 -9.36
8/23/2022 3:45:00 AM 25.69 78.242 0.485 8.34 0.65 -9.05
8/23/2022 4:00:00 AM 25.38 77.684 0.485 8.24 0.87 -6.77
8/23/2022 4:15:00 AM 24.87 76.766 0.468 8.28 0.76 -9.88
8/23/2022 4:30:00 AM 24.72 76.496 0.463 8.29 4.5 -7.57
8/23/2022 4:45:00 AM 24.71 76.478 0.463 8.29 1.83 -10.4
8/23/2022 5:00:00 AM 24.73 76.514 0.466 8.31 0.68 -7.88
8/23/2022 5:15:00 AM 24.76 76.568 0.468 8.3 0.62 -9.93
8/23/2022 5:30:00 AM 24.78 76.604 0.469 8.29 0.69 -6.78
8/23/2022 5:45:00 AM 24.8 76.64 0.47 8.29 0.7 -5.94
8/23/2022 6:00:00 AM 24.82 76.676 0.471 8.27 0.73 -5.9
8/23/2022 6:15:00 AM 24.85 76.73 0.471 8.27 1.54 -5.85
8/23/2022 6:30:00 AM 24.85 76.73 0.47 8.29 0.68 -9.25
8/23/2022 6:45:00 AM 24.87 76.766 0.47 8.31 0.77 -7.65
8/23/2022 7:00:00 AM 24.89 76.802 0.47 8.33 0.72 -7.79
8/23/2022 7:15:00 AM 24.91 76.838 0.471 8.33 1.07 -5.73
8/23/2022 7:30:00 AM 24.94 76.892 0.472 8.36 0.86 -5.65
8/23/2022 7:45:00 AM 25 77 0.473 8.36 2.9 -6.64
8/23/2022 8:00:00 AM 25.08 77.144 0.472 8.37 0.69 -6.68
8/23/2022 8:15:00 AM 25.14 77.252 0.467 8.41 3.21 -8.36
8/23/2022 8:30:00 AM 25.13 77.234 0.465 8.44 6.1 -7.55
8/23/2022 8:45:00 AM 25.15 77.27 0.461 8.45 0.75 -8.36
8/23/2022 9:00:00 AM 25.19 77.342 0.457 8.46 0.84 -7.82
8/23/2022 9:15:00 AM 25.26 77.468 0.452 8.49 0.76 -6.26
8/23/2022 9:30:00 AM 25.35 77.63 0.445 8.49 1.18 -6.04
8/23/2022 9:45:00 AM 25.42 77.756 0.44 8.48 1.02 -5.31
8/23/2022 10:00:00 AM 25.5 77.9 0.435 8.51 0.87 -5.84
8/23/2022 10:15:00 AM 25.49 77.882 0.43 8.49 1.3 -6.66
8/23/2022 10:30:00 AM 25.5 77.9 0.428 8.5 2.34 -6.53
8/23/2022 10:45:00 AM 25.55 77.99 0.427 8.5 1.41 -7.38
8/23/2022 11:00:00 AM 25.6 78.08 0.423 8.52 2.76 -5.75
8/23/2022 11:15:00 AM 25.64 78.152 0.386 8.54 2.08 -5.84
8/23/2022 11:30:00 AM 25.7 78.26 0.427 8.52 1.61 -9.51
8/23/2022 11:45:00 AM 25.74 78.332 0.427 8.55 1.33 -7.32
8/23/2022 12:00:00 PM 25.76 78.368 0.428 8.54 1.07 -8.65
8/23/2022 12:15:00 PM 25.74 78.332 0.427 8.56 2.36 -7.36
8/23/2022 12:30:00 PM 25.73 78.314 0.428 8.56 1.37 -6.28
8/23/2022 12:45:00 PM 25.77 78.386 0.426 8.56 1.85 -6
8/23/2022 1:00:00 PM 25.79 78.422 0.425 8.57 1.8 -5.91
8/23/2022 1:15:00 PM 25.82 78.476 0.425 8.56 1.05 -7.88
8/23/2022 1:30:00 PM 26.02 78.836 0.422 8.61 1.71 -5.58
8/23/2022 1:45:00 PM 26.23 79.214 0.418 8.66 1.53 -5.9
8/23/2022 2:00:00 PM 26.24 79.232 0.419 8.66 6.5 -10.06
8/23/2022 2:15:00 PM 26.28 79.304 0.417 8.68 1.51 -8.2
8/23/2022 2:30:00 PM 26.29 79.32201 0.417 8.68 0.77 -7.57
8/23/2022 2:45:00 PM 26.29 79.32201 0.247 8.64 0.93 -7.19
8/23/2022 3:00:00 PM 26.28 79.304 0.418 8.63 1.38 -8.4
8/23/2022 3:15:00 PM 26.28 79.304 0.417 8.63 1.28 -5.71
8/23/2022 3:30:00 PM 26.27 79.286 0.417 8.61 1.22 -6.96
8/23/2022 3:45:00 PM 26.27 79.286 0.417 8.63 0.93 -7.36
8/23/2022 4:00:00 PM 26.26 79.268 0.416 8.62 5.07 -5.63
8/23/2022 4:15:00 PM 26.25 79.25 0.417 8.59 0.73 -5.16
8/23/2022 4:30:00 PM 26.24 79.232 0.417 8.59 1.43 -8.56
8/23/2022 4:45:00 PM 26.24 79.232 0.417 8.59 1.37 -6.29
8/23/2022 5:00:00 PM 26.24 79.232 0.418 8.58 1.51 -8.67
8/23/2022 5:15:00 PM 26.22 79.196 0.417 8.57 0.75 -6.11
8/23/2022 5:30:00 PM 26.2 79.16 0.417 8.58 0.82 -7.08
8/23/2022 5:45:00 PM 26.2 79.16 0.418 8.56 0.8 -8.99
8/23/2022 6:00:00 PM 26.2 79.16 0.418 8.54 0.82 -6.23
8/23/2022 6:15:00 PM 26.19 79.142 0.418 8.51 2.08 -6.49
8/23/2022 6:30:00 PM 26.19 79.142 0.418 8.5 0.88 -6.29
8/23/2022 6:45:00 PM 26.18 79.124 0.418 8.51 0.86 -8.72
8/23/2022 7:00:00 PM 26.18 79.124 0.418 8.51 0.04 -8.08
8/23/2022 7:15:00 PM 26.18 79.124 0.418 8.49 2.62 -8.66
8/23/2022 7:30:00 PM 26.17 79.106 0.418 8.5 0.65 -6.83
8/23/2022 7:45:00 PM 26.17 79.106 0.418 8.49 0.75 -11.02
8/23/2022 8:00:00 PM 26.16 79.088 0.418 8.45 0.89 -7.04
8/23/2022 8:15:00 PM 26.16 79.088 0.418 8.48 1.56 -6.35
8/23/2022 8:30:00 PM 26.15 79.07 0.418 8.48 2.11 -6.04
8/23/2022 8:45:00 PM 26.15 79.07 0.418 8.49 1.09 -7.72
8/23/2022 9:00:00 PM 26.14 79.052 0.418 8.45 0.83 -7.24
8/23/2022 9:15:00 PM 26.13 79.034 0.418 8.43 0.73 -6.69
8/23/2022 9:30:00 PM 26.13 79.034 0.418 8.47 0.74 -7.85
8/23/2022 9:45:00 PM 26.13 79.034 0.418 8.39 0.8 -7.81
8/23/2022 10:00:00 PM 26.12 79.016 0.418 8.43 1.03 -7.68
8/23/2022 10:15:00 PM 26.12 79.016 0.418 8.43 0.63 -6.81
8/23/2022 10:30:00 PM 26.12 79.016 0.418 8.43 0.76 -5.42
8/23/2022 10:45:00 PM 26.11 78.998 0.379 8.42 1.25 -8.11
8/23/2022 11:00:00 PM 26.1 78.98 0.418 8.41 1 -6.7
8/23/2022 11:15:00 PM 26.1 78.98 0.418 8.42 0.92 -6.96
8/23/2022 11:30:00 PM 26.1 78.98 0.418 8.46 0.78 -8.91
8/23/2022 11:45:00 PM 26.09 78.962 0.418 8.41 0.88 -10.7
8/24/2022 12:00:00 AM 26.09 78.962 0.419 8.39 0.82 -7.78
8/24/2022 12:15:00 AM 26.08 78.944 0.42 8.37 0.89 -5.78
8/24/2022 12:30:00 AM 26.08 78.944 0.419 8.36 1.56 -10.23
8/24/2022 12:45:00 AM 26.07 78.926 0.418 8.36 1.09 -6.47
8/24/2022 1:00:00 AM 26.06 78.908 0.239 8.37 1.08 -9.4
8/24/2022 1:15:00 AM 26.06 78.908 0.418 8.37 1.29 -10.23
8/24/2022 1:30:00 AM 26.05 78.89 0.312 8.36 1.04 -7.26
8/24/2022 1:45:00 AM 26.05 78.89 0.419 8.35 1.23 -10.84
8/24/2022 2:00:00 AM 26.04 78.872 0.418 8.33 1.01 -10.26
8/24/2022 2:15:00 AM 26.03 78.854 0.419 8.31 1.06 -5.5
8/24/2022 2:30:00 AM 26.03 78.854 0.249 8.31 0.79 -7.17
8/24/2022 2:45:00 AM 26.03 78.854 0.419 8.29 1.08 -8.69
8/24/2022 3:00:00 AM 26.02 78.836 0.419 8.27 1.07 -6.52
8/24/2022 3:15:00 AM 26.02 78.836 0.419 8.28 0.86 -9.2
8/24/2022 3:30:00 AM 26.01 78.818 0.419 8.28 0.9 -5.4
8/24/2022 3:45:00 AM 26.01 78.818 0.419 8.26 0.93 -6.91
8/24/2022 4:00:00 AM 25.49 77.882 0.428 8.23 1.07 0
8/24/2022 4:15:00 AM 25.47 77.846 0.471 8.41 0.8 -11.94
8/24/2022 4:30:00 AM 25.5 77.9 0.473 8.43 0.82 -422.34
8/24/2022 4:45:00 AM 25.53 77.954 0.453 8.45 0.09 -6.85
8/24/2022 5:00:00 AM 25.55 77.99 0.464 8.43 1.48 -6.44
8/24/2022 5:15:00 AM 25.56 78.008 0.464 8.46 1.51 -8.41
8/24/2022 5:30:00 AM 25.56 78.008 0.464 8.44 1.92 -6.78
8/24/2022 5:45:00 AM 25.57 78.026 0.465 8.44 0.89 -6.3
8/24/2022 6:00:00 AM 25.56 78.008 0.465 8.43 1.38 -8.89
8/24/2022 6:15:00 AM 25.56 78.008 0.466 8.43 1.52 -7.34
8/24/2022 6:30:00 AM 25.56 78.008 0.467 8.44 0.93 -6.57
8/24/2022 6:45:00 AM 25.56 78.008 0.289 8.44 2.02 -6.51
8/24/2022 7:00:00 AM 25.56 78.008 0.37 8.45 1.6 -7.65
8/24/2022 7:15:00 AM 25.57 78.026 0.463 8.47 6.46 -8.49
8/24/2022 7:30:00 AM 25.57 78.026 0.462 8.46 1.05 -6.17
8/24/2022 7:45:00 AM 25.62 78.116 0.462 8.48 1.69 -8.04
8/24/2022 8:00:00 AM 25.66 78.188 0.463 8.49 1.08 -6.92
8/24/2022 8:15:00 AM 25.7 78.26 0.463 8.52 1.1 -5.44
8/24/2022 8:30:00 AM 25.73 78.314 0.464 8.54 4.44 -4.47
8/24/2022 8:45:00 AM 25.8 78.44 0.464 8.53 0.84 0
8/24/2022 9:00:00 AM 25.88 78.584 0.465 8.55 12.31 -6.06
8/24/2022 9:15:00 AM 25.96 78.728 0.465 8.59 1.05 -7.33
8/24/2022 9:30:00 AM 26.03 78.854 0.316 8.61 1.58 -6.43
8/24/2022 9:45:00 AM 26.11 78.998 0.466 8.63 1.34 -6.46
8/24/2022 10:00:00 AM 26.2 79.16 0.466 8.64 0.89 -5.22
8/24/2022 10:15:00 AM 26.28 79.304 0.467 8.67 0.83 -5.23
8/24/2022 10:30:00 AM 26.33 79.394 0.467 8.68 0.73 -6.68
8/24/2022 10:45:00 AM 26.38 79.484 0.467 8.67 7.84 -5.27
8/24/2022 11:00:00 AM 26.47 79.646 0.468 8.69 0.67 -7.72
8/24/2022 11:15:00 AM 26.55 79.79 0.468 8.72 0.2 -7.08
8/24/2022 11:30:00 AM 26.61 79.898 0.469 8.72 1.43 -7.68
8/24/2022 11:45:00 AM 26.69 80.042 0.47 8.74 1.09 -6.46
8/24/2022 12:00:00 PM 26.74 80.132 0.47 8.75 0 -4.81
8/24/2022 12:15:00 PM 26.78 80.204 0.47 8.76 0.68 -5.21
8/24/2022 12:30:00 PM 26.83 80.294 0.471 8.79 0.96 -5.75
8/24/2022 12:45:00 PM 26.89 80.402 0.472 8.79 3.58 -5.53
8/24/2022 1:00:00 PM 26.95 80.51 0.42 8.82 1.08 -4.92
8/24/2022 1:15:00 PM 27.02 80.636 0.382 8.84 0.9 -5.92
8/24/2022 1:30:00 PM 27.08 80.744 0.475 8.87 3.84 -6.01
8/24/2022 1:45:00 PM 27.33 81.194 0.48 8.93 0.75 -6.61
8/24/2022 2:00:00 PM 27.37 81.266 0.481 8.94 0.84 -5
8/24/2022 2:15:00 PM 27.36 81.248 0.481 8.9 0.81 -5.71
8/24/2022 2:30:00 PM 27.36 81.248 0.481 8.9 4.75 -5.14
8/24/2022 2:45:00 PM 27.37 81.266 0.481 8.9 0.63 -5.28
8/24/2022 3:00:00 PM 27.36 81.248 0.481 8.91 0.68 -6.11
8/24/2022 3:15:00 PM 27.35 81.23 0.476 8.91 0.73 -5.13
8/24/2022 3:30:00 PM 27.34 81.212 0.481 8.91 7.52 -6.18
8/24/2022 3:45:00 PM 27.33 81.194 0.481 8.91 0.66 -5.92
8/24/2022 4:00:00 PM 27.32 81.176 0.48 8.9 1.51 -6.57
8/24/2022 4:15:00 PM 27.31 81.158 0.481 8.88 1.66 -6.48
8/24/2022 4:30:00 PM 27.29 81.122 0.481 8.87 0.67 -5.34
8/24/2022 4:45:00 PM 27.28 81.104 0.481 8.89 0.64 -5.98
8/24/2022 5:00:00 PM 27.26 81.068 0.481 8.88 2.48 -4.58
8/24/2022 5:15:00 PM 27.26 81.068 0.481 8.87 0.65 -4.85
8/24/2022 5:30:00 PM 27.25 81.05 0.471 8.86 1.31 -4.94
8/24/2022 5:45:00 PM 27.24 81.032 0.481 8.89 0.74 -6.58
8/24/2022 6:00:00 PM 27.23 81.014 0.481 8.86 0.82 -5.21
8/24/2022 6:15:00 PM 27.23 81.014 0.481 8.84 0.8 -4.66
8/24/2022 6:30:00 PM 27.21 80.978 0.478 8.84 4.18 -5.94
8/24/2022 6:45:00 PM 27.21 80.978 0.481 8.83 0.68 -6.14
8/24/2022 7:00:00 PM 27.19 80.942 0.481 8.83 1.82 -6.14
8/24/2022 7:15:00 PM 27.18 80.924 0.424 8.82 0.99 -5.16
8/24/2022 7:30:00 PM 27.17 80.906 0.473 8.83 2.03 -6.03
8/24/2022 7:45:00 PM 27.15 80.87 0.481 8.81 0.68 -5.89
8/24/2022 8:00:00 PM 27.14 80.852 0.482 8.79 0.73 -5.01
8/24/2022 8:15:00 PM 27.13 80.834 0.481 8.79 1.15 -6.31
8/24/2022 8:30:00 PM 27.11 80.798 0.482 8.79 0.74 -5.19
8/24/2022 8:45:00 PM 27.1 80.78 0.482 8.78 0.65 -4.62
8/24/2022 9:00:00 PM 27.1 80.78 0.344 8.76 3.19 -4.7
8/24/2022 9:15:00 PM 27.09 80.762 0.482 8.76 0.88 -5.05
8/24/2022 9:30:00 PM 27.07 80.726 0.482 8.76 1.08 -4.93
8/24/2022 9:45:00 PM 27.06 80.708 0.482 8.75 0.72 -5.49
8/24/2022 10:00:00 PM 27.05 80.69 0.482 8.74 1.07 -5.37
8/24/2022 10:15:00 PM 27.03 80.654 0.482 8.73 1.26 -5.43
8/24/2022 10:30:00 PM 27.02 80.636 0.482 8.72 1.09 -5.31
8/24/2022 10:45:00 PM 27.02 80.636 0.449 8.7 1.48 -4.74
8/24/2022 11:00:00 PM 27.02 80.636 0.46 8.7 1.08 -5.6
8/24/2022 11:15:00 PM 27.02 80.636 0.46 8.7 0.98 -7.74
8/24/2022 11:30:00 PM 27.01 80.618 0.487 8.69 1.33 -6.14
8/24/2022 11:45:00 PM 27 80.6 0.482 8.69 2.62 -5.31
8/25/2022 12:00:00 AM 26.99 80.582 0.482 8.68 0.73 -4.79
8/25/2022 12:15:00 AM 26.98 80.564 0.258 8.68 2.21 -5.29
8/25/2022 12:30:00 AM 26.98 80.564 0.482 8.67 1.45 -5.8
8/25/2022 12:45:00 AM 26.97 80.546 0.3 8.66 4.84 -4.89
8/25/2022 1:00:00 AM 26.96 80.528 0.427 8.66 1.7 -4.71
8/25/2022 1:15:00 AM 26.96 80.528 0.482 8.65 0.74 -4.81
8/25/2022 1:30:00 AM 26.95 80.51 0.267 8.64 0.94 -5.79
8/25/2022 1:45:00 AM 26.95 80.51 0.473 8.65 -0.16 -5.57
8/25/2022 2:00:00 AM 26.94 80.492 0.483 8.61 1.05 -5.57
8/25/2022 2:15:00 AM 26.93 80.474 0.482 8.62 0.75 -5.85
8/25/2022 2:30:00 AM 26.92 80.456 0.138 8.6 1.22 -4.52
8/25/2022 2:45:00 AM 26.92 80.456 0.482 8.58 1.64 -4.71
8/25/2022 3:00:00 AM 26.91 80.438 0.482 8.57 0.65 -5.66
8/25/2022 3:15:00 AM 26.9 80.42 0.482 8.56 0.74 -4.67
8/25/2022 3:30:00 AM 26.89 80.402 0.482 8.54 0.71 -4.11
8/25/2022 3:45:00 AM 26.88 80.384 0.482 8.54 1.23 -4.27
8/25/2022 4:00:00 AM 26.26 79.268 0.243 8.52 2.25 -5.43
8/25/2022 4:15:00 AM 25.8 78.44 0.48 8.58 1.04 -4.69
8/25/2022 4:30:00 AM 25.7 78.26 0.478 8.6 0.9 -5.26
8/25/2022 4:45:00 AM 25.66 78.188 0.477 8.59 3.56 -4.85
8/25/2022 5:00:00 AM 25.64 78.152 0.477 8.59 1.81 -4.4
8/25/2022 5:15:00 AM 25.61 78.098 0.477 8.59 -0.14 0
8/25/2022 5:30:00 AM 25.58 78.044 0.477 8.56 0.83 -4.9
8/25/2022 5:45:00 AM 25.56 78.008 0.405 8.55 3 -4.86
8/25/2022 6:00:00 AM 25.53 77.954 0.477 8.55 1.7 -5.04
8/25/2022 6:15:00 AM 25.51 77.918 0.477 8.54 0.03 -4.09
8/25/2022 6:30:00 AM 25.48 77.864 0.477 8.55 1.22 -4.87
8/25/2022 6:45:00 AM 25.47 77.846 0.477 8.54 1.01 -4.45
8/25/2022 7:00:00 AM 25.47 77.846 0.477 8.56 0.82 -4.81
8/25/2022 7:15:00 AM 25.48 77.864 0.477 8.57 0.81 -4.71
8/25/2022 7:30:00 AM 25.49 77.882 0.477 8.59 0.76 -4.27
8/25/2022 7:45:00 AM 25.51 77.918 0.477 8.6 1.73 -4.61
8/25/2022 8:00:00 AM 25.54 77.972 0.477 8.64 0.83 -3.83
8/25/2022 8:15:00 AM 25.59 78.062 0.477 8.65 1.01 -4.1
8/25/2022 8:30:00 AM 25.65 78.17 0.469 8.68 0.66 -4.89
8/25/2022 8:45:00 AM 25.69 78.242 0.477 8.69 1.32 -4.53
8/25/2022 9:00:00 AM 25.78 78.404 0.476 8.72 1.41 -4.3
8/25/2022 9:15:00 AM 25.88 78.584 0.476 8.73 3.93 -4.83
8/25/2022 9:30:00 AM 25.97 78.746 0.461 8.77 2.49 -5.12
8/25/2022 9:45:00 AM 26.06 78.908 0.476 8.8 1.03 -5.25
8/25/2022 10:00:00 AM 26.16 79.088 0.475 8.82 2.21 -5.18
8/25/2022 10:15:00 AM 26.25 79.25 0.475 8.85 2.33 -4.26
8/25/2022 10:30:00 AM 26.35 79.43 0.474 8.86 0.87 -4.08
8/25/2022 10:45:00 AM 26.44 79.592 0.474 8.88 0.66 -4.8
8/25/2022 11:00:00 AM 26.53 79.754 0.473 8.92 0.89 -4.56
8/25/2022 11:15:00 AM 26.62 79.916 0.473 8.93 0.76 -4.17
8/25/2022 11:30:00 AM 26.72 80.096 0.473 8.96 0.87 -4.81
8/25/2022 11:45:00 AM 26.84 80.312 0.469 9.01 1.92 -5.23
8/25/2022 12:00:00 PM 26.93 80.474 0.472 9.02 1.4 -5.07
8/25/2022 12:15:00 PM 27.03 80.654 0.471 9.06 4.71 -4.23
8/25/2022 12:30:00 PM 27.06 80.708 0.472 9.06 1.23 -4.62
8/25/2022 12:45:00 PM 27.16 80.888 0.471